Provisional Data: Trout Run near Shawville, PA


Please select a monitoring station.
Please select start date.
Please select start date.

Toggle Unit: C/F Toggle Unit: C/F
Sample Time Temperature (C) Temperature (F) Specific Conductivity (mS/cm) pH   Turbidity (NTU+) DO (mg/L)
10/20/2020 12:00:00 AM 9.57 49.226 0.077 6.33 1.31 10.48
10/20/2020 12:15:00 AM 9.57 49.226 0.077 6.33 1.31 10.48
10/20/2020 12:30:00 AM 9.58 49.244 0.078 6.33 1.33 10.48
10/20/2020 12:45:00 AM 9.59 49.262 0.078 6.33 1.33 10.48
10/20/2020 1:00:00 AM 9.6 49.28 0.078 6.33 1.37 10.47
10/20/2020 1:15:00 AM 9.6 49.28 0.078 6.33 1.3 10.47
10/20/2020 1:30:00 AM 9.61 49.298 0.078 6.34 1.32 10.46
10/20/2020 1:45:00 AM 9.62 49.316 0.078 6.34 1.41 10.46
10/20/2020 2:00:00 AM 9.63 49.334 0.079 6.33 1.31 10.45
10/20/2020 2:15:00 AM 9.64 49.352 0.079 6.34 1.29 10.46
10/20/2020 2:30:00 AM 9.65 49.37 0.079 6.34 1.36 10.46
10/20/2020 2:45:00 AM -100000 -179968 -100000 -100000 -100000 -100000
10/20/2020 3:00:00 AM 9.66 49.388 0.079 6.34 1.31 10.45
10/20/2020 3:15:00 AM 9.67 49.406 0.079 6.33 1.32 10.45
10/20/2020 3:30:00 AM 9.68 49.424 0.079 6.34 1.36 10.44
10/20/2020 3:45:00 AM 9.69 49.442 0.079 6.34 1.36 10.44
10/20/2020 4:00:00 AM 9.69 49.442 0.079 6.34 1.32 10.44
10/20/2020 4:15:00 AM 9.7 49.46 0.079 6.34 1.27 10.43
10/20/2020 4:30:00 AM 9.71 49.478 0.079 6.34 1.33 10.43
10/20/2020 4:45:00 AM 9.72 49.496 0.079 6.34 1.31 10.43
10/20/2020 5:00:00 AM 9.73 49.514 0.079 6.33 1.32 10.42
10/20/2020 5:15:00 AM 9.73 49.514 0.078 6.33 1.33 10.44
10/20/2020 5:30:00 AM 9.74 49.532 0.078 6.34 1.3 10.43
10/20/2020 5:45:00 AM 9.74 49.532 0.078 6.33 1.32 10.43
10/20/2020 6:00:00 AM 9.75 49.55 0.078 6.33 1.3 10.43
10/20/2020 6:15:00 AM 9.76 49.568 0.078 6.33 1.33 10.43
10/20/2020 6:30:00 AM -100000 -179968 -100000 -100000 -100000 -100000
10/20/2020 6:45:00 AM 9.77 49.586 0.078 6.33 1.32 10.43
10/20/2020 7:00:00 AM 9.78 49.604 0.078 6.33 1.36 10.43
10/20/2020 7:15:00 AM 9.79 49.622 0.078 6.33 1.34 10.44
10/20/2020 7:30:00 AM 9.8 49.64 0.078 6.33 1.34 10.43
10/20/2020 7:45:00 AM 9.81 49.658 0.078 6.33 1.38 10.42
10/20/2020 8:00:00 AM 9.81 49.658 0.078 6.33 1.31 10.43
10/20/2020 8:15:00 AM 9.83 49.694 0.077 6.33 1.33 10.44
10/20/2020 8:30:00 AM 9.84 49.712 0.077 6.33 1.34 10.47
10/20/2020 8:45:00 AM 9.86 49.748 0.077 6.33 1.36 10.48
10/20/2020 9:00:00 AM 9.89 49.802 0.077 6.34 1.43 10.49
10/20/2020 9:15:00 AM 9.92 49.856 0.077 6.34 1.35 10.54
10/20/2020 9:30:00 AM 9.97 49.946 0.077 6.34 1.36 10.54
10/20/2020 9:45:00 AM 9.99 49.982 0.076 6.35 1.39 10.55
10/20/2020 10:00:00 AM -100000 -179968 -100000 -100000 -100000 -100000
10/20/2020 10:15:00 AM 10.05 50.09 0.076 6.34 1.34 10.54
10/20/2020 10:30:00 AM 10.07 50.126 0.076 6.35 1.49 10.54
10/20/2020 10:45:00 AM 10.1 50.18 0.076 6.35 1.36 10.55
10/20/2020 11:00:00 AM 10.15 50.27 0.075 6.35 1.39 10.55
10/20/2020 11:15:00 AM 10.19 50.342 0.075 6.36 1.36 10.56
10/20/2020 11:30:00 AM 10.24 50.432 0.075 6.36 1.56 10.55
10/20/2020 11:45:00 AM 10.28 50.504 0.075 6.37 1.39 10.56
10/20/2020 12:00:00 PM 10.38 50.684 0.075 6.36 1.45 10.57
10/20/2020 12:15:00 PM 10.45 50.81 0.074 6.37 1.37 10.56
10/20/2020 12:30:00 PM 10.52 50.936 0.074 6.37 1.38 10.56
10/20/2020 12:45:00 PM 10.59 51.062 0.074 6.38 1.38 10.55
10/20/2020 1:00:00 PM 10.62 51.116 0.074 6.38 1.38 10.52
10/20/2020 1:15:00 PM 10.64 51.152 0.074 6.38 1.32 10.49
10/20/2020 1:30:00 PM 10.67 51.206 0.073 6.38 1.38 10.49
10/20/2020 1:45:00 PM 10.8 51.44 0.073 6.38 1.34 10.5
10/20/2020 2:00:00 PM 10.9 51.62 0.073 6.39 1.31 10.48
10/20/2020 2:15:00 PM -100000 -179968 -100000 -100000 -100000 -100000
10/20/2020 2:30:00 PM 10.94 51.692 0.072 6.38 1.41 10.39
10/20/2020 2:45:00 PM 10.94 51.692 0.072 6.38 1.39 10.38
10/20/2020 3:00:00 PM 10.98 51.764 0.072 6.38 1.32 10.39
10/20/2020 3:15:00 PM 11.03 51.854 0.072 6.37 1.33 10.39
10/20/2020 3:30:00 PM 11.1 51.98 0.072 6.38 1.37 10.38
10/20/2020 3:45:00 PM 11.17 52.106 0.071 6.38 1.36 10.37
10/20/2020 4:00:00 PM 11.2 52.16 0.071 6.38 1.36 10.34
10/20/2020 4:15:00 PM 11.22 52.196 0.071 6.38 1.61 10.31
10/20/2020 4:30:00 PM 11.21 52.178 0.071 6.37 1.45 10.29
10/20/2020 4:45:00 PM 11.22 52.196 0.071 6.37 1.35 10.27
10/20/2020 5:00:00 PM 11.23 52.214 0.071 6.36 1.38 10.24
10/20/2020 5:15:00 PM 11.24 52.232 0.071 6.36 1.35 10.23
10/20/2020 5:30:00 PM 11.25 52.25 0.07 6.35 1.37 10.2
10/20/2020 5:45:00 PM 11.27 52.286 0.07 6.36 1.37 10.21
10/20/2020 6:00:00 PM 11.28 52.304 0.07 6.35 1.42 10.21
10/20/2020 6:15:00 PM 11.29 52.322 0.07 6.34 1.4 10.18
10/20/2020 6:30:00 PM 11.29 52.322 0.07 6.34 1.41 10.17
10/20/2020 6:45:00 PM 11.3 52.34 0.07 6.34 1.4 10.16
10/20/2020 7:00:00 PM 11.31 52.358 0.07 6.34 1.41 10.15
10/20/2020 7:15:00 PM 11.31 52.358 0.07 6.33 1.37 10.13
10/20/2020 7:30:00 PM 11.32 52.376 0.07 6.33 1.36 10.12
10/20/2020 7:45:00 PM 11.32 52.376 0.069 6.33 1.41 10.13
10/20/2020 8:00:00 PM 11.33 52.394 0.069 6.32 1.38 10.12
10/20/2020 8:15:00 PM 11.33 52.394 0.069 6.32 1.44 10.12
10/20/2020 8:30:00 PM 11.33 52.394 0.069 6.32 1.36 10.12
10/20/2020 8:45:00 PM 11.33 52.394 0.069 6.32 1.41 10.11
10/20/2020 9:00:00 PM 11.34 52.412 0.069 6.32 1.41 10.11
10/20/2020 9:15:00 PM 11.34 52.412 0.069 6.32 1.38 10.11
10/20/2020 9:30:00 PM 11.35 52.43 0.069 6.31 1.38 10.1
10/20/2020 9:45:00 PM 11.35 52.43 0.069 6.31 1.38 10.1
10/20/2020 10:00:00 PM 11.36 52.448 0.069 6.31 1.38 10.11
10/20/2020 10:15:00 PM 11.36 52.448 0.069 6.31 1.38 10.11
10/20/2020 10:30:00 PM 11.37 52.466 0.069 6.31 1.44 10.1
10/20/2020 10:45:00 PM 11.38 52.484 0.069 6.31 1.39 10.11
10/20/2020 11:00:00 PM 11.38 52.484 0.069 6.31 1.37 10.09
10/20/2020 11:15:00 PM 11.38 52.484 0.069 6.3 1.37 10.1
10/20/2020 11:30:00 PM 11.38 52.484 0.069 6.3 1.36 10.09
10/20/2020 11:45:00 PM -100000 -179968 -100000 -100000 -100000 -100000
10/21/2020 12:00:00 AM 11.4 52.52 0.069 6.3 1.36 10.09
10/21/2020 12:15:00 AM 11.4 52.52 0.069 6.3 1.41 10.08
10/21/2020 12:30:00 AM 11.41 52.538 0.069 6.3 1.36 10.09
10/21/2020 12:45:00 AM 11.41 52.538 0.069 6.3 1.38 10.08
10/21/2020 1:00:00 AM 11.41 52.538 0.069 6.29 1.34 10.07
10/21/2020 1:15:00 AM 11.4 52.52 0.069 6.3 1.35 10.08
10/21/2020 1:30:00 AM 11.4 52.52 0.068 6.29 1.36 10.08
10/21/2020 1:45:00 AM 11.4 52.52 0.069 6.29 1.4 10.08
10/21/2020 2:00:00 AM 11.41 52.538 0.068 6.29 1.37 10.08
10/21/2020 2:15:00 AM 11.41 52.538 0.068 6.29 1.37 10.09
10/21/2020 2:30:00 AM 11.42 52.556 0.068 6.29 1.37 10.08
10/21/2020 2:45:00 AM 11.42 52.556 0.068 6.29 1.35 10.06
10/21/2020 3:00:00 AM 11.42 52.556 0.068 6.29 1.35 10.07
10/21/2020 3:15:00 AM 11.42 52.556 0.068 6.29 1.38 10.08
10/21/2020 3:30:00 AM 11.42 52.556 0.068 6.29 1.39 10.07
10/21/2020 3:45:00 AM 11.42 52.556 0.068 6.28 1.37 10.09
10/21/2020 4:00:00 AM 11.41 52.538 0.068 6.29 1.38 10.06
10/21/2020 4:15:00 AM 11.39 52.502 0.068 6.28 1.44 10.06
10/21/2020 4:30:00 AM 11.36 52.448 0.068 6.28 1.36 10.09
10/21/2020 4:45:00 AM 11.35 52.43 0.068 6.28 1.42 10.1
10/21/2020 5:00:00 AM 11.34 52.412 0.068 6.27 1.38 10.09
10/21/2020 5:15:00 AM 11.34 52.412 0.068 6.27 1.34 10.1
10/21/2020 5:30:00 AM 11.34 52.412 0.068 6.28 1.36 10.09
10/21/2020 5:45:00 AM 11.33 52.394 0.067 6.28 1.41 10.11
10/21/2020 6:00:00 AM 11.32 52.376 0.067 6.28 1.39 10.1
10/21/2020 6:15:00 AM 11.31 52.358 0.067 6.29 1.42 10.11
10/21/2020 6:30:00 AM 11.31 52.358 0.067 6.29 1.42 10.11
10/21/2020 6:45:00 AM 11.31 52.358 0.067 6.29 1.36 10.12
10/21/2020 7:00:00 AM 11.31 52.358 0.067 6.3 1.39 10.13
10/21/2020 7:15:00 AM 11.3 52.34 0.067 6.3 1.41 10.13
10/21/2020 7:30:00 AM 11.29 52.322 0.067 6.3 1.44 10.13
10/21/2020 7:45:00 AM 11.28 52.304 0.067 6.3 1.43 10.14
10/21/2020 8:00:00 AM 11.28 52.304 0.067 6.31 1.42 10.14
10/21/2020 8:15:00 AM 11.29 52.322 0.067 6.31 1.41 10.16
10/21/2020 8:30:00 AM 11.31 52.358 0.067 6.31 1.4 10.18
10/21/2020 8:45:00 AM 11.34 52.412 0.067 6.32 1.42 10.21
10/21/2020 9:00:00 AM 11.37 52.466 0.066 6.33 1.39 10.22
10/21/2020 9:15:00 AM 11.4 52.52 0.066 6.34 1.43 10.24
10/21/2020 9:30:00 AM 11.44 52.592 0.066 6.35 1.43 10.25
10/21/2020 9:45:00 AM 11.51 52.718 0.066 6.36 1.42 10.28
10/21/2020 10:00:00 AM -100000 -179968 -100000 -100000 -100000 -100000
10/21/2020 10:15:00 AM 11.64 52.952 0.066 6.37 1.4 10.26
10/21/2020 10:30:00 AM 11.72 53.096 0.066 6.37 1.41 10.25
10/21/2020 10:45:00 AM 11.81 53.258 0.066 6.38 1.39 10.25
10/21/2020 11:00:00 AM 11.9 53.42 0.065 6.38 1.4 10.25
10/21/2020 11:15:00 AM 11.99 53.582 0.065 6.38 1.37 10.23
10/21/2020 11:30:00 AM 12.07 53.726 0.065 6.39 1.39 10.23
10/21/2020 11:45:00 AM 12.17 53.906 0.065 6.38 1.39 10.21
10/21/2020 12:00:00 PM 12.28 54.104 0.065 6.39 1.47 10.2
10/21/2020 12:15:00 PM 12.4 54.32 0.065 6.39 1.41 10.18
10/21/2020 12:30:00 PM -100000 -179968 -100000 -100000 -100000 -100000
10/21/2020 12:45:00 PM 12.71 54.878 0.064 6.41 1.4 10.14
10/21/2020 1:00:00 PM 12.88 55.184 0.064 6.41 1.39 10.11
10/21/2020 1:15:00 PM 13.04 55.472 0.064 6.41 1.41 10.07
10/21/2020 1:30:00 PM 13.16 55.688 0.063 6.41 1.37 10.02
10/21/2020 1:45:00 PM 13.27 55.886 0.063 6.41 1.46 9.98
10/21/2020 2:00:00 PM 13.37 56.066 0.063 6.41 1.51 9.93
10/21/2020 2:15:00 PM 13.46 56.228 0.063 6.41 1.47 9.9
10/21/2020 2:30:00 PM 13.52 56.336 0.063 6.41 1.48 9.86
10/21/2020 2:45:00 PM 13.63 56.534 0.063 6.4 1.45 9.82
10/21/2020 3:00:00 PM 13.74 56.732 0.063 6.4 1.44 9.79
10/21/2020 3:15:00 PM 13.86 56.948 0.063 6.4 1.34 9.75
10/21/2020 3:30:00 PM 13.94 57.092 0.062 6.4 1.39 9.7
10/21/2020 3:45:00 PM 13.99 57.182 0.062 6.39 1.39 9.65
10/21/2020 4:00:00 PM 14.05 57.29 0.062 6.39 1.35 9.61
10/21/2020 4:15:00 PM 14.13 57.434 0.062 6.39 1.49 9.59
10/21/2020 4:30:00 PM 14.19 57.542 0.062 6.38 1.42 9.55
10/21/2020 4:45:00 PM 14.25 57.65 0.062 6.38 1.34 9.52
10/21/2020 5:00:00 PM 14.3 57.74 0.062 6.37 1.42 9.48
10/21/2020 5:15:00 PM 14.35 57.83 0.062 6.37 1.37 9.44
10/21/2020 5:30:00 PM 14.38 57.884 0.062 6.37 1.36 9.4
10/21/2020 5:45:00 PM 14.4 57.92 0.062 6.37 1.37 9.36
10/21/2020 6:00:00 PM 14.41 57.938 0.062 6.36 1.39 9.36
10/21/2020 6:15:00 PM 14.42 57.956 0.062 6.36 1.38 9.34
10/21/2020 6:30:00 PM 14.41 57.938 0.062 6.35 1.37 9.31
10/21/2020 6:45:00 PM 14.39 57.902 0.062 6.35 1.41 9.3
10/21/2020 7:00:00 PM 14.38 57.884 0.062 6.35 1.42 9.3
10/21/2020 7:15:00 PM 14.36 57.848 0.062 6.35 1.39 9.29
10/21/2020 7:30:00 PM 14.34 57.812 0.062 6.34 1.41 9.29
10/21/2020 7:45:00 PM 14.32 57.776 0.062 6.34 1.41 9.28
10/21/2020 8:00:00 PM 14.29 57.722 0.062 6.34 1.41 9.29
10/21/2020 8:15:00 PM 14.26 57.668 0.063 6.34 1.4 9.3
10/21/2020 8:30:00 PM 14.23 57.614 0.063 6.34 1.38 9.3
10/21/2020 8:45:00 PM 14.2 57.56 0.063 6.33 1.41 9.32
10/21/2020 9:00:00 PM 14.18 57.524 0.063 6.33 1.4 9.32
10/21/2020 9:15:00 PM 14.15 57.47 0.063 6.33 1.42 9.31
10/21/2020 9:30:00 PM 14.13 57.434 0.063 6.32 1.41 9.32
10/21/2020 9:45:00 PM 14.11 57.398 0.063 6.32 1.42 9.33
10/21/2020 10:00:00 PM 14.1 57.38 0.063 6.32 1.4 9.33
10/21/2020 10:15:00 PM 14.08 57.344 0.063 6.31 1.4 9.34
10/21/2020 10:30:00 PM 14.06 57.308 0.063 6.31 1.4 9.33
10/21/2020 10:45:00 PM 14.05 57.29 0.063 6.31 1.4 9.34
10/21/2020 11:00:00 PM 14.04 57.272 0.063 6.31 1.42 9.35
10/21/2020 11:15:00 PM 14.02 57.236 0.063 6.3 1.4 9.35
10/21/2020 11:30:00 PM 14 57.2 0.063 6.3 1.41 9.36
10/21/2020 11:45:00 PM 13.97 57.146 0.063 6.3 1.4 9.36
10/22/2020 12:00:00 AM 13.94 57.092 0.063 6.3 1.4 9.36
10/22/2020 12:15:00 AM 13.92 57.056 0.063 6.29 1.38 9.37
10/22/2020 12:30:00 AM 13.9 57.02 0.063 6.3 1.43 9.38
10/22/2020 12:45:00 AM 13.89 57.002 0.063 6.3 1.49 9.37
10/22/2020 1:00:00 AM 13.88 56.984 0.063 6.3 1.39 9.38
10/22/2020 1:15:00 AM 13.86 56.948 0.063 6.29 1.41 9.38
10/22/2020 1:30:00 AM 13.84 56.912 0.063 6.3 1.43 9.39
10/22/2020 1:45:00 AM 13.82 56.876 0.063 6.3 1.41 9.39
10/22/2020 2:00:00 AM 13.79 56.822 0.063 6.29 1.4 9.4
10/22/2020 2:15:00 AM 13.77 56.786 0.063 6.3 1.41 9.4
10/22/2020 2:30:00 AM 13.75 56.75 0.064 6.3 1.39 9.41
10/22/2020 2:45:00 AM 13.72 56.696 0.064 6.29 1.36 9.41
10/22/2020 3:00:00 AM 13.69 56.642 0.064 6.29 1.37 9.42
10/22/2020 3:15:00 AM -100000 -179968 -100000 -100000 -100000 -100000
10/22/2020 3:30:00 AM 13.63 56.534 0.064 6.3 1.39 9.44
10/22/2020 3:45:00 AM 13.6 56.48 0.064 6.3 1.41 9.45
10/22/2020 4:00:00 AM 13.59 56.462 0.064 6.3 1.43 9.45
10/22/2020 4:15:00 AM 13.57 56.426 0.064 6.31 1.41 9.46
10/22/2020 4:30:00 AM 13.56 56.408 0.064 6.31 1.42 9.47
10/22/2020 4:45:00 AM 13.55 56.39 0.064 6.31 1.44 9.48
10/22/2020 5:00:00 AM 13.54 56.372 0.064 6.31 1.43 9.48
10/22/2020 5:15:00 AM 13.53 56.354 0.064 6.31 1.46 9.48
10/22/2020 5:30:00 AM 13.52 56.336 0.064 6.31 1.41 9.49
10/22/2020 5:45:00 AM 13.51 56.318 0.064 6.31 1.42 9.49
10/22/2020 6:00:00 AM 13.5 56.3 0.064 6.31 1.41 9.5
10/22/2020 6:15:00 AM 13.48 56.264 0.064 6.31 1.46 9.51
10/22/2020 6:30:00 AM 13.48 56.264 0.064 6.31 1.41 9.51
10/22/2020 6:45:00 AM 13.47 56.246 0.064 6.31 1.41 9.51
10/22/2020 7:00:00 AM 13.45 56.21 0.064 6.3 1.41 9.51
10/22/2020 7:15:00 AM 13.44 56.192 0.064 6.3 1.46 9.51
10/22/2020 7:30:00 AM 13.43 56.174 0.064 6.3 1.43 9.52
10/22/2020 7:45:00 AM 13.42 56.156 0.064 6.3 1.44 9.52
10/22/2020 8:00:00 AM 13.41 56.138 0.064 6.3 1.52 9.53
10/22/2020 8:15:00 AM 13.41 56.138 0.064 6.3 1.47 9.55
10/22/2020 8:30:00 AM 13.42 56.156 0.064 6.3 1.38 9.59
10/22/2020 8:45:00 AM 13.44 56.192 0.064 6.31 1.41 9.63
10/22/2020 9:00:00 AM 13.47 56.246 0.064 6.32 1.4 9.67
10/22/2020 9:15:00 AM 13.49 56.282 0.064 6.32 1.39 9.7
10/22/2020 9:30:00 AM 13.54 56.372 0.064 6.33 1.43 9.72
10/22/2020 9:45:00 AM 13.6 56.48 0.064 6.33 1.43 9.72
10/22/2020 10:00:00 AM 13.66 56.588 0.064 6.34 1.43 9.74
10/22/2020 10:15:00 AM 13.74 56.732 0.064 6.35 1.41 9.73
10/22/2020 10:30:00 AM 13.85 56.93 0.064 6.36 1.46 9.74
10/22/2020 10:45:00 AM 13.93 57.074 0.064 6.36 1.45 9.73
10/22/2020 11:00:00 AM 14.01 57.218 0.063 6.37 1.48 9.71
10/22/2020 11:15:00 AM 14.07 57.326 0.063 6.37 1.43 9.68
10/22/2020 11:30:00 AM -100000 -179968 -100000 -100000 -100000 -100000
10/22/2020 11:45:00 AM 14.2 57.56 0.063 6.37 1.47 9.66
10/22/2020 12:00:00 PM 14.24 57.632 0.063 6.38 1.41 9.65
10/22/2020 12:15:00 PM 14.27 57.686 0.063 6.38 1.42 9.63
10/22/2020 12:30:00 PM 14.29 57.722 0.063 6.38 1.42 9.62
10/22/2020 12:45:00 PM 14.28 57.704 0.063 6.38 1.44 9.59
10/22/2020 1:00:00 PM 14.31 57.758 0.063 6.38 1.43 9.59
10/22/2020 1:15:00 PM 14.35 57.83 0.063 6.38 1.41 9.57
10/22/2020 1:30:00 PM 14.39 57.902 0.063 6.39 1.42 9.55
10/22/2020 1:45:00 PM 14.45 58.01 0.062 6.38 1.44 9.52
10/22/2020 2:00:00 PM 14.51 58.118 0.062 6.38 1.45 9.49
10/22/2020 2:15:00 PM 14.58 58.244 0.062 6.38 1.42 9.47
10/22/2020 2:30:00 PM 14.65 58.37 0.062 6.38 1.64 9.46
10/22/2020 2:45:00 PM -100000 -179968 -100000 -100000 -100000 -100000
10/22/2020 3:00:00 PM 14.79 58.622 0.062 6.38 1.4 9.4
10/22/2020 3:15:00 PM 14.88 58.784 0.062 6.38 1.46 9.38
10/22/2020 3:30:00 PM 14.95 58.91 0.062 6.38 1.4 9.34
10/22/2020 3:45:00 PM 15.02 59.036 0.062 6.37 1.39 9.32
10/22/2020 4:00:00 PM 15.07 59.126 0.062 6.37 1.46 9.29
10/22/2020 4:15:00 PM 15.11 59.198 0.061 6.37 1.43 9.25
10/22/2020 4:30:00 PM 15.15 59.27 0.061 6.37 1.45 9.21
10/22/2020 4:45:00 PM 15.19 59.342 0.061 6.37 1.39 9.18
10/22/2020 5:00:00 PM -100000 -179968 -100000 -100000 -100000 -100000
10/22/2020 5:15:00 PM 15.26 59.468 0.061 6.36 1.37 9.14
10/22/2020 5:30:00 PM 15.3 59.54 0.061 6.36 1.45 9.1
10/22/2020 5:45:00 PM 15.33 59.594 0.061 6.35 1.42 9.08
10/22/2020 6:00:00 PM 15.34 59.612 0.061 6.35 1.43 9.06
10/22/2020 6:15:00 PM 15.35 59.63 0.061 6.35 1.44 9.05
10/22/2020 6:30:00 PM 15.34 59.612 0.061 6.35 1.41 9.05
10/22/2020 6:45:00 PM 15.32 59.576 0.061 6.34 1.45 9.03
10/22/2020 7:00:00 PM 15.28 59.504 0.061 6.34 1.41 9.03
10/22/2020 7:15:00 PM 15.24 59.432 0.061 6.34 1.43 9.04
10/22/2020 7:30:00 PM 15.18 59.324 0.062 6.34 1.45 9.05
10/22/2020 7:45:00 PM 15.12 59.216 0.062 6.34 1.47 9.06
10/22/2020 8:00:00 PM 15.05 59.09 0.062 6.33 1.42 9.08
10/22/2020 8:15:00 PM 14.98 58.964 0.062 6.33 1.48 9.1
10/22/2020 8:30:00 PM 14.91 58.838 0.062 6.33 1.44 9.12
10/22/2020 8:45:00 PM 14.85 58.73 0.062 6.33 1.39 9.12
10/22/2020 9:00:00 PM 14.78 58.604 0.062 6.33 1.44 9.14
10/22/2020 9:15:00 PM 14.73 58.514 0.062 6.33 1.51 9.15
10/22/2020 9:30:00 PM 14.65 58.37 0.062 6.33 1.55 9.17
10/22/2020 9:45:00 PM 14.59 58.262 0.062 6.33 1.42 9.18
10/22/2020 10:00:00 PM 14.52 58.136 0.063 6.33 1.47 9.2
10/22/2020 10:15:00 PM 14.45 58.01 0.063 6.33 1.6 9.21
10/22/2020 10:30:00 PM 14.39 57.902 0.063 6.33 1.43 9.23
10/22/2020 10:45:00 PM 14.33 57.794 0.063 6.33 1.5 9.24
10/22/2020 11:00:00 PM 14.27 57.686 0.063 6.33 1.47 9.25
10/22/2020 11:15:00 PM 14.21 57.578 0.063 6.33 1.42 9.28
10/22/2020 11:30:00 PM 14.15 57.47 0.063 6.33 1.42 9.28
10/22/2020 11:45:00 PM 14.1 57.38 0.063 6.33 1.4 9.3
10/23/2020 12:00:00 AM 14.05 57.29 0.063 6.33 1.44 9.3
10/23/2020 12:15:00 AM 13.99 57.182 0.063 6.33 1.47 9.32
10/23/2020 12:30:00 AM 13.94 57.092 0.063 6.33 1.4 9.32
10/23/2020 12:45:00 AM 13.9 57.02 0.063 6.34 1.43 9.35
10/23/2020 1:00:00 AM 13.85 56.93 0.063 6.33 1.46 9.35
10/23/2020 1:15:00 AM 13.8 56.84 0.064 6.33 1.47 9.36
10/23/2020 1:30:00 AM 13.74 56.732 0.064 6.33 1.49 9.38
10/23/2020 1:45:00 AM 13.69 56.642 0.064 6.33 1.46 9.4
10/23/2020 2:00:00 AM 13.64 56.552 0.064 6.34 1.46 9.42
10/23/2020 2:15:00 AM 13.6 56.48 0.064 6.33 1.46 9.43
10/23/2020 2:30:00 AM 13.54 56.372 0.064 6.34 1.46 9.45
10/23/2020 2:45:00 AM 13.49 56.282 0.064 6.33 1.44 9.45
10/23/2020 3:00:00 AM 13.44 56.192 0.064 6.34 1.43 9.45
10/23/2020 3:15:00 AM 13.38 56.084 0.064 6.33 1.41 9.47
10/23/2020 3:30:00 AM 13.33 55.994 0.064 6.34 1.46 9.49
10/23/2020 3:45:00 AM -100000 -179968 -100000 -100000 -100000 -100000
10/23/2020 4:00:00 AM 13.22 55.796 0.064 6.34 1.43 9.52
10/23/2020 4:15:00 AM 13.16 55.688 0.064 6.34 1.41 9.54
10/23/2020 4:30:00 AM 13.12 55.616 0.064 6.33 1.43 9.55
10/23/2020 4:45:00 AM 13.08 55.544 0.064 6.33 1.45 9.56
10/23/2020 5:00:00 AM 13.06 55.508 0.064 6.33 1.43 9.58
10/23/2020 5:15:00 AM 13.04 55.472 0.064 6.33 1.44 9.58
10/23/2020 5:30:00 AM 13.02 55.436 0.064 6.33 1.42 9.59
10/23/2020 5:45:00 AM 13 55.4 0.064 6.33 1.48 9.6
10/23/2020 6:00:00 AM 12.97 55.346 0.064 6.34 1.44 9.62
10/23/2020 6:15:00 AM -100000 -179968 -100000 -100000 -100000 -100000
10/23/2020 6:30:00 AM 12.89 55.202 0.064 6.33 1.46 9.62
10/23/2020 6:45:00 AM 12.83 55.094 0.064 6.33 1.48 9.64
10/23/2020 7:00:00 AM 12.79 55.022 0.065 6.33 1.42 9.66
10/23/2020 7:15:00 AM 12.75 54.95 0.065 6.33 1.41 9.68
10/23/2020 7:30:00 AM 12.71 54.878 0.065 6.33 1.51 9.69
10/23/2020 7:45:00 AM -100000 -179968 -100000 -100000 -100000 -100000
10/23/2020 8:00:00 AM 12.62 54.716 0.065 6.33 1.39 9.73
10/23/2020 8:15:00 AM 12.6 54.68 0.065 6.33 1.38 9.75
10/23/2020 8:30:00 AM 12.59 54.662 0.065 6.33 1.41 9.78
10/23/2020 8:45:00 AM 12.59 54.662 0.065 6.34 1.68 9.8
10/23/2020 9:00:00 AM 12.61 54.698 0.065 6.34 1.4 9.84
10/23/2020 9:15:00 AM 12.65 54.77 0.065 6.35 1.39 9.86
10/23/2020 9:30:00 AM 12.72 54.896 0.065 6.35 1.43 9.87
10/23/2020 9:45:00 AM 12.77 54.986 0.065 6.36 1.43 9.88
10/23/2020 10:00:00 AM 12.83 55.094 0.065 6.36 1.49 9.86
10/23/2020 10:15:00 AM 12.93 55.274 0.064 6.36 1.44 9.87
10/23/2020 10:30:00 AM 13.03 55.454 0.064 6.36 1.42 9.89
10/23/2020 10:45:00 AM 13.13 55.634 0.064 6.36 1.61 9.88
10/23/2020 11:00:00 AM 13.23 55.814 0.064 6.37 1.42 9.87
10/23/2020 11:15:00 AM 13.3 55.94 0.064 6.37 1.39 9.85
10/23/2020 11:30:00 AM 13.41 56.138 0.064 6.38 1.39 9.86
10/23/2020 11:45:00 AM 13.49 56.282 0.064 6.38 1.39 9.83
10/23/2020 12:00:00 PM 13.5 56.3 0.064 6.38 1.4 9.82
10/23/2020 12:15:00 PM 13.57 56.426 0.064 6.38 1.49 9.8
10/23/2020 12:30:00 PM 13.66 56.588 0.064 6.38 1.43 9.8
10/23/2020 12:45:00 PM 13.7 56.66 0.063 6.38 1.39 9.76
10/23/2020 1:00:00 PM 13.78 56.804 0.063 6.38 1.38 9.74
10/23/2020 1:15:00 PM 13.86 56.948 0.063 6.38 1.4 9.71
10/23/2020 1:30:00 PM 13.95 57.11 0.063 6.39 1.38 9.69
10/23/2020 1:45:00 PM 14.04 57.272 0.063 6.38 1.46 9.65
10/23/2020 2:00:00 PM 14.16 57.488 0.063 6.39 1.41 9.65
10/23/2020 2:15:00 PM 14.25 57.65 0.063 6.38 1.41 9.58
10/23/2020 2:30:00 PM 14.34 57.812 0.063 6.39 1.39 9.58
10/23/2020 2:45:00 PM 14.41 57.938 0.063 6.39 1.39 9.55
10/23/2020 3:00:00 PM 14.45 58.01 0.063 6.38 1.45 9.49
10/23/2020 3:15:00 PM 14.51 58.118 0.063 6.38 1.43 9.47
10/23/2020 3:30:00 PM 14.55 58.19 0.063 6.38 1.44 9.45
10/23/2020 3:45:00 PM 14.6 58.28 0.063 6.38 1.38 9.4
10/23/2020 4:00:00 PM 14.64 58.352 0.062 6.37 1.41 9.41
10/23/2020 4:15:00 PM 14.69 58.442 0.062 6.37 1.44 9.37
10/23/2020 4:30:00 PM 14.76 58.568 0.062 6.37 1.44 9.37
10/23/2020 4:45:00 PM 14.8 58.64 0.062 6.37 1.39 9.34
10/23/2020 5:00:00 PM 14.83 58.694 0.062 6.37 1.43 9.28
10/23/2020 5:15:00 PM 14.86 58.748 0.062 6.36 1.41 9.24
10/23/2020 5:30:00 PM 14.89 58.802 0.062 6.36 1.49 9.25
10/23/2020 5:45:00 PM -100000 -179968 -100000 -100000 -100000 -100000
10/23/2020 6:00:00 PM 14.92 58.856 0.062 6.36 1.45 9.19
10/23/2020 6:15:00 PM 14.91 58.838 0.062 6.35 1.4 9.16
10/23/2020 6:30:00 PM 14.9 58.82 0.062 6.35 1.52 9.14
10/23/2020 6:45:00 PM 14.88 58.784 0.062 6.34 1.44 9.12
10/23/2020 7:00:00 PM 14.85 58.73 0.062 6.34 1.51 9.11
10/23/2020 7:15:00 PM 14.82 58.676 0.062 6.34 1.45 9.1
10/23/2020 7:30:00 PM 14.79 58.622 0.062 6.33 1.44 9.1
10/23/2020 7:45:00 PM 14.75 58.55 0.062 6.33 1.42 9.1
10/23/2020 8:00:00 PM 14.71 58.478 0.062 6.33 1.51 9.12
10/23/2020 8:15:00 PM 14.66 58.388 0.062 6.34 1.48 9.13
10/23/2020 8:30:00 PM 14.61 58.298 0.063 6.34 1.41 9.14
10/23/2020 8:45:00 PM 14.55 58.19 0.063 6.34 1.42 9.15
10/23/2020 9:00:00 PM 14.5 58.1 0.063 6.33 1.4 9.15
10/23/2020 9:15:00 PM 14.45 58.01 0.063 6.34 1.43 9.17
10/23/2020 9:30:00 PM 14.39 57.902 0.063 6.33 1.42 9.2
10/23/2020 9:45:00 PM 14.34 57.812 0.063 6.33 1.42 9.19
10/23/2020 10:00:00 PM 14.28 57.704 0.063 6.33 1.46 9.22
10/23/2020 10:15:00 PM 14.24 57.632 0.063 6.33 1.43 9.22
10/23/2020 10:30:00 PM 14.19 57.542 0.063 6.33 1.43 9.23
10/23/2020 10:45:00 PM 14.14 57.452 0.063 6.33 1.48 9.24
10/23/2020 11:00:00 PM 14.09 57.362 0.064 6.33 1.42 9.25
10/23/2020 11:15:00 PM 14.05 57.29 0.064 6.33 1.43 9.27
10/23/2020 11:30:00 PM 14.02 57.236 0.064 6.33 1.42 9.27
10/23/2020 11:45:00 PM 13.98 57.164 0.064 6.33 1.44 9.28
10/24/2020 12:00:00 AM 13.94 57.092 0.064 6.33 1.61 9.29
10/24/2020 12:15:00 AM 13.92 57.056 0.064 6.33 1.45 9.3
10/24/2020 12:30:00 AM 13.89 57.002 0.064 6.33 1.43 9.3
10/24/2020 12:45:00 AM 13.88 56.984 0.064 6.33 1.5 9.32
10/24/2020 1:00:00 AM 13.86 56.948 0.064 6.33 1.45 9.32
10/24/2020 1:15:00 AM 13.85 56.93 0.064 6.33 1.42 9.32
10/24/2020 1:30:00 AM 13.83 56.894 0.064 6.33 1.42 9.31
10/24/2020 1:45:00 AM 13.82 56.876 0.064 6.33 1.41 9.33
10/24/2020 2:00:00 AM 13.82 56.876 0.064 6.32 1.44 9.33
10/24/2020 2:15:00 AM 13.81 56.858 0.064 6.32 1.46 9.31
10/24/2020 2:30:00 AM 13.81 56.858 0.064 6.32 1.44 9.32
10/24/2020 2:45:00 AM 13.8 56.84 0.064 6.32 1.45 9.33
10/24/2020 3:00:00 AM 13.8 56.84 0.064 6.32 1.43 9.32
10/24/2020 3:15:00 AM 13.79 56.822 0.064 6.32 1.46 9.3
10/24/2020 3:30:00 AM 13.79 56.822 0.064 6.32 1.47 9.33
10/24/2020 3:45:00 AM 13.79 56.822 0.064 6.32 1.45 9.33
10/24/2020 4:00:00 AM 13.79 56.822 0.063 6.31 1.55 9.33
10/24/2020 4:15:00 AM 13.79 56.822 0.063 6.31 1.44 9.3
10/24/2020 4:30:00 AM 13.79 56.822 0.063 6.31 1.54 9.3
10/24/2020 4:45:00 AM 13.79 56.822 0.063 6.3 1.5 9.3
10/24/2020 5:00:00 AM 13.79 56.822 0.063 6.3 1.45 9.29
10/24/2020 5:15:00 AM 13.8 56.84 0.063 6.3 1.45 9.28
10/24/2020 5:30:00 AM 13.8 56.84 0.063 6.3 1.66 9.3
10/24/2020 5:45:00 AM 13.8 56.84 0.063 6.3 1.45 9.3
10/24/2020 6:00:00 AM -100000 -179968 -100000 -100000 -100000 -100000
10/24/2020 6:15:00 AM 13.8 56.84 0.064 6.31 1.49 9.3
10/24/2020 6:30:00 AM -100000 -179968 -100000 -100000 -100000 -100000
10/24/2020 6:45:00 AM 13.74 56.732 0.064 6.32 1.65 9.32
10/24/2020 7:00:00 AM 13.7 56.66 0.064 6.33 1.46 9.33
10/24/2020 7:15:00 AM 13.65 56.57 0.064 6.33 1.46 9.34
10/24/2020 7:30:00 AM 13.59 56.462 0.064 6.34 1.46 9.36
10/24/2020 7:45:00 AM 13.53 56.354 0.064 6.33 1.54 9.37
10/24/2020 8:00:00 AM 13.48 56.264 0.064 6.34 1.46 9.39
10/24/2020 8:15:00 AM 13.43 56.174 0.064 6.34 1.51 9.41
10/24/2020 8:30:00 AM 13.39 56.102 0.064 6.34 1.44 9.43
10/24/2020 8:45:00 AM 13.35 56.03 0.064 6.35 1.44 9.47
10/24/2020 9:00:00 AM 13.32 55.976 0.065 6.35 1.44 9.51
10/24/2020 9:15:00 AM 13.28 55.904 0.065 6.36 1.45 9.55
10/24/2020 9:30:00 AM 13.25 55.85 0.065 6.36 1.46 9.56
10/24/2020 9:45:00 AM 13.21 55.778 0.065 6.36 1.51 9.58
10/24/2020 10:00:00 AM 13.18 55.724 0.065 6.36 1.49 9.61
10/24/2020 10:15:00 AM -100000 -179968 -100000 -100000 -100000 -100000
10/24/2020 10:30:00 AM 13.11 55.598 0.065 6.37 1.44 9.65
10/24/2020 10:45:00 AM 13.05 55.49 0.065 6.38 1.52 9.69
10/24/2020 11:00:00 AM 13.03 55.454 0.065 6.38 1.57 9.72
10/24/2020 11:15:00 AM 13.02 55.436 0.065 6.39 1.52 9.76
10/24/2020 11:30:00 AM 12.99 55.382 0.065 6.39 1.44 9.79
10/24/2020 11:45:00 AM 12.98 55.364 0.065 6.39 1.52 9.8
10/24/2020 12:00:00 PM -100000 -179968 -100000 -100000 -100000 -100000
10/24/2020 12:15:00 PM 12.87 55.166 0.066 6.39 1.45 9.8
10/24/2020 12:30:00 PM 12.83 55.094 0.066 6.39 1.75 9.83
10/24/2020 12:45:00 PM 12.84 55.112 0.066 6.39 1.43 9.87
10/24/2020 1:00:00 PM 12.86 55.148 0.066 6.4 1.39 9.87
10/24/2020 1:15:00 PM 12.87 55.166 0.066 6.4 1.43 9.9
10/24/2020 1:30:00 PM 12.86 55.148 0.066 6.4 1.44 9.89
10/24/2020 1:45:00 PM 12.85 55.13 0.066 6.4 1.41 9.91
10/24/2020 2:00:00 PM 12.8 55.04 0.067 6.4 1.38 9.91
10/24/2020 2:15:00 PM 12.82 55.076 0.067 6.4 1.45 9.92
10/24/2020 2:30:00 PM 12.75 54.95 0.067 6.39 1.44 9.85
10/24/2020 2:45:00 PM 12.68 54.824 0.067 6.39 1.33 9.88
10/24/2020 3:00:00 PM 12.58 54.644 0.067 6.39 1.32 9.88
10/24/2020 3:15:00 PM 12.51 54.518 0.068 6.39 1.38 9.87
10/24/2020 3:30:00 PM 12.47 54.446 0.068 6.39 1.29 9.88
10/24/2020 4:00:00 PM 12.39 54.302 0.068 6.39 1.34 9.91
10/24/2020 4:15:00 PM 12.34 54.212 0.068 6.38 1.27 9.88
10/24/2020 4:30:00 PM 12.26 54.068 0.068 6.39 1.27 9.88
10/24/2020 4:45:00 PM 12.19 53.942 0.069 6.38 1.31 9.9
10/24/2020 5:00:00 PM 12.17 53.906 0.069 6.38 1.47 9.9
10/24/2020 5:15:00 PM 12.16 53.888 0.069 6.38 1.33 9.92
10/24/2020 5:30:00 PM 12.12 53.816 0.069 6.38 1.31 9.91
10/24/2020 5:45:00 PM 12.07 53.726 0.069 6.38 1.27 9.91
10/24/2020 6:00:00 PM 12.02 53.636 0.069 6.38 1.27 9.91
10/24/2020 6:15:00 PM 11.97 53.546 0.069 6.37 1.31 9.91
10/24/2020 6:30:00 PM 11.91 53.438 0.069 6.37 1.48 9.9
10/24/2020 6:45:00 PM 11.83 53.294 0.069 6.37 1.34 9.88
10/24/2020 7:00:00 PM 11.75 53.15 0.069 6.37 1.3 9.91
10/24/2020 7:15:00 PM 11.68 53.024 0.07 6.36 1.29 9.91
10/24/2020 7:30:00 PM 11.59 52.862 0.07 6.37 1.27 9.94
10/24/2020 7:45:00 PM 11.51 52.718 0.07 6.37 1.29 9.96
10/24/2020 8:00:00 PM 11.41 52.538 0.07 6.37 1.32 9.99
10/24/2020 8:15:00 PM 11.32 52.376 0.07 6.37 1.28 10.01
10/24/2020 8:30:00 PM 11.23 52.214 0.07 6.37 1.29 10.03
10/24/2020 8:45:00 PM -100000 -179968 -100000 -100000 -100000 -100000
10/24/2020 9:00:00 PM 11.02 51.836 0.071 6.37 1.27 10.08
10/24/2020 9:15:00 PM 10.91 51.638 0.071 6.37 1.27 10.11
10/24/2020 9:30:00 PM 10.8 51.44 0.071 6.37 1.32 10.14
10/24/2020 9:45:00 PM 10.7 51.26 0.071 6.37 1.27 10.17
10/24/2020 10:00:00 PM 10.59 51.062 0.071 6.37 1.29 10.2
10/24/2020 10:15:00 PM 10.48 50.864 0.071 6.37 1.33 10.23
10/24/2020 10:30:00 PM 10.38 50.684 0.071 6.37 1.41 10.26
10/24/2020 10:45:00 PM 10.28 50.504 0.072 6.37 1.3 10.28
10/24/2020 11:00:00 PM 10.17 50.306 0.072 6.37 1.28 10.31
10/24/2020 11:15:00 PM 10.08 50.144 0.072 6.37 1.31 10.33
10/24/2020 11:30:00 PM 9.97 49.946 0.072 6.37 1.33 10.37
10/24/2020 11:45:00 PM 9.87 49.766 0.072 6.37 1.38 10.4
10/25/2020 12:00:00 AM 9.77 49.586 0.072 6.37 1.33 10.42
10/25/2020 12:15:00 AM 9.68 49.424 0.072 6.37 1.27 10.46
10/25/2020 12:30:00 AM 9.58 49.244 0.072 6.37 1.32 10.5
10/25/2020 12:45:00 AM 9.5 49.1 0.072 6.37 1.3 10.5
10/25/2020 1:00:00 AM 9.4 48.92 0.072 6.37 1.29 10.55
10/25/2020 1:15:00 AM 9.32 48.776 0.073 6.37 1.33 10.57
10/25/2020 1:30:00 AM 9.24 48.632 0.073 6.36 1.25 10.59
10/25/2020 1:45:00 AM 9.14 48.452 0.073 6.37 1.29 10.62
10/25/2020 2:00:00 AM 9.06 48.308 0.073 6.37 1.29 10.65
10/25/2020 2:15:00 AM 8.97 48.146 0.073 6.37 1.3 10.68
10/25/2020 2:30:00 AM 8.88 47.984 0.073 6.36 1.32 10.72
10/25/2020 2:45:00 AM 8.8 47.84 0.073 6.37 1.26 10.73
10/25/2020 3:00:00 AM -100000 -179968 -100000 -100000 -100000 -100000
10/25/2020 3:15:00 AM 8.63 47.534 0.073 6.37 1.31 10.8
10/25/2020 3:30:00 AM 8.57 47.426 0.073 6.37 1.31 10.81
10/25/2020 3:45:00 AM 8.5 47.3 0.073 6.37 1.33 10.84
10/25/2020 4:00:00 AM 8.42 47.156 0.073 6.37 1.29 10.87
10/25/2020 4:15:00 AM 8.34 47.012 0.074 6.37 1.29 10.9
10/25/2020 4:30:00 AM 8.26 46.868 0.074 6.37 1.29 10.93
10/25/2020 4:45:00 AM 8.18 46.724 0.074 6.37 1.3 10.95
10/25/2020 5:00:00 AM 8.1 46.58 0.074 6.37 1.29 10.98
10/25/2020 5:15:00 AM 8.03 46.454 0.074 6.37 1.32 11
10/25/2020 5:30:00 AM 7.95 46.31 0.074 6.37 1.29 11.04
10/25/2020 5:45:00 AM 7.87 46.166 0.074 6.37 1.29 11.07
10/25/2020 6:00:00 AM 7.82 46.076 0.074 6.37 1.28 11.08
10/25/2020 6:15:00 AM 7.76 45.968 0.074 6.36 1.29 11.1
10/25/2020 6:30:00 AM 7.71 45.878 0.074 6.37 1.31 11.12
10/25/2020 6:45:00 AM 7.65 45.77 0.074 6.37 1.28 11.16
10/25/2020 7:00:00 AM 7.62 45.716 0.074 6.37 1.3 11.17
10/25/2020 7:15:00 AM 7.58 45.644 0.074 6.37 1.28 11.2
10/25/2020 7:30:00 AM 7.55 45.59 0.074 6.37 1.45 11.2
10/25/2020 7:45:00 AM 7.51 45.518 0.074 6.37 1.68 11.23
10/25/2020 8:00:00 AM 7.48 45.464 0.075 6.37 1.29 11.23
10/25/2020 8:15:00 AM 7.45 45.41 0.074 6.37 1.37 11.26
10/25/2020 8:30:00 AM 7.42 45.356 0.075 6.37 1.35 11.29
10/25/2020 8:45:00 AM 7.41 45.338 0.075 6.38 1.28 11.32
10/25/2020 9:00:00 AM 7.39 45.302 0.075 6.38 1.29 11.34
10/25/2020 9:15:00 AM 7.38 45.284 0.075 6.38 1.3 11.38
10/25/2020 9:30:00 AM 7.37 45.266 0.075 6.39 1.32 11.39
10/25/2020 9:45:00 AM 7.38 45.284 0.075 6.39 1.31 11.41
10/25/2020 10:00:00 AM 7.43 45.374 0.075 6.4 1.33 11.41
10/25/2020 10:15:00 AM 7.51 45.518 0.074 6.39 1.34 11.42
10/25/2020 10:30:00 AM 7.57 45.626 0.074 6.4 1.3 11.44
10/25/2020 10:45:00 AM 7.64 45.752 0.074 6.4 1.29 11.45
10/25/2020 11:00:00 AM 7.73 45.914 0.074 6.41 1.29 11.44
10/25/2020 11:15:00 AM -100000 -179968 -100000 -100000 -100000 -100000
10/25/2020 11:30:00 AM 7.82 46.076 0.074 6.41 1.29 11.42
10/25/2020 11:45:00 AM 7.86 46.148 0.074 6.41 1.28 11.42
10/25/2020 12:00:00 PM 7.9 46.22 0.074 6.42 1.29 11.42
10/25/2020 12:15:00 PM 7.97 46.346 0.074 6.41 1.32 11.4
10/25/2020 12:30:00 PM 8.07 46.526 0.074 6.42 1.3 11.41
10/25/2020 12:45:00 PM 8.17 46.706 0.073 6.42 1.33 11.39
10/25/2020 1:00:00 PM 8.21 46.778 0.073 6.42 1.29 11.35
10/25/2020 1:15:00 PM 8.3 46.94 0.073 6.42 1.29 11.34
10/25/2020 1:30:00 PM 8.41 47.138 0.073 6.42 1.33 11.32
10/25/2020 1:45:00 PM 8.53 47.354 0.073 6.42 1.28 11.28
10/25/2020 2:00:00 PM 8.64 47.552 0.073 6.42 1.3 11.26
10/25/2020 2:15:00 PM -100000 -179968 -100000 -100000 -100000 -100000
10/25/2020 2:30:00 PM 8.81 47.858 0.072 6.42 1.29 11.2
10/25/2020 2:45:00 PM 8.84 47.912 0.072 6.42 1.41 11.19
10/25/2020 3:00:00 PM 8.86 47.948 0.072 6.42 1.29 11.15
10/25/2020 3:15:00 PM 8.91 48.038 0.072 6.42 1.31 11.14
10/25/2020 3:30:00 PM 8.96 48.128 0.072 6.41 1.29 11.12
10/25/2020 3:45:00 PM 9.02 48.236 0.072 6.42 1.32 11.1
10/25/2020 4:00:00 PM 9.07 48.326 0.072 6.41 1.69 11.08
10/25/2020 4:15:00 PM 9.1 48.38 0.072 6.41 1.25 11.07
10/25/2020 4:30:00 PM 9.12 48.416 0.072 6.41 1.23 11.04
10/25/2020 4:45:00 PM 9.13 48.434 0.072 6.41 1.27 11.02
10/25/2020 5:00:00 PM 9.13 48.434 0.072 6.41 1.25 10.98
10/25/2020 5:15:00 PM 9.13 48.434 0.072 6.39 1.42 10.94
10/25/2020 5:30:00 PM 9.13 48.434 0.072 6.4 1.36 10.92
10/25/2020 5:45:00 PM 9.14 48.452 0.072 6.39 1.36 10.89
10/25/2020 6:00:00 PM 9.14 48.452 0.072 6.4 1.36 10.87
10/25/2020 6:15:00 PM 9.13 48.434 0.072 6.39 1.36 10.84
10/25/2020 6:30:00 PM -100000 -179968 -100000 -100000 -100000 -100000
10/25/2020 6:45:00 PM -100000 -179968 -100000 -100000 -100000 -100000
10/25/2020 7:00:00 PM 9.1 48.38 0.072 6.39 1.34 10.79
10/25/2020 7:15:00 PM 9.1 48.38 0.072 6.38 1.34 10.78
10/25/2020 7:30:00 PM -100000 -179968 -100000 -100000 -100000 -100000
10/25/2020 7:45:00 PM 9.08 48.344 0.072 6.38 1.37 10.79
10/25/2020 8:00:00 PM 9.07 48.326 0.072 6.38 1.48 10.78
10/25/2020 8:15:00 PM 9.04 48.272 0.072 6.38 1.36 10.79
10/25/2020 8:30:00 PM 9.03 48.254 0.072 6.38 1.36 10.81
10/25/2020 8:45:00 PM 9.01 48.218 0.072 6.39 1.34 10.8
10/25/2020 9:00:00 PM 8.99 48.182 0.072 6.38 1.41 10.82
10/25/2020 9:15:00 PM -100000 -179968 -100000 -100000 -100000 -100000
10/25/2020 9:30:00 PM 8.91 48.038 0.072 6.38 1.35 10.84
10/25/2020 9:45:00 PM 8.88 47.984 0.072 6.38 1.36 10.82
10/25/2020 10:00:00 PM 8.85 47.93 0.072 6.38 1.42 10.83
10/25/2020 10:15:00 PM -100000 -179968 -100000 -100000 -100000 -100000
10/25/2020 10:30:00 PM 8.8 47.84 0.072 6.38 1.32 10.83
10/25/2020 10:45:00 PM 8.78 47.804 0.072 6.37 1.35 10.83
10/25/2020 11:00:00 PM 8.76 47.768 0.072 6.37 1.36 10.84
10/25/2020 11:15:00 PM 8.75 47.75 0.072 6.38 1.33 10.86
10/25/2020 11:30:00 PM 8.74 47.732 0.072 6.38 1.36 10.86
10/25/2020 11:45:00 PM 8.72 47.696 0.072 6.37 1.37 10.86
10/26/2020 12:00:00 AM 8.71 47.678 0.072 6.38 1.34 10.87
10/26/2020 12:15:00 AM 8.7 47.66 0.072 6.38 1.34 10.87
10/26/2020 12:30:00 AM 8.69 47.642 0.072 6.38 1.34 10.88
10/26/2020 12:45:00 AM 8.68 47.624 0.072 6.38 1.42 10.87
10/26/2020 1:00:00 AM 8.67 47.606 0.072 6.37 1.34 10.89
10/26/2020 1:15:00 AM 8.67 47.606 0.072 6.38 1.35 10.88
10/26/2020 1:30:00 AM 8.66 47.588 0.072 6.38 1.37 10.89
10/26/2020 1:45:00 AM 8.65 47.57 0.072 6.37 1.35 10.88
10/26/2020 2:00:00 AM 8.65 47.57 0.072 6.38 1.33 10.91
10/26/2020 2:15:00 AM 8.64 47.552 0.072 6.38 1.37 10.9
10/26/2020 2:30:00 AM 8.64 47.552 0.072 6.38 1.35 10.89
10/26/2020 2:45:00 AM 8.63 47.534 0.072 6.38 1.35 10.91
10/26/2020 3:00:00 AM 8.63 47.534 0.072 6.38 1.37 10.91
10/26/2020 3:15:00 AM 8.62 47.516 0.072 6.38 1.33 10.92
10/26/2020 3:30:00 AM -100000 -179968 -100000 -100000 -100000 -100000
10/26/2020 3:45:00 AM 8.62 47.516 0.072 6.38 1.33 10.93
10/26/2020 4:00:00 AM 8.62 47.516 0.072 6.38 1.36 10.93
10/26/2020 4:15:00 AM 8.61 47.498 0.072 6.38 1.5 10.93
10/26/2020 4:30:00 AM 8.61 47.498 0.072 6.38 1.34 10.93
10/26/2020 4:45:00 AM 8.61 47.498 0.072 6.38 1.33 10.94
10/26/2020 5:00:00 AM -100000 -179968 -100000 -100000 -100000 -100000
10/26/2020 5:15:00 AM 8.62 47.516 0.072 6.38 1.37 10.93
10/26/2020 5:30:00 AM 8.62 47.516 0.072 6.38 1.34 10.94
10/26/2020 5:45:00 AM -100000 -179968 -100000 -100000 -100000 -100000
10/26/2020 6:00:00 AM 8.63 47.534 0.072 6.38 1.35 10.94
10/26/2020 6:15:00 AM 8.63 47.534 0.072 6.38 1.33 10.94
10/26/2020 6:30:00 AM 8.63 47.534 0.072 6.38 1.36 10.95
10/26/2020 6:45:00 AM 8.63 47.534 0.072 6.38 1.37 10.95
10/26/2020 7:00:00 AM 8.63 47.534 0.072 6.38 1.37 10.94
10/26/2020 7:15:00 AM 8.63 47.534 0.072 6.38 1.35 10.94
10/26/2020 7:30:00 AM 8.64 47.552 0.072 6.38 1.38 10.94
10/26/2020 7:45:00 AM 8.64 47.552 0.072 6.37 1.39 10.95
10/26/2020 8:00:00 AM 8.65 47.57 0.072 6.38 1.35 10.95
10/26/2020 8:15:00 AM 8.66 47.588 0.072 6.38 1.31 10.95
10/26/2020 8:30:00 AM 8.67 47.606 0.073 6.38 1.42 10.96
10/26/2020 8:45:00 AM 8.68 47.624 0.073 6.38 1.35 10.97
10/26/2020 9:00:00 AM 8.7 47.66 0.073 6.38 1.37 10.97
10/26/2020 9:15:00 AM 8.73 47.714 0.073 6.38 1.36 10.98
10/26/2020 9:30:00 AM 8.75 47.75 0.073 6.39 1.4 11
10/26/2020 9:45:00 AM 8.78 47.804 0.073 6.38 1.37 11
10/26/2020 10:00:00 AM 8.81 47.858 0.073 6.39 1.33 11.02
10/26/2020 10:15:00 AM 8.85 47.93 0.073 6.39 1.36 11.01
10/26/2020 10:30:00 AM 8.89 48.002 0.073 6.39 1.37 11.02
10/26/2020 10:45:00 AM 8.94 48.092 0.073 6.4 1.36 11.04
10/26/2020 11:00:00 AM -100000 -179968 -100000 -100000 -100000 -100000
10/26/2020 11:15:00 AM 9.05 48.29 0.073 6.41 1.38 11.03
10/26/2020 11:30:00 AM 9.1 48.38 0.073 6.41 1.36 11.02
10/26/2020 11:45:00 AM 9.16 48.488 0.073 6.41 1.36 11.02
10/26/2020 12:00:00 PM -100000 -179968 -100000 -100000 -100000 -100000
10/26/2020 12:15:00 PM 9.27 48.686 0.072 6.41 1.37 11
10/26/2020 12:30:00 PM 9.34 48.812 0.072 6.41 1.4 11
10/26/2020 12:45:00 PM 9.39 48.902 0.072 6.41 1.38 10.97
10/26/2020 1:00:00 PM 9.44 48.992 0.072 6.41 1.33 10.96
10/26/2020 1:15:00 PM 9.51 49.118 0.072 6.41 1.33 10.95
10/26/2020 1:30:00 PM 9.59 49.262 0.072 6.41 1.33 10.93
10/26/2020 1:45:00 PM 9.64 49.352 0.072 6.41 1.32 10.9
10/26/2020 2:00:00 PM -100000 -179968 -100000 -100000 -100000 -100000
10/26/2020 2:15:00 PM 9.73 49.514 0.071 6.4 1.35 10.85
10/26/2020 2:30:00 PM 9.76 49.568 0.071 6.4 1.35 10.83
10/26/2020 2:45:00 PM 9.8 49.64 0.071 6.4 1.34 10.82
10/26/2020 3:00:00 PM 9.88 49.784 0.071 6.4 1.35 10.81
10/26/2020 3:15:00 PM 9.94 49.892 0.071 6.4 1.36 10.8
10/26/2020 3:30:00 PM 10 50 0.071 6.4 1.33 10.77
10/26/2020 3:45:00 PM 10.02 50.036 0.071 6.4 1.32 10.74
10/26/2020 4:00:00 PM 10.04 50.072 0.071 6.39 1.33 10.72
10/26/2020 4:15:00 PM 10.06 50.108 0.071 6.39 1.34 10.7
10/26/2020 4:30:00 PM 10.09 50.162 0.07 6.39 1.33 10.67
10/26/2020 4:45:00 PM 10.1 50.18 0.07 6.38 1.35 10.65
10/26/2020 5:00:00 PM 10.12 50.216 0.07 6.38 1.35 10.63
10/26/2020 5:15:00 PM 10.15 50.27 0.07 6.38 1.36 10.62
10/26/2020 5:30:00 PM 10.17 50.306 0.07 6.37 1.7 10.62
10/26/2020 5:45:00 PM 10.19 50.342 0.07 6.37 1.37 10.61
10/26/2020 6:00:00 PM 10.21 50.378 0.07 6.37 1.75 10.58
10/26/2020 6:15:00 PM 10.22 50.396 0.07 6.36 1.38 10.58
10/26/2020 6:30:00 PM 10.24 50.432 0.07 6.37 1.36 10.55
10/26/2020 6:45:00 PM 10.25 50.45 0.07 6.36 1.36 10.53
10/26/2020 7:00:00 PM 10.26 50.468 0.07 6.36 1.37 10.53
10/26/2020 7:15:00 PM 10.27 50.486 0.07 6.36 1.32 10.52
10/26/2020 7:30:00 PM 10.28 50.504 0.07 6.35 1.47 10.51
10/26/2020 7:45:00 PM -100000 -179968 -100000 -100000 -100000 -100000
10/26/2020 8:00:00 PM 10.29 50.522 0.07 6.35 1.36 10.5
10/26/2020 8:15:00 PM 10.3 50.54 0.07 6.35 1.37 10.51
10/26/2020 8:30:00 PM 10.31 50.558 0.07 6.35 1.36 10.5
10/26/2020 8:45:00 PM 10.31 50.558 0.07 6.35 1.34 10.5
10/26/2020 9:00:00 PM 10.32 50.576 0.07 6.35 1.38 10.5
10/26/2020 9:15:00 PM 10.32 50.576 0.07 6.36 1.33 10.5
10/26/2020 9:30:00 PM 10.32 50.576 0.07 6.35 1.35 10.5
10/26/2020 9:45:00 PM 10.33 50.594 0.069 6.37 1.36 10.5
10/26/2020 10:00:00 PM 10.33 50.594 0.069 6.37 1.34 10.5
10/26/2020 10:15:00 PM 10.32 50.576 0.069 6.37 1.35 10.5
10/26/2020 10:30:00 PM 10.32 50.576 0.069 6.37 1.38 10.51
10/26/2020 10:45:00 PM 10.32 50.576 0.069 6.37 1.42 10.5
10/26/2020 11:00:00 PM 10.31 50.558 0.069 6.37 1.36 10.5
10/26/2020 11:15:00 PM 10.31 50.558 0.069 6.38 1.35 10.52
10/26/2020 11:30:00 PM 10.29 50.522 0.069 6.38 1.37 10.52
10/26/2020 11:45:00 PM 10.28 50.504 0.069 6.38 1.36 10.51
10/27/2020 12:00:00 AM 10.26 50.468 0.069 6.38 1.33 10.52
10/27/2020 12:15:00 AM 10.25 50.45 0.069 6.38 1.33 10.51
10/27/2020 12:30:00 AM -100000 -179968 -100000 -100000 -100000 -100000
10/27/2020 12:45:00 AM 10.23 50.414 0.069 6.38 1.3 10.53
10/27/2020 1:00:00 AM 10.22 50.396 0.069 6.37 1.37 10.54
10/27/2020 1:15:00 AM 10.21 50.378 0.069 6.38 1.35 10.54
10/27/2020 1:30:00 AM -100000 -179968 -100000 -100000 -100000 -100000
10/27/2020 1:45:00 AM 10.18 50.324 0.069 6.37 1.37 10.54
10/27/2020 2:00:00 AM 10.16 50.288 0.069 6.38 1.37 10.55
10/27/2020 2:15:00 AM 10.13 50.234 0.069 6.38 1.41 10.57
10/27/2020 2:30:00 AM 10.1 50.18 0.069 6.39 1.36 10.58
10/27/2020 2:45:00 AM 10.06 50.108 0.069 6.38 1.39 10.59
10/27/2020 3:00:00 AM 10.03 50.054 0.069 6.38 1.34 10.59
10/27/2020 3:15:00 AM 10.01 50.018 0.069 6.38 1.36 10.59
10/27/2020 3:30:00 AM 9.99 49.982 0.069 6.38 1.36 10.6
10/27/2020 3:45:00 AM 9.97 49.946 0.069 6.39 1.36 10.61
10/27/2020 4:00:00 AM 9.95 49.91 0.069 6.38 1.33 10.61
10/27/2020 4:15:00 AM -100000 -179968 -100000 -100000 -100000 -100000
10/27/2020 4:30:00 AM 9.9 49.82 0.07 6.38 1.44 10.62
10/27/2020 4:45:00 AM 9.88 49.784 0.069 6.38 1.34 10.64
10/27/2020 5:00:00 AM 9.87 49.766 0.069 6.38 1.39 10.65
10/27/2020 5:15:00 AM 9.85 49.73 0.07 6.38 1.35 10.64
10/27/2020 5:30:00 AM 9.84 49.712 0.07 6.38 1.35 10.65
10/27/2020 5:45:00 AM 9.82 49.676 0.07 6.38 1.39 10.65
10/27/2020 6:00:00 AM 9.81 49.658 0.07 6.38 1.4 10.66
10/27/2020 6:15:00 AM 9.8 49.64 0.07 6.38 1.38 10.67
10/27/2020 6:30:00 AM 9.78 49.604 0.07 6.38 1.4 10.66
10/27/2020 6:45:00 AM 9.76 49.568 0.07 6.38 1.35 10.68
10/27/2020 7:00:00 AM 9.74 49.532 0.07 6.38 1.39 10.68
10/27/2020 7:15:00 AM 9.73 49.514 0.07 6.37 1.35 10.69
10/27/2020 7:30:00 AM 9.71 49.478 0.07 6.38 1.35 10.69
10/27/2020 7:45:00 AM 9.69 49.442 0.07 6.37 1.35 10.7
10/27/2020 8:00:00 AM 9.67 49.406 0.07 6.38 1.36 10.7
10/27/2020 8:15:00 AM 9.66 49.388 0.07 6.38 1.41 10.72
10/27/2020 8:30:00 AM 9.65 49.37 0.07 6.38 1.42 10.74
10/27/2020 8:45:00 AM 9.65 49.37 0.07 6.38 1.37 10.75
10/27/2020 9:00:00 AM 9.65 49.37 0.07 6.38 1.38 10.76
10/27/2020 9:15:00 AM 9.65 49.37 0.07 6.39 1.48 10.78
10/27/2020 9:30:00 AM 9.66 49.388 0.07 6.39 1.36 10.8
10/27/2020 9:45:00 AM 9.66 49.388 0.069 6.4 1.36 10.82
10/27/2020 10:00:00 AM 9.67 49.406 0.069 6.4 1.45 10.83
10/27/2020 10:15:00 AM 9.68 49.424 0.069 6.4 1.36 10.84
10/27/2020 10:30:00 AM 9.71 49.478 0.069 6.41 1.41 10.86
10/27/2020 10:45:00 AM 9.76 49.568 0.069 6.41 1.36 10.86
10/27/2020 11:00:00 AM 9.82 49.676 0.069 6.41 1.4 10.87
10/27/2020 11:15:00 AM 9.92 49.856 0.069 6.42 1.34 10.87
10/27/2020 11:30:00 AM 9.99 49.982 0.069 6.42 1.34 10.86
10/27/2020 11:45:00 AM 10.04 50.072 0.069 6.42 1.35 10.85
10/27/2020 12:00:00 PM 10.06 50.108 0.068 6.41 1.27 10.83
10/27/2020 12:15:00 PM 10.07 50.126 0.068 6.42 1.28 10.82
10/27/2020 12:30:00 PM 10.1 50.18 0.068 6.42 1.29 10.82
10/27/2020 12:45:00 PM 10.16 50.288 0.068 6.42 1.31 10.82
10/27/2020 1:00:00 PM 10.19 50.342 0.068 6.42 1.31 10.8
10/27/2020 1:15:00 PM 10.22 50.396 0.068 6.42 1.33 10.78
10/27/2020 1:30:00 PM 10.25 50.45 0.068 6.42 1.32 10.78
10/27/2020 1:45:00 PM 10.28 50.504 0.068 6.42 1.41 10.77
10/27/2020 2:00:00 PM 10.3 50.54 0.068 6.41 1.31 10.76
10/27/2020 2:15:00 PM 10.31 50.558 0.068 6.41 1.32 10.74
10/27/2020 2:30:00 PM 10.32 50.576 0.068 6.41 1.32 10.73
10/27/2020 2:45:00 PM 10.32 50.576 0.068 6.41 1.57 10.7
10/27/2020 3:00:00 PM 10.34 50.612 0.068 6.41 1.32 10.69
10/27/2020 3:15:00 PM 10.35 50.63 0.068 6.41 1.28 10.69
10/27/2020 3:30:00 PM 10.36 50.648 0.068 6.41 1.34 10.68
10/27/2020 3:45:00 PM 10.37 50.666 0.068 6.4 1.33 10.66
10/27/2020 4:00:00 PM 10.38 50.684 0.068 6.41 1.31 10.66
10/27/2020 4:15:00 PM 10.4 50.72 0.068 6.41 1.31 10.66
10/27/2020 4:30:00 PM 10.41 50.738 0.068 6.41 1.29 10.66
10/27/2020 4:45:00 PM 10.4 50.72 0.068 6.4 1.34 10.63
10/27/2020 5:00:00 PM 10.39 50.702 0.068 6.4 1.33 10.62
10/27/2020 5:15:00 PM 10.37 50.666 0.068 6.39 1.65 10.59
10/27/2020 5:30:00 PM 10.35 50.63 0.068 6.39 1.34 10.59
10/27/2020 5:45:00 PM 10.34 50.612 0.068 6.39 1.37 10.58
10/27/2020 6:00:00 PM -100000 -179968 -100000 -100000 -100000 -100000
10/27/2020 6:15:00 PM 10.29 50.522 0.068 6.39 1.3 10.58
10/27/2020 6:30:00 PM 10.27 50.486 0.068 6.38 1.36 10.57
10/27/2020 6:45:00 PM 10.25 50.45 0.068 6.38 1.37 10.56
10/27/2020 7:00:00 PM -100000 -179968 -100000 -100000 -100000 -100000
10/27/2020 7:15:00 PM 10.21 50.378 0.068 6.38 1.29 10.56
10/27/2020 7:30:00 PM -100000 -179968 -100000 -100000 -100000 -100000
10/27/2020 7:45:00 PM 10.17 50.306 0.068 6.38 1.42 10.56
10/27/2020 8:00:00 PM 10.14 50.252 0.068 6.38 1.37 10.58
10/27/2020 8:15:00 PM 10.12 50.216 0.068 6.38 1.31 10.57
10/27/2020 8:30:00 PM 10.1 50.18 0.068 6.38 1.35 10.59
10/27/2020 8:45:00 PM 10.08 50.144 0.068 6.38 1.33 10.59
10/27/2020 9:00:00 PM 10.06 50.108 0.068 6.38 1.31 10.6
10/27/2020 9:15:00 PM -100000 -179968 -100000 -100000 -100000 -100000
10/27/2020 9:30:00 PM 10.02 50.036 0.068 6.38 1.44 10.6
10/27/2020 9:45:00 PM 10 50 0.068 6.38 1.33 10.61
10/27/2020 10:00:00 PM 9.97 49.946 0.068 6.38 1.4 10.62
10/27/2020 10:15:00 PM 9.95 49.91 0.068 6.38 1.32 10.61
10/27/2020 10:30:00 PM 9.92 49.856 0.068 6.38 1.32 10.63
10/27/2020 10:45:00 PM 9.9 49.82 0.068 6.38 1.34 10.62
10/27/2020 11:00:00 PM -100000 -179968 -100000 -100000 -100000 -100000
10/27/2020 11:15:00 PM 9.85 49.73 0.068 6.39 1.39 10.64
10/27/2020 11:30:00 PM 9.83 49.694 0.068 6.38 1.33 10.64
10/27/2020 11:45:00 PM 9.81 49.658 0.068 6.38 1.32 10.65
10/28/2020 12:00:00 AM 9.8 49.64 0.068 6.38 1.33 10.64
10/28/2020 12:15:00 AM 9.78 49.604 0.068 6.38 1.33 10.65
10/28/2020 12:30:00 AM 9.77 49.586 0.068 6.38 1.32 10.66
10/28/2020 12:45:00 AM 9.76 49.568 0.068 6.38 1.33 10.66
10/28/2020 1:00:00 AM 9.74 49.532 0.068 6.38 1.38 10.66
10/28/2020 1:15:00 AM 9.73 49.514 0.068 6.38 1.33 10.65
10/28/2020 1:30:00 AM 9.71 49.478 0.068 6.38 1.34 10.65
10/28/2020 1:45:00 AM 9.7 49.46 0.068 6.38 1.36 10.67
10/28/2020 2:00:00 AM 9.69 49.442 0.068 6.37 1.35 10.66
10/28/2020 2:15:00 AM 9.68 49.424 0.068 6.37 1.39 10.67
10/28/2020 2:30:00 AM 9.67 49.406 0.068 6.38 1.34 10.67
10/28/2020 2:45:00 AM 9.66 49.388 0.068 6.38 1.37 10.67
10/28/2020 3:00:00 AM 9.66 49.388 0.068 6.37 1.35 10.67
10/28/2020 3:15:00 AM 9.65 49.37 0.068 6.37 1.39 10.66
10/28/2020 3:30:00 AM 9.65 49.37 0.068 6.37 1.37 10.67
10/28/2020 3:45:00 AM 9.64 49.352 0.068 6.37 1.32 10.67
10/28/2020 4:00:00 AM 9.64 49.352 0.068 6.37 1.3 10.66
10/28/2020 4:15:00 AM 9.63 49.334 0.068 6.37 1.41 10.66
10/28/2020 4:30:00 AM 9.63 49.334 0.068 6.37 1.37 10.66
10/28/2020 4:45:00 AM 9.62 49.316 0.068 6.37 1.38 10.67
10/28/2020 5:00:00 AM 9.62 49.316 0.068 6.36 1.41 10.67
10/28/2020 5:15:00 AM 9.61 49.298 0.067 6.37 1.42 10.67
10/28/2020 5:30:00 AM 9.61 49.298 0.067 6.36 1.34 10.67
10/28/2020 5:45:00 AM 9.6 49.28 0.067 6.36 1.35 10.66
10/28/2020 6:00:00 AM 9.6 49.28 0.067 6.36 1.34 10.66
10/28/2020 6:15:00 AM 9.6 49.28 0.067 6.36 1.37 10.67
10/28/2020 6:30:00 AM 9.59 49.262 0.067 6.36 1.38 10.67
10/28/2020 6:45:00 AM -100000 -179968 -100000 -100000 -100000 -100000
10/28/2020 7:00:00 AM 9.59 49.262 0.067 6.36 1.41 10.67
10/28/2020 7:15:00 AM 9.59 49.262 0.067 6.36 1.49 10.67
10/28/2020 7:30:00 AM 9.59 49.262 0.067 6.36 1.39 10.67
10/28/2020 7:45:00 AM 9.58 49.244 0.067 6.36 1.37 10.68
10/28/2020 8:00:00 AM 9.58 49.244 0.067 6.36 1.37 10.68
10/28/2020 8:15:00 AM 9.59 49.262 0.067 6.36 1.4 10.68
10/28/2020 8:30:00 AM 9.59 49.262 0.067 6.37 1.37 10.69
10/28/2020 8:45:00 AM 9.59 49.262 0.067 6.36 1.33 10.7
10/28/2020 9:00:00 AM 9.6 49.28 0.067 6.37 1.38 10.72
10/28/2020 9:15:00 AM 9.62 49.316 0.067 6.37 1.4 10.74
10/28/2020 9:30:00 AM 9.64 49.352 0.067 6.37 1.35 10.75
10/28/2020 9:45:00 AM 9.66 49.388 0.067 6.38 1.36 10.77
10/28/2020 10:00:00 AM -100000 -179968 -100000 -100000 -100000 -100000
10/28/2020 10:15:00 AM 9.71 49.478 0.067 6.39 1.35 10.77
10/28/2020 10:30:00 AM 9.73 49.514 0.067 6.39 1.38 10.79
10/28/2020 10:45:00 AM 9.77 49.586 0.067 6.4 1.36 10.8
10/28/2020 11:00:00 AM 9.87 49.766 0.067 6.4 1.34 10.81
10/28/2020 11:15:00 AM 9.96 49.928 0.067 6.41 1.34 10.81
10/28/2020 11:30:00 AM 10.06 50.108 0.067 6.41 1.39 10.79
10/28/2020 11:45:00 AM 10.1 50.18 0.067 6.41 1.38 10.78
10/28/2020 12:00:00 PM 10.11 50.198 0.067 6.41 1.47 10.76
10/28/2020 12:15:00 PM 10.1 50.18 0.067 6.41 1.37 10.76
10/28/2020 12:30:00 PM 10.11 50.198 0.067 6.41 1.34 10.75
10/28/2020 12:45:00 PM 10.14 50.252 0.067 6.41 1.37 10.75
10/28/2020 1:00:00 PM 10.16 50.288 0.067 6.41 1.36 10.75
10/28/2020 1:15:00 PM 10.22 50.396 0.067 6.42 1.45 10.74
10/28/2020 1:30:00 PM 10.31 50.558 0.067 6.42 1.36 10.74
10/28/2020 1:45:00 PM 10.37 50.666 0.067 6.42 1.34 10.71
10/28/2020 2:00:00 PM 10.39 50.702 0.068 6.42 1.38 10.7
10/28/2020 2:15:00 PM 10.39 50.702 0.068 6.42 1.4 10.68
10/28/2020 2:30:00 PM 10.39 50.702 0.068 6.42 1.34 10.66
10/28/2020 2:45:00 PM 10.4 50.72 0.068 6.42 1.33 10.66
10/28/2020 3:00:00 PM 10.41 50.738 0.068 6.41 1.38 10.64
10/28/2020 3:15:00 PM 10.43 50.774 0.068 6.41 1.37 10.64
10/28/2020 3:30:00 PM 10.46 50.828 0.068 6.42 1.35 10.64
10/28/2020 3:45:00 PM 10.49 50.882 0.068 6.42 1.37 10.64
10/28/2020 4:00:00 PM 10.5 50.9 0.068 6.42 1.37 10.63
10/28/2020 4:15:00 PM 10.51 50.918 0.069 6.41 1.39 10.61
10/28/2020 4:30:00 PM 10.5 50.9 0.069 6.41 1.32 10.6
10/28/2020 4:45:00 PM 10.49 50.882 0.069 6.4 1.47 10.58
10/28/2020 5:00:00 PM 10.48 50.864 0.069 6.41 1.38 10.57
10/28/2020 5:15:00 PM 10.46 50.828 0.069 6.4 1.43 10.55
10/28/2020 5:30:00 PM 10.45 50.81 0.069 6.4 1.36 10.54
10/28/2020 5:45:00 PM 10.43 50.774 0.069 6.4 1.39 10.54
10/28/2020 6:00:00 PM 10.42 50.756 0.069 6.39 1.38 10.52
10/28/2020 6:15:00 PM -100000 -179968 -100000 -100000 -100000 -100000
10/28/2020 6:30:00 PM 10.38 50.684 0.069 6.39 1.38 10.51
10/28/2020 6:45:00 PM 10.35 50.63 0.069 6.39 1.39 10.5
10/28/2020 7:00:00 PM 10.33 50.594 0.069 6.39 1.5 10.51
10/28/2020 7:15:00 PM 10.3 50.54 0.069 6.39 1.47 10.51
10/28/2020 7:30:00 PM 10.27 50.486 0.069 6.38 1.38 10.51
10/28/2020 7:45:00 PM 10.23 50.414 0.069 6.38 1.41 10.52
10/28/2020 8:00:00 PM -100000 -179968 -100000 -100000 -100000 -100000
10/28/2020 8:15:00 PM 10.18 50.324 0.069 6.39 1.4 10.54
10/28/2020 8:30:00 PM 10.15 50.27 0.069 6.39 1.4 10.55
10/28/2020 8:45:00 PM 10.12 50.216 0.069 6.38 1.38 10.55
10/28/2020 9:00:00 PM 10.1 50.18 0.069 6.39 1.48 10.55
10/28/2020 9:15:00 PM 10.08 50.144 0.069 6.38 1.41 10.55
10/28/2020 9:30:00 PM 10.05 50.09 0.069 6.38 1.42 10.56
10/28/2020 9:45:00 PM 10.01 50.018 0.069 6.38 1.48 10.58
10/28/2020 10:00:00 PM 9.98 49.964 0.069 6.38 1.4 10.58
10/28/2020 10:15:00 PM 9.94 49.892 0.069 6.38 1.45 10.59
10/28/2020 10:30:00 PM 9.9 49.82 0.069 6.38 1.35 10.59
10/28/2020 10:45:00 PM 9.87 49.766 0.069 6.38 1.44 10.6
10/28/2020 11:00:00 PM 9.83 49.694 0.069 6.38 1.4 10.62
10/28/2020 11:15:00 PM 9.8 49.64 0.069 6.38 1.39 10.63
10/28/2020 11:30:00 PM 9.77 49.586 0.069 6.38 1.4 10.63
10/28/2020 11:45:00 PM 9.75 49.55 0.069 6.38 1.41 10.63
10/29/2020 12:00:00 AM 9.73 49.514 0.069 6.38 1.39 10.63
10/29/2020 12:15:00 AM 9.71 49.478 0.069 6.38 1.4 10.65
10/29/2020 12:30:00 AM 9.7 49.46 0.069 6.38 1.42 10.64
10/29/2020 12:45:00 AM 9.69 49.442 0.069 6.38 1.39 10.65
10/29/2020 1:00:00 AM -100000 -179968 -100000 -100000 -100000 -100000
10/29/2020 1:15:00 AM 9.66 49.388 0.069 6.38 1.39 10.65
10/29/2020 1:30:00 AM 9.65 49.37 0.069 6.38 1.41 10.66
10/29/2020 1:45:00 AM 9.63 49.334 0.069 6.38 1.43 10.66
10/29/2020 2:00:00 AM 9.62 49.316 0.069 6.38 1.39 10.66
10/29/2020 2:15:00 AM 9.61 49.298 0.069 6.37 1.38 10.67
10/29/2020 2:30:00 AM -100000 -179968 -100000 -100000 -100000 -100000
10/29/2020 2:45:00 AM 9.59 49.262 0.068 6.38 1.4 10.68
10/29/2020 3:00:00 AM 9.57 49.226 0.068 6.38 1.41 10.69
10/29/2020 3:15:00 AM 9.56 49.208 0.068 6.38 1.41 10.69
10/29/2020 3:30:00 AM 9.55 49.19 0.068 6.37 1.41 10.69
10/29/2020 3:45:00 AM 9.53 49.154 0.068 6.37 1.41 10.69
10/29/2020 4:00:00 AM 9.53 49.154 0.068 6.37 1.4 10.69
10/29/2020 4:15:00 AM 9.51 49.118 0.068 6.37 1.4 10.69
10/29/2020 4:30:00 AM 9.5 49.1 0.068 6.37 1.61 10.69
10/29/2020 4:45:00 AM 9.49 49.082 0.068 6.37 1.41 10.69
10/29/2020 5:00:00 AM 9.48 49.064 0.067 6.37 1.54 10.68
10/29/2020 5:15:00 AM -100000 -179968 -100000 -100000 -100000 -100000
10/29/2020 5:30:00 AM 9.45 49.01 0.067 6.36 1.42 10.69
10/29/2020 5:45:00 AM 9.44 48.992 0.067 6.36 1.5 10.68
10/29/2020 6:00:00 AM 9.43 48.974 0.066 6.37 1.46 10.69
10/29/2020 6:15:00 AM 9.43 48.974 0.066 6.36 1.5 10.67
10/29/2020 6:30:00 AM 9.42 48.956 0.066 6.37 1.51 10.69
10/29/2020 6:45:00 AM 9.41 48.938 0.066 6.37 1.54 10.68
10/29/2020 7:00:00 AM 9.4 48.92 0.065 6.37 1.59 10.7
10/29/2020 7:15:00 AM 9.39 48.902 0.065 6.4 1.53 10.69
10/29/2020 7:30:00 AM 9.38 48.884 0.065 6.4 1.56 10.69
10/29/2020 7:45:00 AM 9.37 48.866 0.065 6.42 1.59 10.67
10/29/2020 8:00:00 AM 9.36 48.848 0.065 6.44 1.7 10.65
10/29/2020 8:15:00 AM 9.35 48.83 0.065 6.44 1.56 10.65
10/29/2020 8:30:00 AM 9.33 48.794 0.065 6.44 1.73 10.66
10/29/2020 8:45:00 AM 9.32 48.776 0.064 6.45 1.75 10.65
10/29/2020 9:00:00 AM 9.31 48.758 0.064 6.43 1.95 10.65
10/29/2020 9:15:00 AM 9.31 48.758 0.064 6.43 1.86 10.65
10/29/2020 9:30:00 AM 9.3 48.74 0.064 6.44 1.54 10.66
10/29/2020 9:45:00 AM 9.3 48.74 0.064 6.45 1.59 10.68
10/29/2020 10:00:00 AM 9.28 48.704 0.064 6.48 1.96 10.71
10/29/2020 10:15:00 AM 9.27 48.686 0.065 6.48 2.87 10.72
10/29/2020 10:30:00 AM 9.24 48.632 0.065 6.49 1.99 10.75
10/29/2020 10:45:00 AM 9.22 48.596 0.065 6.51 1.87 10.75
10/29/2020 11:00:00 AM 9.21 48.578 0.066 6.51 1.75 10.72
10/29/2020 11:15:00 AM 9.19 48.542 0.068 6.51 1.74 10.71
10/29/2020 11:30:00 AM 9.19 48.542 0.069 6.52 1.91 10.69
10/29/2020 11:45:00 AM 9.19 48.542 0.07 6.53 1.99 10.66
10/29/2020 12:00:00 PM 9.19 48.542 0.073 6.54 1.84 10.66
10/29/2020 12:15:00 PM 9.2 48.56 0.075 6.55 1.93 10.67
10/29/2020 12:30:00 PM 9.21 48.578 0.077 6.55 2.17 10.65
10/29/2020 12:45:00 PM 9.2 48.56 0.079 6.55 2.55 10.71
10/29/2020 1:00:00 PM 9.2 48.56 0.08 6.55 2.09 10.71
10/29/2020 1:15:00 PM 9.21 48.578 0.081 6.54 1.92 10.65
10/29/2020 1:30:00 PM 9.22 48.596 0.082 6.54 3.03 10.63
10/29/2020 1:45:00 PM 9.23 48.614 0.083 6.56 2.2 10.69
10/29/2020 2:00:00 PM 9.24 48.632 0.083 6.55 3.7 10.68
10/29/2020 2:15:00 PM 9.26 48.668 0.084 6.57 2.65 10.65
10/29/2020 2:30:00 PM 9.27 48.686 0.084 6.58 2.24 10.68
10/29/2020 2:45:00 PM 9.27 48.686 0.084 6.56 2.35 10.72
10/29/2020 3:00:00 PM 9.28 48.704 0.085 6.56 2.22 10.71
10/29/2020 3:15:00 PM 9.29 48.722 0.085 6.55 2.37 10.71
10/29/2020 3:30:00 PM 9.3 48.74 0.084 6.55 2.74 10.69
10/29/2020 3:45:00 PM 9.3 48.74 0.084 6.56 2.55 10.67
10/29/2020 4:00:00 PM 9.29 48.722 0.082 6.54 2.85 10.72
10/29/2020 4:15:00 PM 9.28 48.704 0.081 6.52 3.97 10.75
10/29/2020 4:30:00 PM 9.27 48.686 0.08 6.5 3.33 10.74
10/29/2020 4:45:00 PM 9.26 48.668 0.079 6.48 3.26 10.77
10/29/2020 5:00:00 PM 9.28 48.704 0.078 6.45 3.88 10.77
10/29/2020 5:15:00 PM 9.31 48.758 0.078 6.41 3.98 10.79
10/29/2020 5:30:00 PM 9.32 48.776 0.078 6.37 4.36 10.79
10/29/2020 5:45:00 PM 9.34 48.812 0.077 6.36 3.87 10.78
10/29/2020 6:00:00 PM 9.34 48.812 0.077 6.35 3.62 10.77
10/29/2020 6:15:00 PM 9.34 48.812 0.077 6.34 6.69 10.73
10/29/2020 6:30:00 PM 9.34 48.812 0.078 6.33 4.65 10.74
10/29/2020 6:45:00 PM 9.33 48.794 0.078 6.33 5.49 10.75
10/29/2020 7:00:00 PM 9.33 48.794 0.079 6.33 7.24 10.75
10/29/2020 7:15:00 PM 9.33 48.794 0.079 6.33 6.88 10.76
10/29/2020 7:30:00 PM 9.33 48.794 0.078 6.31 6.62 10.73
10/29/2020 7:45:00 PM 9.32 48.776 0.076 6.3 7.09 10.76
10/29/2020 8:00:00 PM 9.32 48.776 0.074 6.3 5.53 10.74
10/29/2020 8:15:00 PM 9.3 48.74 0.071 6.3 6.55 10.78
10/29/2020 8:30:00 PM 9.28 48.704 0.068 6.31 7.08 10.8
10/29/2020 8:45:00 PM 9.27 48.686 0.066 6.3 7.41 10.8
10/29/2020 9:00:00 PM 9.25 48.65 0.064 6.3 5.7 10.81
10/29/2020 9:15:00 PM 9.24 48.632 0.062 6.31 5.62 10.82
10/29/2020 9:30:00 PM 9.22 48.596 0.061 6.3 5.92 10.82
10/29/2020 9:45:00 PM 9.2 48.56 0.059 6.3 5.21 10.84
10/29/2020 10:00:00 PM 9.18 48.524 0.058 6.29 5.68 10.85
10/29/2020 10:15:00 PM 9.16 48.488 0.058 6.29 4.77 10.85
10/29/2020 10:30:00 PM 9.15 48.47 0.057 6.29 5.65 10.85
10/29/2020 10:45:00 PM -100000 -179968 -100000 -100000 -100000 -100000
10/29/2020 11:00:00 PM 9.11 48.398 0.056 6.28 6.7 10.86
10/29/2020 11:15:00 PM 9.1 48.38 0.055 6.29 5.19 10.88
10/29/2020 11:30:00 PM 9.08 48.344 0.054 6.29 5.23 10.88
10/29/2020 11:45:00 PM 9.06 48.308 0.054 6.29 4.88 10.88
10/30/2020 12:00:00 AM 9.05 48.29 0.053 6.29 5.8 10.9
10/30/2020 12:15:00 AM -100000 -179968 -100000 -100000 -100000 -100000
10/30/2020 12:30:00 AM 9.01 48.218 0.052 6.29 4.68 10.9
10/30/2020 12:45:00 AM 8.99 48.182 0.052 6.29 4.67 10.92
10/30/2020 1:00:00 AM 8.98 48.164 0.051 6.29 4.59 10.92
10/30/2020 1:15:00 AM 8.95 48.11 0.05 6.29 4.5 10.94
10/30/2020 1:30:00 AM 8.94 48.092 0.05 6.29 4.6 10.93
10/30/2020 1:45:00 AM 8.91 48.038 0.05 6.29 4.89 10.94
10/30/2020 2:00:00 AM 8.89 48.002 0.049 6.29 4.46 10.94
10/30/2020 2:15:00 AM 8.87 47.966 0.049 6.28 4.33 10.92
10/30/2020 2:30:00 AM -100000 -179968 -100000 -100000 -100000 -100000
10/30/2020 2:45:00 AM 8.83 47.894 0.049 6.28 3.76 10.95
10/30/2020 3:00:00 AM 8.8 47.84 0.048 6.3 4.01 10.98
10/30/2020 3:15:00 AM 8.78 47.804 0.048 6.29 3.51 10.97
10/30/2020 3:30:00 AM 8.75 47.75 0.048 6.28 3.78 10.98
10/30/2020 3:45:00 AM 8.71 47.678 0.048 6.29 3.89 10.99
10/30/2020 4:00:00 AM 8.68 47.624 0.048 6.29 3.28 11.01
10/30/2020 4:15:00 AM 8.65 47.57 0.048 6.3 3.27 11
10/30/2020 4:30:00 AM 8.6 47.48 0.048 6.31 3.79 11.01
10/30/2020 4:45:00 AM 8.55 47.39 0.048 6.32 3.81 11.02
10/30/2020 5:00:00 AM 8.48 47.264 0.048 6.32 3.46 11.07
10/30/2020 5:15:00 AM 8.45 47.21 0.048 6.31 3.43 11.08
10/30/2020 5:30:00 AM 8.42 47.156 0.048 6.29 3.36 11.08
10/30/2020 5:45:00 AM 8.39 47.102 0.048 6.28 3.53 11.09
10/30/2020 6:00:00 AM 8.36 47.048 0.048 6.28 3.38 11.09
10/30/2020 6:15:00 AM 8.32 46.976 0.048 6.27 3.6 11.11
10/30/2020 6:30:00 AM 8.29 46.922 0.049 6.27 3.41 11.12
10/30/2020 6:45:00 AM 8.26 46.868 0.049 6.26 3.75 11.15
10/30/2020 7:00:00 AM 8.24 46.832 0.049 6.25 7.85 11.09
10/30/2020 7:15:00 AM 8.21 46.778 0.05 6.24 8.46 11.1
10/30/2020 7:30:00 AM 8.19 46.742 0.05 6.25 3.42 11.15
10/30/2020 7:45:00 AM 8.17 46.706 0.05 6.24 3.57 11.16
10/30/2020 8:00:00 AM 8.15 46.67 0.051 6.25 3.73 11.18
10/30/2020 8:15:00 AM 8.13 46.634 0.051 6.25 3.84 11.2
10/30/2020 8:30:00 AM 8.11 46.598 0.051 6.25 3.47 11.21
10/30/2020 8:45:00 AM 8.1 46.58 0.051 6.25 3.12 11.22
10/30/2020 9:00:00 AM 8.1 46.58 0.052 6.23 11.69 11.17
10/30/2020 9:15:00 AM 8.09 46.562 0.052 6.25 3.06 11.26
10/30/2020 9:30:00 AM 8.09 46.562 0.052 6.24 3.47 11.27
10/30/2020 9:45:00 AM 8.09 46.562 0.052 6.24 3.47 11.27
10/30/2020 10:00:00 AM 8.09 46.562 0.052 6.24 3.05 11.29
10/30/2020 10:15:00 AM 8.08 46.544 0.051 6.24 2.94 11.3
10/30/2020 10:30:00 AM 8.1 46.58 0.051 6.22 2.87 11.32
10/30/2020 10:45:00 AM 8.12 46.616 0.051 6.23 4.08 11.31
10/30/2020 11:00:00 AM -100000 -179968 -100000 -100000 -100000 -100000
10/30/2020 11:15:00 AM 8.18 46.724 0.051 6.24 2.74 11.34
10/30/2020 11:30:00 AM 8.22 46.796 0.051 6.24 2.9 11.34
10/30/2020 11:45:00 AM 8.23 46.814 0.051 6.24 2.81 11.34
10/30/2020 12:00:00 PM 8.24 46.832 0.051 6.22 2.77 11.34
10/30/2020 12:15:00 PM 8.25 46.85 0.051 6.23 3.69 11.33
10/30/2020 12:30:00 PM 8.25 46.85 0.051 6.21 2.81 11.31
10/30/2020 12:45:00 PM -100000 -179968 -100000 -100000 -100000 -100000
10/30/2020 1:00:00 PM 8.3 46.94 0.051 6.21 2.7 11.34
10/30/2020 1:15:00 PM 8.32 46.976 0.051 6.21 2.48 11.32
10/30/2020 1:30:00 PM 8.35 47.03 0.051 6.2 2.86 11.28
10/30/2020 1:45:00 PM 8.39 47.102 0.051 6.21 3.74 11.3
10/30/2020 2:00:00 PM 8.41 47.138 0.052 6.21 2.73 11.3
10/30/2020 2:15:00 PM 8.43 47.174 0.051 6.21 2.45 11.29
10/30/2020 2:30:00 PM 8.44 47.192 0.051 6.21 2.52 11.29
10/30/2020 2:45:00 PM 8.45 47.21 0.051 6.21 2.51 11.28
10/30/2020 3:00:00 PM 8.47 47.246 0.051 6.2 2.43 11.27
10/30/2020 3:15:00 PM 8.48 47.264 0.051 6.2 2.56 11.25
10/30/2020 3:30:00 PM 8.49 47.282 0.051 6.2 2.49 11.24
10/30/2020 3:45:00 PM 8.5 47.3 0.051 6.2 2.54 11.26
10/30/2020 4:00:00 PM 8.51 47.318 0.051 6.2 2.35 11.25
10/30/2020 4:15:00 PM 8.52 47.336 0.051 6.18 2.4 11.25
10/30/2020 4:30:00 PM 8.53 47.354 0.051 6.2 2.44 11.24
10/30/2020 4:45:00 PM 8.52 47.336 0.051 6.19 2.31 11.27
10/30/2020 5:00:00 PM 8.52 47.336 0.051 6.2 2.45 11.26
10/30/2020 5:15:00 PM 8.5 47.3 0.051 6.2 2.36 11.27
10/30/2020 5:30:00 PM -100000 -179968 -100000 -100000 -100000 -100000
10/30/2020 5:45:00 PM 8.45 47.21 0.051 6.19 2.44 11.28
10/30/2020 6:00:00 PM 8.43 47.174 0.051 6.2 3.5 11.26
10/30/2020 6:15:00 PM 8.39 47.102 0.051 6.19 3.04 11.27
10/30/2020 6:30:00 PM 8.34 47.012 0.051 6.19 2.49 11.29
10/30/2020 6:45:00 PM 8.3 46.94 0.051 6.17 2.7 11.28
10/30/2020 7:00:00 PM 8.24 46.832 0.052 6.18 2.42 11.31
10/30/2020 7:15:00 PM 8.19 46.742 0.052 6.18 2.46 11.32
10/30/2020 7:30:00 PM 8.13 46.634 0.052 6.18 2.34 11.33
10/30/2020 7:45:00 PM 8.08 46.544 0.052 6.18 2.46 11.35
10/30/2020 8:00:00 PM 8.03 46.454 0.052 6.17 2.34 11.36
10/30/2020 8:15:00 PM 7.96 46.328 0.052 6.17 2.21 11.39
10/30/2020 8:30:00 PM 7.91 46.238 0.052 6.18 2.24 11.39
10/30/2020 8:45:00 PM 7.84 46.112 0.052 6.18 2.37 11.4
10/30/2020 9:00:00 PM 7.79 46.022 0.052 6.16 2.53 11.43
10/30/2020 9:15:00 PM 7.74 45.932 0.052 6.17 2.26 11.47
10/30/2020 9:30:00 PM 7.71 45.878 0.052 6.17 2.22 11.47
10/30/2020 9:45:00 PM 7.66 45.788 0.052 6.14 2.37 11.5
10/30/2020 10:00:00 PM 7.62 45.716 0.052 6.14 2.35 11.51
10/30/2020 10:15:00 PM 7.59 45.662 0.052 6.14 2.29 11.52
10/30/2020 10:30:00 PM 7.54 45.572 0.052 6.12 2.49 11.54
10/30/2020 10:45:00 PM 7.51 45.518 0.053 6.12 2.37 11.54
10/30/2020 11:00:00 PM 7.46 45.428 0.053 6.11 2.23 11.57
10/30/2020 11:15:00 PM 7.43 45.374 0.053 6.11 2.28 11.58
10/30/2020 11:30:00 PM 7.4 45.32 0.053 6.11 2.15 11.58
10/30/2020 11:45:00 PM 7.35 45.23 0.053 6.1 2.18 11.61
10/31/2020 12:00:00 AM -100000 -179968 -100000 -100000 -100000 -100000
10/31/2020 12:15:00 AM 7.29 45.122 0.053 6.11 2.17 11.64
10/31/2020 12:30:00 AM 7.26 45.068 0.053 6.08 2.12 11.64
10/31/2020 12:45:00 AM 7.24 45.032 0.053 6.11 2.22 11.64
10/31/2020 1:00:00 AM 7.21 44.978 0.053 6.09 2.14 11.67
10/31/2020 1:15:00 AM 7.19 44.942 0.053 6.11 2.23 11.66
10/31/2020 1:30:00 AM 7.17 44.906 0.053 6.1 2.11 11.66
10/31/2020 1:45:00 AM 7.14 44.852 0.053 6.12 2.17 11.68
10/31/2020 2:00:00 AM 7.12 44.816 0.053 6.12 2.13 11.7
10/31/2020 2:15:00 AM 7.1 44.78 0.053 6.12 2.01 11.67
10/31/2020 2:30:00 AM 7.08 44.744 0.053 6.12 2.13 11.69
10/31/2020 2:45:00 AM 7.05 44.69 0.053 6.13 2.12 11.71
10/31/2020 3:00:00 AM 7.03 44.654 0.053 6.13 2.05 11.72
10/31/2020 3:15:00 AM 7.01 44.618 0.053 6.13 2.14 11.72
10/31/2020 3:30:00 AM 7 44.6 0.053 6.14 2.05 11.72
10/31/2020 3:45:00 AM -100000 -179968 -100000 -100000 -100000 -100000
10/31/2020 4:00:00 AM 6.96 44.528 0.053 6.12 2.11 11.71
10/31/2020 4:15:00 AM 6.94 44.492 0.053 6.14 2.07 11.72
10/31/2020 4:30:00 AM 6.92 44.456 0.053 6.15 2.08 11.74
10/31/2020 4:45:00 AM 6.89 44.402 0.053 6.15 2.04 11.74
10/31/2020 5:00:00 AM 6.87 44.366 0.053 6.16 2.04 11.77
10/31/2020 5:15:00 AM 6.86 44.348 0.053 6.15 1.99 11.75
10/31/2020 5:30:00 AM 6.84 44.312 0.053 6.15 2.01 11.75
10/31/2020 5:45:00 AM 6.82 44.276 0.053 6.16 2.09 11.76
10/31/2020 6:00:00 AM -100000 -179968 -100000 -100000 -100000 -100000
10/31/2020 6:15:00 AM 6.78 44.204 0.054 6.15 2.06 11.77
10/31/2020 6:30:00 AM 6.77 44.186 0.054 6.16 1.95 11.77
10/31/2020 6:45:00 AM 6.76 44.168 0.054 6.15 1.99 11.77
10/31/2020 7:00:00 AM 6.75 44.15 0.054 6.18 2.1 11.75
10/31/2020 7:15:00 AM 6.72 44.096 0.054 6.16 2 11.78
10/31/2020 7:30:00 AM 6.7 44.06 0.054 6.17 2.04 11.77
10/31/2020 7:45:00 AM 6.7 44.06 0.055 6.18 2.09 11.76
10/31/2020 8:00:00 AM 6.66 43.988 0.054 6.19 2.19 11.76
10/31/2020 8:15:00 AM 6.61 43.898 0.054 6.16 2 11.81
10/31/2020 8:30:00 AM 6.57 43.826 0.054 6.15 2.01 11.85
10/31/2020 8:45:00 AM 6.54 43.772 0.054 6.16 2.1 11.86
10/31/2020 9:00:00 AM 6.52 43.736 0.055 6.17 1.94 11.86
10/31/2020 9:15:00 AM 6.5 43.7 0.055 6.16 1.87 11.86
10/31/2020 9:30:00 AM -100000 -179968 -100000 -100000 -100000 -100000
10/31/2020 9:45:00 AM 6.5 43.7 0.055 6.19 1.93 11.88
10/31/2020 10:00:00 AM 6.52 43.736 0.056 6.22 1.89 11.86
10/31/2020 10:15:00 AM 6.55 43.79 0.056 6.2 2.09 11.85
10/31/2020 10:30:00 AM 6.58 43.844 0.056 6.23 1.93 11.87
10/31/2020 10:45:00 AM 6.62 43.916 0.056 6.23 5.52 11.87
10/31/2020 11:00:00 AM -100000 -179968 -100000 -100000 -100000 -100000
10/31/2020 11:15:00 AM 6.66 43.988 0.056 6.25 2.16 11.92
10/31/2020 11:30:00 AM 6.68 44.024 0.056 6.26 1.96 11.9
10/31/2020 11:45:00 AM 6.71 44.078 0.056 6.26 3.13 11.87
10/31/2020 12:00:00 PM 6.76 44.168 0.056 6.26 1.93 11.86
10/31/2020 12:15:00 PM 6.8 44.24 0.056 6.27 1.99 11.88
10/31/2020 12:30:00 PM -100000 -179968 -100000 -100000 -100000 -100000
10/31/2020 12:45:00 PM 6.85 44.33 0.056 6.26 1.99 11.87
10/31/2020 1:00:00 PM 6.87 44.366 0.056 6.28 1.91 11.84
10/31/2020 1:15:00 PM 6.9 44.42 0.056 6.28 1.89 11.84
10/31/2020 1:30:00 PM 6.94 44.492 0.056 6.27 3.83 11.81
10/31/2020 1:45:00 PM -100000 -179968 -100000 -100000 -100000 -100000
10/31/2020 2:00:00 PM 7.01 44.618 0.056 6.27 2.56 11.81
10/31/2020 2:15:00 PM 7.05 44.69 0.056 6.25 15.39 11.73
10/31/2020 2:30:00 PM 7.1 44.78 0.056 6.28 2.16 11.76
10/31/2020 2:45:00 PM 7.15 44.87 0.056 6.25 1.98 11.76
10/31/2020 3:00:00 PM 7.19 44.942 0.056 6.29 1.95 11.72
10/31/2020 3:15:00 PM 7.22 44.996 0.056 6.29 1.9 11.7
10/31/2020 3:30:00 PM 7.25 45.05 0.056 6.28 2.23 11.67
10/31/2020 3:45:00 PM 7.26 45.068 0.056 6.26 2.52 11.65
10/31/2020 4:00:00 PM 7.28 45.104 0.056 6.27 1.85 11.64
10/31/2020 4:15:00 PM 7.3 45.14 0.056 6.28 1.85 11.63
10/31/2020 4:30:00 PM 7.31 45.158 0.056 6.27 1.81 11.6
10/31/2020 4:45:00 PM 7.32 45.176 0.056 6.26 1.9 11.58
10/31/2020 5:00:00 PM 7.33 45.194 0.057 6.29 1.85 11.54
10/31/2020 5:15:00 PM -100000 -179968 -100000 -100000 -100000 -100000
10/31/2020 5:30:00 PM 7.32 45.176 0.057 6.28 1.84 11.52
10/31/2020 5:45:00 PM 7.32 45.176 0.057 6.26 1.83 11.52
10/31/2020 6:00:00 PM 7.32 45.176 0.057 6.28 1.79 11.51
10/31/2020 6:15:00 PM 7.31 45.158 0.057 6.26 1.83 11.5
10/31/2020 6:30:00 PM 7.31 45.158 0.057 6.28 1.86 11.49
10/31/2020 6:45:00 PM 7.31 45.158 0.057 6.27 1.9 11.45
10/31/2020 7:00:00 PM 7.29 45.122 0.057 6.27 1.82 11.46
10/31/2020 7:15:00 PM 7.28 45.104 0.057 6.28 1.83 11.45
10/31/2020 7:30:00 PM 7.23 45.014 0.057 6.26 2 11.47
10/31/2020 7:45:00 PM 7.2 44.96 0.057 6.26 1.84 11.5
10/31/2020 8:00:00 PM -100000 -179968 -100000 -100000 -100000 -100000
10/31/2020 8:15:00 PM 7.11 44.798 0.057 6.25 1.79 11.52
10/31/2020 8:30:00 PM 7.06 44.708 0.057 6.25 1.88 11.54
10/31/2020 8:45:00 PM 7.01 44.618 0.057 6.24 1.86 11.56
10/31/2020 9:00:00 PM 6.97 44.546 0.057 6.26 1.92 11.54
10/31/2020 9:15:00 PM 6.87 44.366 0.057 6.25 1.83 11.62
10/31/2020 9:30:00 PM 6.83 44.294 0.057 6.25 1.83 11.62
10/31/2020 9:45:00 PM 6.79 44.222 0.057 6.25 1.79 11.63
10/31/2020 10:00:00 PM 6.72 44.096 0.057 6.25 1.99 11.65
10/31/2020 10:15:00 PM 6.66 43.988 0.057 6.24 1.8 11.67
10/31/2020 10:30:00 PM 6.59 43.862 0.057 6.24 1.83 11.71
10/31/2020 10:45:00 PM 6.53 43.754 0.057 6.25 1.85 11.73
10/31/2020 11:00:00 PM 6.46 43.628 0.057 6.25 1.84 11.73
10/31/2020 11:15:00 PM 6.38 43.484 0.057 6.24 1.77 11.78
10/31/2020 11:30:00 PM 6.32 43.376 0.057 6.23 1.8 11.8
10/31/2020 11:45:00 PM 6.25 43.25 0.058 6.24 1.77 11.81
11/1/2020 12:00:00 AM -100000 -179968 -100000 -100000 -100000 -100000
11/1/2020 12:15:00 AM 6.11 42.998 0.058 6.24 1.8 11.86
11/1/2020 12:30:00 AM 6.07 42.926 0.058 6.26 1.87 11.86
11/1/2020 12:45:00 AM 5.97 42.746 0.058 6.24 1.82 11.89
11/1/2020 1:00:00 AM 5.91 42.638 0.058 6.24 1.8 11.94
11/1/2020 1:15:00 AM 5.82 42.476 0.058 6.24 1.76 11.94
11/1/2020 1:30:00 AM 5.78 42.404 0.058 6.25 1.76 11.97
11/1/2020 1:45:00 AM 5.7 42.26 0.058 6.24 1.74 11.99
11/1/2020 2:00:00 AM 5.65 42.17 0.058 6.26 1.76 12.02
11/1/2020 2:15:00 AM 5.6 42.08 0.058 6.24 1.79 12.02
11/1/2020 2:30:00 AM -100000 -179968 -100000 -100000 -100000 -100000
11/1/2020 2:45:00 AM -100000 -179968 -100000 -100000 -100000 -100000
11/1/2020 3:00:00 AM 5.43 41.774 0.059 6.26 1.77 12.07
11/1/2020 3:15:00 AM 5.35 41.63 0.059 6.25 1.74 12.09
11/1/2020 3:30:00 AM 5.28 41.504 0.059 6.26 1.76 12.13
11/1/2020 3:45:00 AM 5.27 41.486 0.059 6.26 1.76 12.1
11/1/2020 4:00:00 AM 5.19 41.342 0.059 6.26 1.76 12.14
11/1/2020 4:15:00 AM 4.94 40.892 0.059 6.27 1.8 12.22
11/1/2020 4:30:00 AM 4.9 40.82 0.059 6.28 1.73 12.23
11/1/2020 4:45:00 AM 4.86 40.748 0.059 6.26 1.76 12.21
11/1/2020 5:00:00 AM -100000 -179968 -100000 -100000 -100000 -100000
11/1/2020 5:15:00 AM 4.82 40.676 0.06 6.28 1.75 12.2
11/1/2020 5:30:00 AM 4.76 40.568 0.06 6.29 1.73 12.23
11/1/2020 5:45:00 AM 4.68 40.424 0.059 6.26 1.77 12.28
11/1/2020 6:00:00 AM 4.63 40.334 0.06 6.27 1.85 12.3
11/1/2020 6:15:00 AM 4.61 40.298 0.06 6.26 1.73 12.29
11/1/2020 6:30:00 AM 4.57 40.226 0.06 6.28 1.7 12.3
11/1/2020 6:45:00 AM 4.57 40.226 0.06 6.28 1.74 12.28
11/1/2020 7:00:00 AM -100000 -179968 -100000 -100000 -100000 -100000
11/1/2020 7:15:00 AM 4.51 40.118 0.06 6.29 1.77 12.29
11/1/2020 7:30:00 AM 4.51 40.118 0.06 6.29 1.72 12.28
11/1/2020 7:45:00 AM 4.48 40.064 0.06 6.28 1.73 12.29
11/1/2020 8:00:00 AM 4.44 39.992 0.06 6.28 1.72 12.36
11/1/2020 8:15:00 AM 4.45 40.01 0.06 6.29 1.72 12.33
11/1/2020 8:30:00 AM 4.45 40.01 0.06 6.29 2.01 12.33
11/1/2020 8:45:00 AM 4.43 39.974 0.06 6.28 1.75 12.36
11/1/2020 9:00:00 AM 4.44 39.992 0.06 6.29 1.7 12.35
11/1/2020 9:15:00 AM 4.46 40.028 0.06 6.29 1.69 12.38
11/1/2020 9:30:00 AM 4.46 40.028 0.06 6.28 1.71 12.36
11/1/2020 9:45:00 AM 4.47 40.046 0.06 6.29 1.71 12.36
11/1/2020 10:00:00 AM 4.49 40.082 0.06 6.3 1.7 12.35
11/1/2020 10:15:00 AM 4.5 40.1 0.06 6.29 1.68 12.35
11/1/2020 10:30:00 AM 4.53 40.154 0.06 6.29 1.72 12.35
11/1/2020 10:45:00 AM -100000 -179968 -100000 -100000 -100000 -100000
11/1/2020 11:00:00 AM 4.58 40.244 0.06 6.3 1.73 12.34
11/1/2020 11:15:00 AM 4.61 40.298 0.06 6.27 1.7 12.35
11/1/2020 11:30:00 AM 4.65 40.37 0.06 6.29 1.69 12.35
11/1/2020 11:45:00 AM 4.68 40.424 0.06 6.3 1.7 12.3
11/1/2020 12:00:00 PM 4.71 40.478 0.06 6.31 1.69 12.3
11/1/2020 12:15:00 PM 4.74 40.532 0.06 6.3 1.74 12.31
11/1/2020 12:30:00 PM 4.77 40.586 0.06 6.32 3.03 12.29
11/1/2020 12:45:00 PM 4.8 40.64 0.06 6.34 1.91 12.25
11/1/2020 1:00:00 PM 4.85 40.73 0.06 6.36 4.77 12.21
11/1/2020 1:15:00 PM 4.91 40.838 0.06 6.36 1.8 12.18
11/1/2020 1:30:00 PM 4.96 40.928 0.06 6.37 1.69 12.18
11/1/2020 1:45:00 PM 5.02 41.036 0.06 6.37 1.72 12.17
11/1/2020 2:00:00 PM 5.09 41.162 0.06 6.36 1.6 12.15
11/1/2020 2:15:00 PM 5.17 41.306 0.06 6.34 2.25 12.14
11/1/2020 2:30:00 PM 5.24 41.432 0.059 6.33 2.71 12.14
11/1/2020 2:45:00 PM -100000 -179968 -100000 -100000 -100000 -100000
11/1/2020 3:00:00 PM 5.31 41.558 0.06 6.36 1.58 12.1
11/1/2020 3:15:00 PM 5.36 41.648 0.06 6.34 1.69 12.09
11/1/2020 3:30:00 PM -100000 -179968 -100000 -100000 -100000 -100000
11/1/2020 3:45:00 PM 5.46 41.828 0.06 6.35 1.59 12.04
11/1/2020 4:00:00 PM 5.49 41.882 0.061 6.34 1.65 12.01
11/1/2020 4:15:00 PM 5.52 41.936 0.061 6.36 1.59 11.99
11/1/2020 4:30:00 PM 5.53 41.954 0.061 6.35 1.53 11.98
11/1/2020 4:45:00 PM 5.55 41.99 0.062 6.35 1.59 11.95
11/1/2020 5:00:00 PM 5.56 42.008 0.062 6.36 1.57 11.92
11/1/2020 5:15:00 PM 5.57 42.026 0.062 6.35 1.52 11.91
11/1/2020 5:30:00 PM 5.57 42.026 0.063 6.36 1.55 11.9
11/1/2020 5:45:00 PM 5.55 41.99 0.064 6.34 1.55 11.91
11/1/2020 6:00:00 PM 5.55 41.99 0.064 6.34 1.54 11.91
11/1/2020 6:15:00 PM 5.54 41.972 0.065 6.36 1.58 11.85
11/1/2020 6:30:00 PM 5.5 41.9 0.065 6.35 1.54 11.84
11/1/2020 6:45:00 PM 5.46 41.828 0.066 6.36 1.54 11.83
11/1/2020 7:00:00 PM 5.39 41.702 0.066 6.36 2.04 11.85
11/1/2020 7:15:00 PM 5.36 41.648 0.066 6.36 1.55 11.88
11/1/2020 7:30:00 PM 5.34 41.612 0.067 6.36 1.5 11.87
11/1/2020 7:45:00 PM 5.32 41.576 0.067 6.35 1.59 11.9
11/1/2020 8:00:00 PM 5.28 41.504 0.067 6.37 1.53 11.89
11/1/2020 8:15:00 PM 5.23 41.414 0.067 6.35 1.54 11.91
11/1/2020 8:30:00 PM 5.21 41.378 0.068 6.36 1.53 11.93
11/1/2020 8:45:00 PM 5.18 41.324 0.068 6.36 1.58 11.95
11/1/2020 9:00:00 PM 5.16 41.288 0.068 6.37 1.58 11.96
11/1/2020 9:15:00 PM 5.11 41.198 0.068 6.38 1.52 11.94
11/1/2020 9:30:00 PM 5.07 41.126 0.068 6.36 1.49 11.99
11/1/2020 9:45:00 PM 5.04 41.072 0.068 6.36 1.51 11.99
11/1/2020 10:00:00 PM 4.98 40.964 0.068 6.35 1.53 12.03
11/1/2020 10:15:00 PM 4.98 40.964 0.068 6.36 1.51 12.01
11/1/2020 10:30:00 PM 4.93 40.874 0.068 6.36 1.53 12.02
11/1/2020 10:45:00 PM 4.9 40.82 0.068 6.34 1.57 12.04
11/1/2020 11:00:00 PM 4.86 40.748 0.068 6.35 1.51 12.07
11/1/2020 11:15:00 PM 4.84 40.712 0.068 6.36 1.58 12.08
11/1/2020 11:30:00 PM 4.81 40.658 0.068 6.35 1.51 12.07
11/1/2020 11:45:00 PM 4.77 40.586 0.068 6.35 1.55 12.11
11/2/2020 12:00:00 AM 4.69 40.442 0.067 6.35 1.52 12.14
11/2/2020 12:15:00 AM 4.65 40.37 0.068 6.37 1.56 12.15
11/2/2020 12:30:00 AM 4.58 40.244 0.067 6.35 1.49 12.2
11/2/2020 12:45:00 AM 4.55 40.19 0.068 6.35 1.53 12.22
11/2/2020 1:00:00 AM 4.51 40.118 0.067 6.34 1.52 12.24
11/2/2020 1:15:00 AM 4.49 40.082 0.067 6.35 1.67 12.24
11/2/2020 1:30:00 AM 4.43 39.974 0.067 6.34 1.56 12.28
11/2/2020 1:45:00 AM 4.42 39.956 0.067 6.34 1.57 12.28
11/2/2020 2:00:00 AM 4.38 39.884 0.067 6.33 1.51 12.29
11/2/2020 2:15:00 AM 4.32 39.776 0.067 6.35 1.49 12.32
11/2/2020 2:30:00 AM 4.29 39.722 0.067 6.35 1.5 12.32
11/2/2020 2:45:00 AM 4.27 39.686 0.067 6.35 1.63 12.32
11/2/2020 3:00:00 AM 4.23 39.614 0.067 6.34 1.53 12.35
11/2/2020 3:15:00 AM 4.22 39.596 0.067 6.34 1.55 12.36
11/2/2020 3:30:00 AM 4.19 39.542 0.067 6.34 1.63 12.35
11/2/2020 3:45:00 AM 4.18 39.524 0.067 6.35 1.49 12.36
11/2/2020 4:00:00 AM 4.16 39.488 0.067 6.34 1.51 12.36
11/2/2020 4:15:00 AM 4.13 39.434 0.067 6.34 1.53 12.39
11/2/2020 4:30:00 AM 4.1 39.38 0.067 6.33 1.5 12.41
11/2/2020 4:45:00 AM 4.06 39.308 0.066 6.33 1.52 12.43
11/2/2020 5:00:00 AM 4.03 39.254 0.066 6.33 1.53 12.45
11/2/2020 5:15:00 AM 3.99 39.182 0.066 6.33 1.53 12.46
11/2/2020 5:30:00 AM 3.96 39.128 0.066 6.33 1.52 12.48
11/2/2020 5:45:00 AM 3.91 39.038 0.065 6.33 1.52 12.5
11/2/2020 6:00:00 AM 3.9 39.02 0.065 6.33 2.05 12.5
11/2/2020 6:15:00 AM 3.86 38.948 0.065 6.33 1.68 12.51
11/2/2020 6:30:00 AM 3.82 38.876 0.065 6.31 1.83 12.54
11/2/2020 6:45:00 AM 3.78 38.804 0.065 6.32 1.53 12.56
11/2/2020 7:00:00 AM 3.73 38.714 0.064 6.29 1.51 12.59
11/2/2020 7:15:00 AM 3.71 38.678 0.064 6.3 1.52 12.59
11/2/2020 7:30:00 AM 3.67 38.606 0.064 6.29 1.5 12.62
11/2/2020 7:45:00 AM -100000 -179968 -100000 -100000 -100000 -100000
11/2/2020 8:00:00 AM -100000 -179968 -100000 -100000 -100000 -100000
11/2/2020 8:15:00 AM 3.61 38.498 0.064 6.28 1.63 12.66
11/2/2020 8:30:00 AM 3.6 38.48 0.064 6.26 1.52 12.67
11/2/2020 8:45:00 AM 3.59 38.462 0.064 6.28 1.57 12.67
11/2/2020 9:00:00 AM 3.58 38.444 0.063 6.28 1.54 12.73
11/2/2020 9:15:00 AM 3.58 38.444 0.063 6.27 1.52 12.73
11/2/2020 9:30:00 AM 3.59 38.462 0.063 6.29 1.54 12.76
11/2/2020 9:45:00 AM 3.61 38.498 0.063 6.31 1.6 12.76
11/2/2020 10:00:00 AM 3.62 38.516 0.062 6.31 1.5 12.75
11/2/2020 10:15:00 AM 3.61 38.498 0.062 6.32 1.56 12.76
11/2/2020 10:30:00 AM 3.61 38.498 0.062 6.33 1.51 12.77
11/2/2020 10:45:00 AM 3.61 38.498 0.062 6.32 1.53 12.78
11/2/2020 11:00:00 AM 3.62 38.516 0.061 6.32 1.5 12.81
11/2/2020 11:15:00 AM 3.65 38.57 0.061 6.33 1.56 12.8
11/2/2020 11:30:00 AM 3.66 38.588 0.061 6.34 1.52 12.8
11/2/2020 11:45:00 AM 3.68 38.624 0.061 6.35 1.53 12.8
11/2/2020 12:00:00 PM 3.72 38.696 0.061 6.35 1.53 12.76
11/2/2020 12:15:00 PM 3.71 38.678 0.061 6.34 1.53 12.77
11/2/2020 12:30:00 PM 3.74 38.732 0.061 6.35 1.47 12.77
11/2/2020 12:45:00 PM 3.78 38.804 0.061 6.36 1.5 12.76
11/2/2020 1:00:00 PM 3.81 38.858 0.061 6.35 1.49 12.75
11/2/2020 1:15:00 PM 3.84 38.912 0.061 6.34 2.46 12.67
11/2/2020 1:30:00 PM 3.88 38.984 0.06 6.33 2.88 12.74
11/2/2020 1:45:00 PM 3.9 39.02 0.06 6.35 1.54 12.72
11/2/2020 2:00:00 PM 3.94 39.092 0.061 6.34 2.01 12.73
11/2/2020 2:15:00 PM 3.98 39.164 0.061 6.35 1.55 12.69
11/2/2020 2:30:00 PM 4.01 39.218 0.061 6.35 1.52 12.65
11/2/2020 2:45:00 PM -100000 -179968 -100000 -100000 -100000 -100000
11/2/2020 3:00:00 PM 4.11 39.398 0.061 6.35 1.52 12.64
11/2/2020 3:15:00 PM 4.14 39.452 0.061 6.36 1.55 12.62
11/2/2020 3:30:00 PM 4.17 39.506 0.061 6.33 1.52 12.64
11/2/2020 3:45:00 PM 4.19 39.542 0.061 6.36 1.51 12.6
11/2/2020 4:00:00 PM 4.19 39.542 0.061 6.34 1.52 12.6
11/2/2020 4:15:00 PM 4.21 39.578 0.061 6.35 1.53 12.59
11/2/2020 4:30:00 PM 4.21 39.578 0.061 6.35 1.61 12.57
11/2/2020 4:45:00 PM 4.21 39.578 0.061 6.34 1.61 12.55
11/2/2020 5:00:00 PM 4.22 39.596 0.061 6.34 1.52 12.53
11/2/2020 5:15:00 PM 4.2 39.56 0.061 6.34 1.51 12.52
11/2/2020 5:30:00 PM 4.2 39.56 0.061 6.33 1.58 12.51
11/2/2020 5:45:00 PM 4.2 39.56 0.062 6.34 1.59 12.47
11/2/2020 6:00:00 PM 4.2 39.56 0.062 6.33 1.54 12.47
11/2/2020 6:15:00 PM 4.19 39.542 0.061 6.32 1.53 12.47
11/2/2020 6:30:00 PM 4.2 39.56 0.062 6.32 1.55 12.46
11/2/2020 6:45:00 PM 4.19 39.542 0.061 6.31 1.54 12.46
11/2/2020 7:00:00 PM 4.18 39.524 0.062 6.32 1.53 12.47
11/2/2020 7:15:00 PM 4.2 39.56 0.062 6.32 1.61 12.44
11/2/2020 7:30:00 PM 4.2 39.56 0.062 6.32 1.51 12.45
11/2/2020 7:45:00 PM 4.19 39.542 0.062 6.32 1.62 12.43
11/2/2020 8:00:00 PM 4.2 39.56 0.062 6.32 1.54 12.41
11/2/2020 8:15:00 PM 4.21 39.578 0.062 6.31 1.52 12.42
11/2/2020 8:30:00 PM 4.2 39.56 0.062 6.32 1.53 12.43
11/2/2020 8:45:00 PM 4.2 39.56 0.062 6.32 1.52 12.42
11/2/2020 9:00:00 PM 4.2 39.56 0.063 6.31 1.49 12.4
11/2/2020 9:15:00 PM 4.19 39.542 0.063 6.32 1.55 12.4
11/2/2020 9:30:00 PM 4.15 39.47 0.062 6.32 1.52 12.42
11/2/2020 9:45:00 PM 4.14 39.452 0.063 6.32 1.72 12.43
11/2/2020 10:00:00 PM 4.11 39.398 0.063 6.32 1.55 12.44
11/2/2020 10:15:00 PM 4.09 39.362 0.063 6.33 1.52 12.43
11/2/2020 10:30:00 PM 4.06 39.308 0.063 6.31 1.5 12.43
11/2/2020 10:45:00 PM 4.03 39.254 0.062 6.32 1.48 12.45
11/2/2020 11:00:00 PM 4.02 39.236 0.063 6.32 1.51 12.46
11/2/2020 11:15:00 PM 4 39.2 0.063 6.32 1.5 12.47
11/2/2020 11:30:00 PM 3.98 39.164 0.063 6.31 1.5 12.48
11/2/2020 11:45:00 PM 3.97 39.146 0.063 6.32 1.5 12.49
11/3/2020 12:00:00 AM 3.95 39.11 0.063 6.3 1.51 12.48
11/3/2020 12:15:00 AM 3.92 39.056 0.063 6.32 1.52 12.52
11/3/2020 12:30:00 AM 3.9 39.02 0.063 6.32 1.52 12.52
11/3/2020 12:45:00 AM 3.88 38.984 0.064 6.31 1.56 12.53
11/3/2020 1:00:00 AM 3.85 38.93 0.064 6.31 1.51 12.53
11/3/2020 1:15:00 AM 3.84 38.912 0.064 6.33 1.53 12.55
11/3/2020 1:30:00 AM 3.82 38.876 0.064 6.31 1.51 12.55
11/3/2020 1:45:00 AM 3.8 38.84 0.064 6.32 1.57 12.57
11/3/2020 2:00:00 AM -100000 -179968 -100000 -100000 -100000 -100000
11/3/2020 2:15:00 AM 3.75 38.75 0.064 6.32 1.52 12.59
11/3/2020 2:30:00 AM 3.7 38.66 0.064 6.31 1.53 12.61
11/3/2020 2:45:00 AM 3.66 38.588 0.064 6.3 1.51 12.65
11/3/2020 3:00:00 AM 3.65 38.57 0.065 6.32 1.51 12.64
11/3/2020 3:15:00 AM 3.62 38.516 0.065 6.31 1.52 12.6
11/3/2020 3:30:00 AM 3.59 38.462 0.065 6.32 1.53 12.62
11/3/2020 3:45:00 AM 3.54 38.372 0.065 6.31 1.54 12.65
11/3/2020 4:00:00 AM 3.49 38.282 0.065 6.3 1.51 12.7
11/3/2020 4:15:00 AM 3.48 38.264 0.065 6.3 1.52 12.7
11/3/2020 4:30:00 AM 3.44 38.192 0.065 6.3 1.53 12.7
11/3/2020 4:45:00 AM 3.42 38.156 0.065 6.31 1.48 12.73
11/3/2020 5:00:00 AM 3.39 38.102 0.065 6.31 1.5 12.75
11/3/2020 5:15:00 AM 3.38 38.084 0.065 6.32 1.49 12.72
11/3/2020 5:30:00 AM 3.35 38.03 0.065 6.3 1.49 12.74
11/3/2020 5:45:00 AM 3.28 37.904 0.065 6.31 1.52 12.77
11/3/2020 6:00:00 AM 3.25 37.85 0.066 6.3 1.5 12.79
11/3/2020 6:15:00 AM 3.21 37.778 0.066 6.3 1.48 12.8
11/3/2020 6:30:00 AM 3.19 37.742 0.066 6.3 1.5 12.83
11/3/2020 6:45:00 AM 3.16 37.688 0.066 6.29 2.65 12.83
11/3/2020 7:00:00 AM 3.14 37.652 0.066 6.28 1.5 12.83
11/3/2020 7:15:00 AM 3.11 37.598 0.066 6.3 1.51 12.85
11/3/2020 7:30:00 AM 3.07 37.526 0.066 6.29 1.53 12.92
11/3/2020 7:45:00 AM 3.05 37.49 0.066 6.27 1.51 12.93
11/3/2020 8:00:00 AM -100000 -179968 -100000 -100000 -100000 -100000
11/3/2020 8:15:00 AM 3.05 37.49 0.067 6.28 1.51 12.94
11/3/2020 8:30:00 AM 3.06 37.508 0.067 6.29 1.48 12.94
11/3/2020 8:45:00 AM 3.08 37.544 0.067 6.27 1.51 12.96
11/3/2020 9:00:00 AM 3.11 37.598 0.067 6.28 1.48 12.96
11/3/2020 9:15:00 AM 3.15 37.67 0.067 6.29 1.49 12.98
11/3/2020 9:30:00 AM 3.19 37.742 0.067 6.3 1.49 12.97
11/3/2020 9:45:00 AM 3.24 37.832 0.067 6.31 1.46 12.98
11/3/2020 10:00:00 AM 3.3 37.94 0.067 6.31 1.51 12.97
11/3/2020 10:15:00 AM 3.36 38.048 0.067 6.31 1.62 12.97
11/3/2020 10:30:00 AM 3.42 38.156 0.067 6.32 1.54 12.96
11/3/2020 10:45:00 AM 3.48 38.264 0.067 6.31 1.48 12.94
11/3/2020 11:00:00 AM 3.56 38.408 0.067 6.31 1.46 12.94
11/3/2020 11:15:00 AM 3.63 38.534 0.067 6.32 1.49 12.94
11/3/2020 11:30:00 AM 3.68 38.624 0.067 6.31 1.49 12.91
11/3/2020 11:45:00 AM 3.74 38.732 0.067 6.32 1.49 12.89
11/3/2020 12:00:00 PM 3.82 38.876 0.067 6.3 1.51 12.85
11/3/2020 12:15:00 PM 3.91 39.038 0.067 6.32 1.48 12.82
11/3/2020 12:30:00 PM 3.99 39.182 0.067 6.33 1.49 12.8
11/3/2020 12:45:00 PM 4.13 39.434 0.067 6.32 1.47 12.77
11/3/2020 1:00:00 PM 4.26 39.668 0.067 6.31 1.51 12.75
11/3/2020 1:15:00 PM 4.42 39.956 0.066 6.32 1.47 12.68
11/3/2020 1:30:00 PM 4.59 40.262 0.066 6.31 1.5 12.64
11/3/2020 1:45:00 PM 4.68 40.424 0.066 6.31 1.46 12.59
11/3/2020 2:00:00 PM 4.82 40.676 0.066 6.31 1.47 12.54
11/3/2020 2:15:00 PM 4.89 40.802 0.067 6.33 1.48 12.5
11/3/2020 2:30:00 PM 5.06 41.108 0.066 6.32 1.49 12.46
11/3/2020 2:45:00 PM 5.15 41.27 0.066 6.32 1.55 12.42
11/3/2020 3:00:00 PM 5.19 41.342 0.066 6.31 1.49 12.39
11/3/2020 3:15:00 PM 5.24 41.432 0.066 6.31 1.52 12.37
11/3/2020 3:30:00 PM 5.29 41.522 0.066 6.3 1.46 12.35
11/3/2020 3:45:00 PM 5.36 41.648 0.066 6.31 1.49 12.33
11/3/2020 4:00:00 PM 5.41 41.738 0.066 6.31 1.48 12.31
11/3/2020 4:15:00 PM 5.44 41.792 0.066 6.31 1.46 12.28
11/3/2020 4:30:00 PM 5.46 41.828 0.066 6.29 1.5 12.26
11/3/2020 4:45:00 PM 5.48 41.864 0.066 6.29 1.47 12.23
11/3/2020 5:00:00 PM 5.51 41.918 0.067 6.29 1.5 12.21
11/3/2020 5:15:00 PM 5.52 41.936 0.067 6.3 1.47 12.18
11/3/2020 5:30:00 PM 5.55 41.99 0.067 6.29 1.5 12.16
11/3/2020 5:45:00 PM 5.57 42.026 0.067 6.29 1.49 12.14
11/3/2020 6:00:00 PM 5.58 42.044 0.067 6.27 1.47 12.14
11/3/2020 6:15:00 PM 5.58 42.044 0.067 6.28 1.49 12.13
11/3/2020 6:30:00 PM 5.57 42.026 0.067 6.29 1.5 12.09
11/3/2020 6:45:00 PM 5.55 41.99 0.067 6.29 1.47 12.12
11/3/2020 7:00:00 PM 5.53 41.954 0.067 6.28 1.5 12.11
11/3/2020 7:15:00 PM 5.5 41.9 0.067 6.29 1.52 12.14
11/3/2020 7:30:00 PM 5.47 41.846 0.067 6.28 1.54 12.14
11/3/2020 7:45:00 PM 5.43 41.774 0.067 6.28 1.49 12.13
11/3/2020 8:00:00 PM 5.39 41.702 0.067 6.28 1.55 12.17
11/3/2020 8:15:00 PM 5.35 41.63 0.067 6.28 1.48 12.16
11/3/2020 8:30:00 PM 5.31 41.558 0.067 6.26 1.48 12.18
11/3/2020 8:45:00 PM 5.28 41.504 0.067 6.28 1.52 12.19
11/3/2020 9:00:00 PM 5.25 41.45 0.067 6.27 1.51 12.18
11/3/2020 9:15:00 PM 5.21 41.378 0.067 6.28 1.53 12.22
11/3/2020 9:30:00 PM 5.17 41.306 0.067 6.26 1.5 12.24
11/3/2020 9:45:00 PM 5.14 41.252 0.067 6.27 1.52 12.23
11/3/2020 10:00:00 PM 5.1 41.18 0.067 6.27 1.53 12.27
11/3/2020 10:15:00 PM 5.07 41.126 0.067 6.26 1.49 12.24
11/3/2020 10:30:00 PM 5.02 41.036 0.067 6.27 1.55 12.26
11/3/2020 10:45:00 PM 4.97 40.946 0.067 6.28 1.55 12.29
11/3/2020 11:00:00 PM 4.93 40.874 0.067 6.26 1.58 12.32
11/3/2020 11:15:00 PM 4.88 40.784 0.067 6.27 1.52 12.35
11/3/2020 11:30:00 PM 4.83 40.694 0.068 6.26 1.48 12.34
11/3/2020 11:45:00 PM 4.78 40.604 0.068 6.27 1.5 12.38
11/4/2020 12:00:00 AM 4.73 40.514 0.068 6.27 1.49 12.38
11/4/2020 12:15:00 AM 4.68 40.424 0.068 6.27 1.5 12.42
11/4/2020 12:30:00 AM 4.64 40.352 0.068 6.27 1.48 12.43
11/4/2020 12:45:00 AM 4.58 40.244 0.068 6.26 1.54 12.42
11/4/2020 1:00:00 AM 4.54 40.172 0.068 6.27 1.5 12.43
11/4/2020 1:15:00 AM 4.47 40.046 0.068 6.27 1.5 12.5
11/4/2020 1:30:00 AM 4.42 39.956 0.068 6.27 1.49 12.53
11/4/2020 1:45:00 AM 4.38 39.884 0.068 6.27 1.5 12.52
11/4/2020 2:00:00 AM 4.32 39.776 0.068 6.27 1.51 12.56
11/4/2020 2:15:00 AM 4.27 39.686 0.068 6.28 1.52 12.55
11/4/2020 2:30:00 AM 4.22 39.596 0.068 6.27 1.5 12.57
11/4/2020 2:45:00 AM 4.16 39.488 0.068 6.28 1.65 12.63
11/4/2020 3:00:00 AM -100000 -179968 -100000 -100000 -100000 -100000
11/4/2020 3:15:00 AM 4.06 39.308 0.068 6.26 1.5 12.65
11/4/2020 3:30:00 AM 4.03 39.254 0.068 6.27 1.6 12.63
11/4/2020 3:45:00 AM 3.97 39.146 0.068 6.27 1.51 12.68
11/4/2020 4:00:00 AM 3.91 39.038 0.068 6.28 1.49 12.71
11/4/2020 4:15:00 AM 3.87 38.966 0.068 6.26 1.54 12.72
11/4/2020 4:30:00 AM 3.81 38.858 0.068 6.28 1.51 12.76
11/4/2020 4:45:00 AM 3.77 38.786 0.068 6.27 1.5 12.77
11/4/2020 5:00:00 AM 3.72 38.696 0.068 6.26 1.49 12.77
11/4/2020 5:15:00 AM 3.66 38.588 0.068 6.27 1.51 12.82
11/4/2020 5:30:00 AM 3.62 38.516 0.068 6.26 1.5 12.84
11/4/2020 5:45:00 AM 3.58 38.444 0.069 6.24 1.6 12.84
11/4/2020 6:00:00 AM 3.52 38.336 0.069 6.25 1.49 12.89
11/4/2020 6:15:00 AM 3.48 38.264 0.069 6.24 2.39 12.88
11/4/2020 6:30:00 AM 3.43 38.174 0.069 6.24 1.51 12.89
11/4/2020 6:45:00 AM 3.41 38.138 0.069 6.23 1.54 12.9
11/4/2020 7:00:00 AM 3.35 38.03 0.069 6.23 1.48 12.96
11/4/2020 7:15:00 AM 3.31 37.958 0.069 6.21 1.45 12.97
11/4/2020 7:30:00 AM 3.27 37.886 0.069 6.22 1.51 13
11/4/2020 7:45:00 AM 3.23 37.814 0.069 6.23 1.5 13.03
11/4/2020 8:00:00 AM 3.2 37.76 0.069 6.21 1.52 13.05
11/4/2020 8:15:00 AM 3.19 37.742 0.069 6.23 1.48 13.08
11/4/2020 8:30:00 AM 3.18 37.724 0.069 6.23 1.49 13.11
11/4/2020 8:45:00 AM 3.2 37.76 0.069 6.24 1.46 13.13
11/4/2020 9:00:00 AM 3.23 37.814 0.069 6.25 1.57 13.14
11/4/2020 9:15:00 AM 3.27 37.886 0.069 6.25 1.46 13.16
11/4/2020 9:30:00 AM 3.3 37.94 0.069 6.27 1.48 13.16
11/4/2020 9:45:00 AM 3.36 38.048 0.069 6.28 1.48 13.17
11/4/2020 10:00:00 AM 3.42 38.156 0.069 6.28 1.49 13.15
11/4/2020 10:15:00 AM 3.47 38.246 0.069 6.29 1.54 13.14
11/4/2020 10:30:00 AM 3.53 38.354 0.069 6.28 1.45 13.12
11/4/2020 10:45:00 AM 3.61 38.498 0.068 6.3 1.49 13.11
11/4/2020 11:00:00 AM 3.69 38.642 0.069 6.29 1.46 13.09
11/4/2020 11:15:00 AM 3.75 38.75 0.069 6.3 1.45 13.06
11/4/2020 11:30:00 AM -100000 -179968 -100000 -100000 -100000 -100000
11/4/2020 11:45:00 AM 3.89 39.002 0.068 6.3 1.45 12.98
11/4/2020 12:00:00 PM 4.01 39.218 0.068 6.31 1.47 12.94
11/4/2020 12:15:00 PM -100000 -179968 -100000 -100000 -100000 -100000
11/4/2020 12:30:00 PM 4.25 39.65 0.068 6.32 1.46 12.86
11/4/2020 12:45:00 PM 4.4 39.92 0.068 6.31 1.52 12.81
11/4/2020 1:00:00 PM 4.51 40.118 0.068 6.32 1.46 12.77
11/4/2020 1:15:00 PM 4.71 40.478 0.067 6.33 1.45 12.7
11/4/2020 1:30:00 PM 4.82 40.676 0.067 6.33 1.47 12.64
11/4/2020 1:45:00 PM 4.96 40.928 0.067 6.31 1.48 12.58
11/4/2020 2:00:00 PM 5.1 41.18 0.067 6.33 1.45 12.51
11/4/2020 2:15:00 PM 5.31 41.558 0.067 6.33 1.47 12.46
11/4/2020 2:30:00 PM 5.43 41.774 0.066 6.33 1.45 12.4
11/4/2020 2:45:00 PM 5.57 42.026 0.066 6.34 1.46 12.34
11/4/2020 3:00:00 PM 5.7 42.26 0.067 6.33 1.47 12.28
11/4/2020 3:15:00 PM 5.77 42.386 0.066 6.33 1.53 12.25
11/4/2020 3:30:00 PM 5.85 42.53 0.067 6.34 1.53 12.22
11/4/2020 3:45:00 PM 5.9 42.62 0.067 6.32 1.48 12.2
11/4/2020 4:00:00 PM 5.93 42.674 0.067 6.33 1.49 12.18
11/4/2020 4:15:00 PM 5.94 42.692 0.066 6.33 1.41 12.17
11/4/2020 4:30:00 PM 5.95 42.71 0.066 6.32 1.49 12.15
11/4/2020 4:45:00 PM 5.96 42.728 0.066 6.32 1.47 12.13
11/4/2020 5:00:00 PM 5.98 42.764 0.066 6.31 1.51 12.12
11/4/2020 5:15:00 PM 6 42.8 0.066 6.32 1.45 12.1
11/4/2020 5:30:00 PM 6.02 42.836 0.066 6.31 1.49 12.07
11/4/2020 5:45:00 PM 6.05 42.89 0.066 6.3 1.48 12.05
11/4/2020 6:00:00 PM 6.08 42.944 0.066 6.3 1.48 12.04
11/4/2020 6:15:00 PM 6.1 42.98 0.066 6.3 1.48 12.02
11/4/2020 6:30:00 PM 6.13 43.034 0.066 6.3 1.47 12
11/4/2020 6:45:00 PM 6.14 43.052 0.066 6.31 1.51 11.99
11/4/2020 7:00:00 PM 6.15 43.07 0.066 6.29 1.5 11.99
11/4/2020 7:15:00 PM 6.14 43.052 0.066 6.3 1.52 11.99
11/4/2020 7:30:00 PM 6.13 43.034 0.066 6.3 1.48 12
11/4/2020 7:45:00 PM 6.1 42.98 0.066 6.29 1.5 12.01
11/4/2020 8:00:00 PM 6.06 42.908 0.066 6.3 1.5 12.03
11/4/2020 8:15:00 PM 6.03 42.854 0.066 6.3 1.56 12.02
11/4/2020 8:30:00 PM 5.99 42.782 0.066 6.29 1.47 12.04
11/4/2020 8:45:00 PM 5.95 42.71 0.066 6.29 1.53 12.06
11/4/2020 9:00:00 PM 5.9 42.62 0.066 6.29 1.49 12.08
11/4/2020 9:15:00 PM 5.86 42.548 0.066 6.3 1.51 12.11
11/4/2020 9:30:00 PM 5.82 42.476 0.066 6.29 1.46 12.1
11/4/2020 9:45:00 PM 5.78 42.404 0.066 6.3 1.51 12.13
11/4/2020 10:00:00 PM 5.74 42.332 0.066 6.28 1.49 12.14
11/4/2020 10:15:00 PM 5.7 42.26 0.066 6.29 1.48 12.14
11/4/2020 10:30:00 PM 5.66 42.188 0.066 6.29 1.48 12.16
11/4/2020 10:45:00 PM 5.63 42.134 0.066 6.29 1.48 12.16
11/4/2020 11:00:00 PM 5.59 42.062 0.066 6.28 1.49 12.18
11/4/2020 11:15:00 PM 5.55 41.99 0.066 6.29 1.48 12.19
11/4/2020 11:30:00 PM 5.51 41.918 0.066 6.29 1.47 12.21
11/4/2020 11:45:00 PM 5.48 41.864 0.066 6.28 1.5 12.2
11/5/2020 12:00:00 AM 5.43 41.774 0.066 6.28 1.47 12.22
11/5/2020 12:15:00 AM 5.39 41.702 0.066 6.29 1.5 12.24
11/5/2020 12:30:00 AM 5.34 41.612 0.066 6.29 1.52 12.25
11/5/2020 12:45:00 AM 5.3 41.54 0.066 6.29 1.5 12.27
11/5/2020 1:00:00 AM 5.25 41.45 0.067 6.29 1.5 12.28
11/5/2020 1:15:00 AM -100000 -179968 -100000 -100000 -100000 -100000
11/5/2020 1:30:00 AM 5.15 41.27 0.067 6.29 1.5 12.33
11/5/2020 1:45:00 AM 5.1 41.18 0.067 6.29 1.57 12.34
11/5/2020 2:00:00 AM 5.05 41.09 0.067 6.29 1.51 12.36
11/5/2020 2:15:00 AM 4.99 40.982 0.067 6.28 1.48 12.37
11/5/2020 2:30:00 AM 4.94 40.892 0.067 6.29 1.5 12.4
11/5/2020 2:45:00 AM 4.9 40.82 0.067 6.29 1.56 12.41
11/5/2020 3:00:00 AM 4.85 40.73 0.067 6.28 1.47 12.4
11/5/2020 3:15:00 AM 4.78 40.604 0.067 6.29 1.52 12.47
11/5/2020 3:30:00 AM -100000 -179968 -100000 -100000 -100000 -100000
11/5/2020 3:45:00 AM 4.68 40.424 0.067 6.29 1.5 12.48
11/5/2020 4:00:00 AM 4.64 40.352 0.067 6.29 1.53 12.49
11/5/2020 4:15:00 AM 4.59 40.262 0.067 6.29 1.47 12.5
11/5/2020 4:30:00 AM 4.53 40.154 0.067 6.29 1.49 12.55
11/5/2020 4:45:00 AM 4.48 40.064 0.067 6.29 1.56 12.57
11/5/2020 5:00:00 AM 4.43 39.974 0.067 6.3 1.5 12.58
11/5/2020 5:15:00 AM 4.39 39.902 0.067 6.28 1.51 12.6
11/5/2020 5:30:00 AM 4.33 39.794 0.067 6.3 1.5 12.62
11/5/2020 5:45:00 AM 4.28 39.704 0.067 6.29 1.5 12.64
11/5/2020 6:00:00 AM 4.25 39.65 0.067 6.3 1.48 12.64
11/5/2020 6:15:00 AM 4.2 39.56 0.067 6.3 1.52 12.67
11/5/2020 6:30:00 AM 4.15 39.47 0.067 6.3 3.22 12.69
11/5/2020 6:45:00 AM 4.11 39.398 0.067 6.29 1.49 12.72
11/5/2020 7:00:00 AM 4.07 39.326 0.067 6.3 1.47 12.72
11/5/2020 7:15:00 AM 4.04 39.272 0.067 6.3 1.5 12.75
11/5/2020 7:30:00 AM 4.01 39.218 0.067 6.3 1.46 12.78
11/5/2020 7:45:00 AM 3.99 39.182 0.067 6.31 1.5 12.82
11/5/2020 8:00:00 AM 3.98 39.164 0.067 6.3 1.52 12.85
11/5/2020 8:15:00 AM 3.99 39.182 0.067 6.31 1.49 12.88
11/5/2020 8:30:00 AM 4.02 39.236 0.067 6.32 1.48 12.89
11/5/2020 8:45:00 AM 4.06 39.308 0.067 6.32 1.51 12.9
11/5/2020 9:00:00 AM 4.11 39.398 0.067 6.32 1.49 12.91
11/5/2020 9:15:00 AM 4.17 39.506 0.067 6.33 1.47 12.9
11/5/2020 9:30:00 AM 4.23 39.614 0.067 6.33 1.59 12.87
11/5/2020 9:45:00 AM 4.32 39.776 0.067 6.33 1.55 12.86
11/5/2020 10:00:00 AM 4.42 39.956 0.067 6.33 1.51 12.84
11/5/2020 10:15:00 AM 4.48 40.064 0.066 6.33 1.49 12.83
11/5/2020 10:30:00 AM -100000 -179968 -100000 -100000 -100000 -100000
11/5/2020 10:45:00 AM 4.64 40.352 0.066 6.34 1.5 12.77
11/5/2020 11:00:00 AM -100000 -179968 -100000 -100000 -100000 -100000
11/5/2020 11:15:00 AM 4.83 40.694 0.066 6.34 1.48 12.71
11/5/2020 11:30:00 AM -100000 -179968 -100000 -100000 -100000 -100000
11/5/2020 11:45:00 AM 5.01 41.018 0.066 6.34 1.46 12.64
11/5/2020 12:00:00 PM 5.12 41.216 0.066 6.34 1.49 12.61
11/5/2020 12:15:00 PM 5.29 41.522 0.066 6.34 1.44 12.57
11/5/2020 12:30:00 PM 5.44 41.792 0.065 6.35 1.44 12.52
11/5/2020 12:45:00 PM 5.57 42.026 0.065 6.35 1.48 12.47
11/5/2020 1:00:00 PM 5.77 42.386 0.065 6.35 1.52 12.43
11/5/2020 1:15:00 PM 5.91 42.638 0.065 6.36 1.47 12.39
11/5/2020 1:30:00 PM 6.02 42.836 0.065 6.35 1.47 12.33
11/5/2020 1:45:00 PM 6.14 43.052 0.064 6.37 1.47 12.29
11/5/2020 2:00:00 PM 6.24 43.232 0.064 6.36 1.47 12.24
11/5/2020 2:15:00 PM 6.31 43.358 0.064 6.36 1.46 12.19
11/5/2020 2:30:00 PM 6.4 43.52 0.064 6.36 1.46 12.15
11/5/2020 2:45:00 PM 6.49 43.682 0.064 6.36 1.48 12.12
11/5/2020 3:00:00 PM 6.58 43.844 0.064 6.37 1.55 12.08
11/5/2020 3:15:00 PM 6.65 43.97 0.064 6.36 1.51 12.03
11/5/2020 3:30:00 PM 6.7 44.06 0.064 6.35 1.49 11.99
11/5/2020 3:45:00 PM 6.76 44.168 0.064 6.35 1.54 11.95
11/5/2020 4:00:00 PM 6.8 44.24 0.064 6.35 1.43 11.91
11/5/2020 4:15:00 PM 6.83 44.294 0.064 6.35 1.48 11.88
11/5/2020 4:30:00 PM 6.86 44.348 0.064 6.35 1.46 11.89
11/5/2020 4:45:00 PM 6.87 44.366 0.064 6.35 1.5 11.87
11/5/2020 5:00:00 PM 6.88 44.384 0.064 6.34 1.65 11.85
11/5/2020 5:15:00 PM 6.88 44.384 0.064 6.33 1.46 11.81
11/5/2020 5:30:00 PM 6.88 44.384 0.064 6.33 1.48 11.79
11/5/2020 5:45:00 PM 6.87 44.366 0.064 6.33 1.45 11.78
11/5/2020 6:00:00 PM 6.88 44.384 0.064 6.32 1.56 11.75
11/5/2020 6:15:00 PM 6.88 44.384 0.064 6.32 1.47 11.76
11/5/2020 6:30:00 PM 6.88 44.384 0.064 6.32 1.51 11.75
11/5/2020 6:45:00 PM 6.88 44.384 0.064 6.32 1.45 11.75
11/5/2020 7:00:00 PM 6.89 44.402 0.064 6.32 1.48 11.74
11/5/2020 7:15:00 PM 6.89 44.402 0.064 6.32 1.51 11.73
11/5/2020 7:30:00 PM 6.89 44.402 0.064 6.32 1.46 11.72
11/5/2020 7:45:00 PM 6.89 44.402 0.064 6.32 1.5 11.73
11/5/2020 8:00:00 PM 6.88 44.384 0.064 6.32 1.49 11.73
11/5/2020 8:15:00 PM 6.87 44.366 0.064 6.31 1.46 11.73
11/5/2020 8:30:00 PM 6.85 44.33 0.064 6.31 1.51 11.72
11/5/2020 8:45:00 PM 6.84 44.312 0.064 6.32 1.69 11.74
11/5/2020 9:00:00 PM 6.83 44.294 0.063 6.31 1.52 11.74
11/5/2020 9:15:00 PM 6.81 44.258 0.063 6.31 1.45 11.76
11/5/2020 9:30:00 PM 6.79 44.222 0.063 6.3 1.49 11.75
11/5/2020 9:45:00 PM 6.78 44.204 0.063 6.31 1.49 11.76
11/5/2020 10:00:00 PM 6.76 44.168 0.063 6.31 1.48 11.74
11/5/2020 10:15:00 PM 6.74 44.132 0.063 6.31 1.46 11.77
11/5/2020 10:30:00 PM -100000 -179968 -100000 -100000 -100000 -100000
11/5/2020 10:45:00 PM 6.72 44.096 0.063 6.31 1.49 11.77
11/5/2020 11:00:00 PM 6.7 44.06 0.063 6.31 1.51 11.77
11/5/2020 11:15:00 PM 6.68 44.024 0.063 6.31 1.5 11.79
11/5/2020 11:30:00 PM 6.66 43.988 0.063 6.3 1.87 11.79
11/5/2020 11:45:00 PM 6.64 43.952 0.063 6.31 1.49 11.8
11/6/2020 12:00:00 AM 6.62 43.916 0.063 6.3 1.52 11.78
11/6/2020 12:15:00 AM 6.6 43.88 0.063 6.3 1.49 11.79
11/6/2020 12:30:00 AM 6.58 43.844 0.063 6.31 1.49 11.8
11/6/2020 12:45:00 AM 6.57 43.826 0.063 6.3 1.49 11.81
11/6/2020 1:00:00 AM 6.55 43.79 0.063 6.3 1.48 11.83
11/6/2020 1:15:00 AM 6.54 43.772 0.063 6.3 1.54 11.81
11/6/2020 1:30:00 AM 6.52 43.736 0.063 6.3 1.48 11.85
11/6/2020 1:45:00 AM 6.5 43.7 0.063 6.3 1.51 11.85
11/6/2020 2:00:00 AM 6.48 43.664 0.063 6.31 2.07 11.86
11/6/2020 2:15:00 AM 6.46 43.628 0.063 6.3 1.57 11.86
11/6/2020 2:30:00 AM 6.43 43.574 0.063 6.3 1.47 11.86
11/6/2020 2:45:00 AM 6.41 43.538 0.063 6.3 1.5 11.86
11/6/2020 3:00:00 AM 6.37 43.466 0.063 6.3 1.57 11.88
11/6/2020 3:15:00 AM 6.33 43.394 0.063 6.3 1.53 11.89
11/6/2020 3:30:00 AM 6.28 43.304 0.063 6.3 1.64 11.92
11/6/2020 3:45:00 AM 6.24 43.232 0.063 6.3 1.47 11.92
11/6/2020 4:00:00 AM 6.2 43.16 0.063 6.3 1.48 11.92
11/6/2020 4:15:00 AM 6.15 43.07 0.063 6.31 1.51 11.95
11/6/2020 4:30:00 AM 6.11 42.998 0.063 6.3 1.51 11.95
11/6/2020 4:45:00 AM 6.05 42.89 0.063 6.3 1.47 11.97
11/6/2020 5:00:00 AM 6 42.8 0.063 6.3 1.49 11.98
11/6/2020 5:15:00 AM 5.94 42.692 0.063 6.3 1.54 12.01
11/6/2020 5:30:00 AM 5.89 42.602 0.063 6.31 1.66 12.03
11/6/2020 5:45:00 AM 5.84 42.512 0.063 6.3 1.51 12.05
11/6/2020 6:00:00 AM 5.79 42.422 0.064 6.31 1.46 12.06
11/6/2020 6:15:00 AM 5.73 42.314 0.063 6.31 1.54 12.08
11/6/2020 6:30:00 AM 5.68 42.224 0.063 6.3 1.5 12.1
11/6/2020 6:45:00 AM 5.61 42.098 0.063 6.31 1.57 12.11
11/6/2020 7:00:00 AM 5.56 42.008 0.063 6.3 1.51 12.14
11/6/2020 7:15:00 AM -100000 -179968 -100000 -100000 -100000 -100000
11/6/2020 7:30:00 AM 5.45 41.81 0.063 6.31 1.49 12.2
11/6/2020 7:45:00 AM -100000 -179968 -100000 -100000 -100000 -100000
11/6/2020 8:00:00 AM 5.37 41.666 0.063 6.32 1.51 12.25
11/6/2020 8:15:00 AM 5.34 41.612 0.063 6.32 1.52 12.3
11/6/2020 8:30:00 AM 5.34 41.612 0.063 6.32 1.48 12.32
11/6/2020 8:45:00 AM 5.34 41.612 0.063 6.34 1.48 12.35
11/6/2020 9:00:00 AM 5.36 41.648 0.063 6.34 1.5 12.36
11/6/2020 9:15:00 AM 5.4 41.72 0.063 6.34 1.48 12.36
11/6/2020 9:30:00 AM 5.46 41.828 0.063 6.34 1.49 12.36
11/6/2020 9:45:00 AM 5.52 41.936 0.063 6.35 1.51 12.36
11/6/2020 10:00:00 AM 5.59 42.062 0.063 6.34 1.49 12.35
11/6/2020 10:15:00 AM 5.64 42.152 0.063 6.34 1.9 12.33
11/6/2020 10:30:00 AM 5.7 42.26 0.063 6.35 1.47 12.33
11/6/2020 10:45:00 AM 5.75 42.35 0.063 6.35 1.51 12.31
11/6/2020 11:00:00 AM 5.85 42.53 0.062 6.35 1.47 12.31
11/6/2020 11:15:00 AM 5.9 42.62 0.062 6.36 1.48 12.28
11/6/2020 11:30:00 AM 5.95 42.71 0.062 6.36 1.52 12.25
11/6/2020 11:45:00 AM 6.03 42.854 0.062 6.36 1.53 12.23
11/6/2020 12:00:00 PM 6.14 43.052 0.062 6.37 1.48 12.19
11/6/2020 12:15:00 PM 6.24 43.232 0.062 6.37 1.47 12.17
11/6/2020 12:30:00 PM 6.34 43.412 0.062 6.37 1.57 12.13
11/6/2020 12:45:00 PM 6.46 43.628 0.062 6.37 1.5 12.08
11/6/2020 1:00:00 PM 6.57 43.826 0.062 6.37 1.52 12.03
11/6/2020 1:15:00 PM 6.69 44.042 0.062 6.36 1.53 11.99
11/6/2020 1:30:00 PM 6.81 44.258 0.061 6.37 1.57 11.96
11/6/2020 1:45:00 PM 6.91 44.438 0.061 6.38 1.59 11.92
11/6/2020 2:00:00 PM 7.03 44.654 0.061 6.38 1.48 11.88
11/6/2020 2:15:00 PM 7.15 44.87 0.061 6.38 1.48 11.82
11/6/2020 2:30:00 PM 7.3 45.14 0.061 6.38 1.56 11.78
11/6/2020 2:45:00 PM 7.41 45.338 0.061 6.37 2.12 11.7
11/6/2020 3:00:00 PM 7.48 45.464 0.061 6.38 1.53 11.66
11/6/2020 3:15:00 PM 7.6 45.68 0.061 6.38 1.56 11.63
11/6/2020 3:30:00 PM 7.71 45.878 0.06 6.38 1.53 11.61
11/6/2020 3:45:00 PM 7.75 45.95 0.06 6.38 1.52 11.58
11/6/2020 4:00:00 PM 7.81 46.058 0.06 6.38 1.51 11.56
11/6/2020 4:15:00 PM 7.84 46.112 0.06 6.37 1.49 11.54
11/6/2020 4:30:00 PM 7.84 46.112 0.06 6.37 1.5 11.52
11/6/2020 4:45:00 PM 7.83 46.094 0.06 6.37 1.52 11.53
11/6/2020 5:00:00 PM 7.81 46.058 0.06 6.37 1.54 11.52
11/6/2020 5:15:00 PM 7.79 46.022 0.06 6.36 1.56 11.51
11/6/2020 5:30:00 PM 7.76 45.968 0.06 6.35 1.55 11.49
11/6/2020 5:45:00 PM 7.74 45.932 0.06 6.36 1.5 11.49
11/6/2020 6:00:00 PM 7.73 45.914 0.06 6.35 1.61 11.47
11/6/2020 6:15:00 PM -100000 -179968 -100000 -100000 -100000 -100000
11/6/2020 6:30:00 PM 7.72 45.896 0.06 6.34 1.49 11.46
11/6/2020 6:45:00 PM 7.72 45.896 0.06 6.33 1.49 11.45
11/6/2020 7:00:00 PM 7.72 45.896 0.06 6.33 1.46 11.45
11/6/2020 7:15:00 PM 7.71 45.878 0.06 6.33 1.48 11.45
11/6/2020 7:30:00 PM 7.71 45.878 0.06 6.34 1.61 11.43
11/6/2020 7:45:00 PM 7.7 45.86 0.06 6.34 1.49 11.44
11/6/2020 8:00:00 PM 7.69 45.842 0.06 6.33 1.45 11.44
11/6/2020 8:15:00 PM 7.68 45.824 0.06 6.34 1.5 11.44
11/6/2020 8:30:00 PM 7.65 45.77 0.06 6.32 1.49 11.45
11/6/2020 8:45:00 PM 7.62 45.716 0.06 6.33 1.51 11.45
11/6/2020 9:00:00 PM 7.58 45.644 0.06 6.32 1.47 11.47
11/6/2020 9:15:00 PM 7.55 45.59 0.06 6.33 1.45 11.48
11/6/2020 9:30:00 PM 7.5 45.5 0.06 6.33 1.53 11.49
11/6/2020 9:45:00 PM 7.45 45.41 0.061 6.33 1.47 11.5
11/6/2020 10:00:00 PM 7.4 45.32 0.061 6.32 1.49 11.5
11/6/2020 10:15:00 PM 7.34 45.212 0.061 6.33 1.46 11.53
11/6/2020 10:30:00 PM 7.28 45.104 0.061 6.32 1.48 11.56
11/6/2020 10:45:00 PM 7.22 44.996 0.061 6.33 1.47 11.58
11/6/2020 11:00:00 PM 7.16 44.888 0.06 6.33 1.51 11.6
11/6/2020 11:15:00 PM -100000 -179968 -100000 -100000 -100000 -100000
11/6/2020 11:30:00 PM 7.05 44.69 0.061 6.32 1.44 11.63
11/6/2020 11:45:00 PM 6.99 44.582 0.061 6.32 1.53 11.66
11/7/2020 12:00:00 AM 6.93 44.474 0.061 6.32 1.47 11.67
11/7/2020 12:15:00 AM 6.88 44.384 0.061 6.32 1.49 11.69
11/7/2020 12:30:00 AM 6.83 44.294 0.061 6.32 1.48 11.69
11/7/2020 12:45:00 AM -100000 -179968 -100000 -100000 -100000 -100000
11/7/2020 1:00:00 AM 6.72 44.096 0.061 6.32 1.48 11.72
11/7/2020 1:15:00 AM 6.67 44.006 0.061 6.32 1.49 11.74
11/7/2020 1:30:00 AM 6.6 43.88 0.061 6.32 1.53 11.78
11/7/2020 1:45:00 AM 6.55 43.79 0.061 6.31 1.45 11.79
11/7/2020 2:00:00 AM 6.49 43.682 0.061 6.32 1.47 11.81
11/7/2020 2:15:00 AM 6.43 43.574 0.061 6.32 1.46 11.83
11/7/2020 2:30:00 AM 6.38 43.484 0.061 6.32 1.47 11.85
11/7/2020 2:45:00 AM 6.32 43.376 0.061 6.32 1.44 11.86
11/7/2020 3:00:00 AM -100000 -179968 -100000 -100000 -100000 -100000
11/7/2020 3:15:00 AM 6.2 43.16 0.061 6.32 1.56 11.9
11/7/2020 3:30:00 AM 6.16 43.088 0.061 6.32 1.58 11.93
11/7/2020 3:45:00 AM 6.11 42.998 0.061 6.32 1.46 11.93
11/7/2020 4:00:00 AM 6.03 42.854 0.061 6.32 1.47 11.97
11/7/2020 4:15:00 AM 5.99 42.782 0.061 6.31 1.46 11.98
11/7/2020 4:30:00 AM -100000 -179968 -100000 -100000 -100000 -100000
11/7/2020 4:45:00 AM 5.86 42.548 0.062 6.32 1.47 12.04
11/7/2020 5:00:00 AM 5.8 42.44 0.062 6.32 1.51 12.06
11/7/2020 5:15:00 AM 5.75 42.35 0.062 6.32 1.47 12.08
11/7/2020 5:30:00 AM 5.7 42.26 0.062 6.32 1.45 12.06
11/7/2020 5:45:00 AM 5.64 42.152 0.062 6.31 1.56 12.1
11/7/2020 6:00:00 AM 5.57 42.026 0.062 6.32 1.49 12.13
11/7/2020 6:15:00 AM 5.52 41.936 0.062 6.32 1.47 12.16
11/7/2020 6:30:00 AM 5.45 41.81 0.062 6.32 1.55 12.19
11/7/2020 6:45:00 AM 5.42 41.756 0.062 6.33 1.46 12.18
11/7/2020 7:00:00 AM 5.36 41.648 0.062 6.32 1.49 12.21
11/7/2020 7:15:00 AM 5.31 41.558 0.062 6.32 1.47 12.21
11/7/2020 7:30:00 AM 5.24 41.432 0.062 6.33 1.48 12.29
11/7/2020 7:45:00 AM 5.2 41.36 0.062 6.33 1.48 12.32
11/7/2020 8:00:00 AM 5.16 41.288 0.062 6.34 1.45 12.36
11/7/2020 8:15:00 AM 5.13 41.234 0.062 6.34 1.56 12.39
11/7/2020 8:30:00 AM 5.12 41.216 0.062 6.34 1.51 12.4
11/7/2020 8:45:00 AM 5.13 41.234 0.062 6.35 1.49 12.41
11/7/2020 9:00:00 AM 5.15 41.27 0.062 6.36 1.47 12.44
11/7/2020 9:15:00 AM 5.19 41.342 0.062 6.35 1.47 12.45
11/7/2020 9:30:00 AM 5.24 41.432 0.062 6.36 1.48 12.45
11/7/2020 9:45:00 AM 5.31 41.558 0.062 6.35 1.48 12.47
11/7/2020 10:00:00 AM 5.35 41.63 0.062 6.36 1.55 12.42
11/7/2020 10:15:00 AM 5.41 41.738 0.062 6.36 1.45 12.43
11/7/2020 10:30:00 AM 5.46 41.828 0.062 6.36 1.45 12.4
11/7/2020 10:45:00 AM 5.52 41.936 0.062 6.35 1.46 12.37
11/7/2020 11:00:00 AM 5.59 42.062 0.062 6.35 1.43 12.38
11/7/2020 11:15:00 AM 5.65 42.17 0.062 6.37 1.49 12.38
11/7/2020 11:30:00 AM 5.7 42.26 0.061 6.36 1.46 12.34
11/7/2020 11:45:00 AM 5.78 42.404 0.061 6.36 1.45 12.32
11/7/2020 12:00:00 PM 5.86 42.548 0.061 6.36 6.05 12.28
11/7/2020 12:15:00 PM 5.98 42.764 0.061 6.37 2.2 12.28
11/7/2020 12:30:00 PM 6.07 42.926 0.061 6.37 1.47 12.22
11/7/2020 12:45:00 PM 6.19 43.142 0.061 6.37 1.48 12.2
11/7/2020 1:00:00 PM 6.31 43.358 0.061 6.38 1.45 12.16
11/7/2020 1:15:00 PM 6.43 43.574 0.061 6.38 1.45 12.12
11/7/2020 1:30:00 PM 6.54 43.772 0.061 6.37 1.44 12.08
11/7/2020 1:45:00 PM 6.65 43.97 0.06 6.38 1.46 12.04
11/7/2020 2:00:00 PM 6.8 44.24 0.06 6.38 1.48 11.98
11/7/2020 2:15:00 PM 6.9 44.42 0.06 6.39 1.63 11.94
11/7/2020 2:30:00 PM 7.01 44.618 0.06 6.39 1.44 11.89
11/7/2020 2:45:00 PM 7.13 44.834 0.06 6.39 1.49 11.84
11/7/2020 3:00:00 PM 7.25 45.05 0.06 6.39 1.49 11.79
11/7/2020 3:15:00 PM 7.34 45.212 0.06 6.38 1.45 11.75
11/7/2020 3:30:00 PM 7.44 45.392 0.06 6.39 1.44 11.71
11/7/2020 3:45:00 PM 7.53 45.554 0.06 6.38 1.53 11.68
11/7/2020 4:00:00 PM 7.58 45.644 0.059 6.39 1.43 11.66
11/7/2020 4:15:00 PM 7.63 45.734 0.059 6.39 1.45 11.64
11/7/2020 4:30:00 PM 7.64 45.752 0.059 6.38 1.47 11.63
11/7/2020 4:45:00 PM 7.64 45.752 0.059 6.38 1.44 11.62
11/7/2020 5:00:00 PM 7.61 45.698 0.059 6.37 1.42 11.61
11/7/2020 5:15:00 PM 7.58 45.644 0.059 6.36 1.46 11.59
11/7/2020 5:30:00 PM 7.55 45.59 0.06 6.37 1.46 11.58
11/7/2020 5:45:00 PM 7.51 45.518 0.06 6.35 1.45 11.58
11/7/2020 6:00:00 PM 7.48 45.464 0.06 6.36 1.43 11.57
11/7/2020 6:15:00 PM 7.44 45.392 0.06 6.34 1.51 11.58
11/7/2020 6:30:00 PM 7.42 45.356 0.06 6.35 1.46 11.58
11/7/2020 6:45:00 PM 7.4 45.32 0.06 6.35 1.46 11.57
11/7/2020 7:00:00 PM 7.38 45.284 0.06 6.35 1.44 11.57
11/7/2020 7:15:00 PM 7.37 45.266 0.06 6.35 1.79 11.58
11/7/2020 7:30:00 PM 7.36 45.248 0.06 6.35 1.48 11.56
11/7/2020 7:45:00 PM 7.35 45.23 0.06 6.34 1.48 11.56
11/7/2020 8:00:00 PM 7.34 45.212 0.06 6.34 1.51 11.55
11/7/2020 8:15:00 PM 7.33 45.194 0.06 6.35 1.49 11.54
11/7/2020 8:30:00 PM 7.32 45.176 0.06 6.34 1.49 11.56
11/7/2020 8:45:00 PM 7.3 45.14 0.06 6.34 1.46 11.56
11/7/2020 9:00:00 PM 7.27 45.086 0.06 6.34 1.46 11.55
11/7/2020 9:15:00 PM 7.24 45.032 0.06 6.34 1.47 11.6
11/7/2020 9:30:00 PM 7.2 44.96 0.06 6.34 1.47 11.59
11/7/2020 9:45:00 PM 7.16 44.888 0.06 6.33 1.47 11.61
11/7/2020 10:00:00 PM 7.11 44.798 0.06 6.34 1.44 11.62
11/7/2020 10:15:00 PM 7.06 44.708 0.06 6.34 1.5 11.65
11/7/2020 10:30:00 PM 7 44.6 0.06 6.33 1.48 11.67
11/7/2020 10:45:00 PM 6.95 44.51 0.06 6.34 1.45 11.67
11/7/2020 11:00:00 PM 6.91 44.438 0.06 6.33 1.45 11.67
11/7/2020 11:15:00 PM 6.84 44.312 0.06 6.33 1.48 11.71
11/7/2020 11:30:00 PM 6.78 44.204 0.06 6.33 1.44 11.73
11/7/2020 11:45:00 PM 6.71 44.078 0.06 6.33 1.44 11.74
11/8/2020 12:00:00 AM 6.65 43.97 0.06 6.33 1.48 11.77
11/8/2020 12:15:00 AM 6.6 43.88 0.06 6.34 1.48 11.78
11/8/2020 12:30:00 AM 6.53 43.754 0.06 6.34 1.66 11.81
11/8/2020 12:45:00 AM 6.46 43.628 0.06 6.33 1.46 11.83
11/8/2020 1:00:00 AM 6.4 43.52 0.06 6.33 1.48 11.87
11/8/2020 1:15:00 AM -100000 -179968 -100000 -100000 -100000 -100000
11/8/2020 1:30:00 AM 6.28 43.304 0.061 6.33 1.45 11.89
11/8/2020 1:45:00 AM 6.22 43.196 0.061 6.33 1.46 11.92
11/8/2020 2:00:00 AM 6.16 43.088 0.061 6.33 1.47 11.94
11/8/2020 2:15:00 AM 6.1 42.98 0.061 6.32 1.49 11.97
11/8/2020 2:30:00 AM 6.04 42.872 0.061 6.33 1.48 11.97
11/8/2020 2:45:00 AM 5.98 42.764 0.061 6.33 1.49 12
11/8/2020 3:00:00 AM 5.92 42.656 0.061 6.33 1.45 12.02
11/8/2020 3:15:00 AM 5.86 42.548 0.061 6.33 1.47 12.06
11/8/2020 3:30:00 AM 5.8 42.44 0.061 6.33 1.46 12.06
11/8/2020 3:45:00 AM 5.74 42.332 0.061 6.33 1.46 12.09
11/8/2020 4:00:00 AM 5.69 42.242 0.061 6.33 1.46 12.1
11/8/2020 4:15:00 AM 5.63 42.134 0.061 6.33 1.43 12.11
11/8/2020 4:30:00 AM 5.57 42.026 0.062 6.32 1.46 12.14
11/8/2020 4:45:00 AM 5.51 41.918 0.062 6.33 1.45 12.16
11/8/2020 5:00:00 AM 5.46 41.828 0.062 6.33 1.46 12.17
11/8/2020 5:15:00 AM -100000 -179968 -100000 -100000 -100000 -100000
11/8/2020 5:30:00 AM 5.33 41.594 0.062 6.33 1.46 12.24
11/8/2020 5:45:00 AM 5.28 41.504 0.062 6.33 1.55 12.27
11/8/2020 6:00:00 AM 5.22 41.396 0.062 6.33 1.47 12.28
11/8/2020 6:15:00 AM 5.18 41.324 0.062 6.33 1.46 12.29
11/8/2020 6:30:00 AM 5.12 41.216 0.062 6.33 1.56 12.31
11/8/2020 6:45:00 AM 5.06 41.108 0.062 6.33 1.48 12.36
11/8/2020 7:00:00 AM 5.02 41.036 0.062 6.34 1.5 12.37
11/8/2020 7:15:00 AM 4.96 40.928 0.062 6.33 1.45 12.4
11/8/2020 7:30:00 AM 4.93 40.874 0.062 6.34 1.49 12.43
11/8/2020 7:45:00 AM 4.91 40.838 0.062 6.34 1.46 12.46
11/8/2020 8:00:00 AM 4.9 40.82 0.062 6.35 1.44 12.49
11/8/2020 8:15:00 AM 4.88 40.784 0.062 6.35 1.45 12.53
11/8/2020 8:30:00 AM 4.88 40.784 0.062 6.36 1.46 12.54
11/8/2020 8:45:00 AM 4.89 40.802 0.062 6.36 1.44 12.57
11/8/2020 9:00:00 AM 4.92 40.856 0.062 6.37 1.49 12.59
11/8/2020 9:15:00 AM 4.95 40.91 0.062 6.37 1.47 12.6
11/8/2020 9:30:00 AM 5 41 0.062 6.37 1.48 12.6
11/8/2020 9:45:00 AM 5.05 41.09 0.062 6.37 1.53 12.59
11/8/2020 10:00:00 AM 5.1 41.18 0.062 6.37 1.45 12.57
11/8/2020 10:15:00 AM 5.14 41.252 0.062 6.37 1.47 12.58
11/8/2020 10:30:00 AM 5.19 41.342 0.062 6.37 1.48 12.57
11/8/2020 10:45:00 AM 5.24 41.432 0.062 6.38 1.45 12.55
11/8/2020 11:00:00 AM 5.32 41.576 0.061 6.38 1.52 12.54
11/8/2020 11:15:00 AM -100000 -179968 -100000 -100000 -100000 -100000
11/8/2020 11:30:00 AM 5.42 41.756 0.061 6.38 1.46 12.49
11/8/2020 11:45:00 AM 5.48 41.864 0.061 6.38 1.46 12.46
11/8/2020 12:00:00 PM 5.57 42.026 0.061 6.38 1.46 12.43
11/8/2020 12:15:00 PM 5.68 42.224 0.061 6.39 1.46 12.4
11/8/2020 12:30:00 PM 5.76 42.368 0.061 6.39 1.46 12.36
11/8/2020 12:45:00 PM 5.9 42.62 0.061 6.39 1.46 12.33
11/8/2020 1:00:00 PM -100000 -179968 -100000 -100000 -100000 -100000
11/8/2020 1:15:00 PM 6.16 43.088 0.061 6.39 1.8 12.22
11/8/2020 1:30:00 PM 6.27 43.286 0.06 6.39 1.47 12.2
11/8/2020 1:45:00 PM 6.38 43.484 0.06 6.39 1.5 12.15
11/8/2020 2:00:00 PM 6.53 43.754 0.06 6.38 1.54 12.08
11/8/2020 2:15:00 PM 6.65 43.97 0.06 6.39 3.51 12.04
11/8/2020 2:30:00 PM 6.77 44.186 0.06 6.39 1.45 12
11/8/2020 2:45:00 PM 6.88 44.384 0.06 6.39 1.43 11.97
11/8/2020 3:00:00 PM 6.99 44.582 0.06 6.38 6.9 11.89
11/8/2020 3:15:00 PM 7.06 44.708 0.06 6.39 1.57 11.9
11/8/2020 3:30:00 PM 7.16 44.888 0.06 6.39 1.54 11.86
11/8/2020 3:45:00 PM 7.22 44.996 0.059 6.39 1.45 11.83
11/8/2020 4:00:00 PM 7.28 45.104 0.059 6.38 1.53 11.77
11/8/2020 4:15:00 PM 7.32 45.176 0.059 6.37 1.39 11.76
11/8/2020 4:30:00 PM 7.34 45.212 0.059 6.39 1.47 11.76
11/8/2020 4:45:00 PM 7.34 45.212 0.059 6.38 1.49 11.76
11/8/2020 5:00:00 PM 7.33 45.194 0.059 6.38 1.46 11.73
11/8/2020 5:15:00 PM 7.29 45.122 0.059 6.37 1.79 11.71
11/8/2020 5:30:00 PM 7.25 45.05 0.059 6.37 1.47 11.73
11/8/2020 5:45:00 PM 7.21 44.978 0.06 6.37 1.37 11.72
11/8/2020 6:00:00 PM 7.18 44.924 0.06 6.37 1.34 11.72
11/8/2020 6:15:00 PM 7.14 44.852 0.06 6.37 1.36 11.71
11/8/2020 6:30:00 PM 7.1 44.78 0.06 6.36 1.34 11.72
11/8/2020 6:45:00 PM 7.08 44.744 0.06 6.36 1.33 11.72
11/8/2020 7:00:00 PM 7.06 44.708 0.06 6.36 1.4 11.72
11/8/2020 7:15:00 PM 7.05 44.69 0.06 6.36 1.35 11.71
11/8/2020 7:30:00 PM 7.03 44.654 0.06 6.36 1.34 11.72
11/8/2020 7:45:00 PM 7.03 44.654 0.06 6.36 1.37 11.7
11/8/2020 8:00:00 PM 7.02 44.636 0.06 6.36 1.33 11.71
11/8/2020 8:15:00 PM 7.02 44.636 0.06 6.35 1.32 11.72
11/8/2020 8:30:00 PM 7.01 44.618 0.06 6.36 1.31 11.71
11/8/2020 8:45:00 PM 7 44.6 0.06 6.35 1.33 11.71
11/8/2020 9:00:00 PM 6.99 44.582 0.06 6.36 1.34 11.72
11/8/2020 9:15:00 PM 6.98 44.564 0.06 6.35 1.36 11.71
11/8/2020 9:30:00 PM 6.96 44.528 0.06 6.35 1.35 11.71
11/8/2020 9:45:00 PM 6.93 44.474 0.06 6.35 1.35 11.72
11/8/2020 10:00:00 PM 6.9 44.42 0.06 6.35 1.35 11.73
11/8/2020 10:15:00 PM 6.87 44.366 0.06 6.35 1.35 11.73
11/8/2020 10:30:00 PM 6.83 44.294 0.06 6.35 1.46 11.74
11/8/2020 10:45:00 PM 6.78 44.204 0.06 6.35 1.36 11.77
11/8/2020 11:00:00 PM 6.74 44.132 0.06 6.35 1.32 11.77
11/8/2020 11:15:00 PM 6.7 44.06 0.06 6.35 1.4 11.78
11/8/2020 11:30:00 PM 6.64 43.952 0.06 6.35 1.35 11.81
11/8/2020 11:45:00 PM 6.6 43.88 0.06 6.34 1.35 11.81
11/9/2020 12:00:00 AM 6.55 43.79 0.061 6.34 1.34 11.82
11/9/2020 12:15:00 AM 6.49 43.682 0.061 6.35 1.35 11.84
11/9/2020 12:30:00 AM 6.44 43.592 0.061 6.34 1.35 11.86
11/9/2020 12:45:00 AM 6.38 43.484 0.061 6.34 1.33 11.9
11/9/2020 1:00:00 AM 6.33 43.394 0.061 6.35 1.35 11.9
11/9/2020 1:15:00 AM 6.28 43.304 0.061 6.34 1.35 11.92
11/9/2020 1:30:00 AM 6.22 43.196 0.061 6.35 1.36 11.94
11/9/2020 1:45:00 AM 6.17 43.106 0.061 6.34 1.34 11.95
11/9/2020 2:00:00 AM 6.1 42.98 0.061 6.35 1.36 11.99
11/9/2020 2:15:00 AM 6.06 42.908 0.061 6.34 1.35 12
11/9/2020 2:30:00 AM 6 42.8 0.062 6.34 1.43 12.01
11/9/2020 2:45:00 AM -100000 -179968 -100000 -100000 -100000 -100000
11/9/2020 3:00:00 AM 5.9 42.62 0.062 6.34 1.37 12.05
11/9/2020 3:15:00 AM 5.84 42.512 0.062 6.34 1.35 12.07
11/9/2020 3:30:00 AM 5.78 42.404 0.062 6.34 1.35 12.09
11/9/2020 3:45:00 AM 5.74 42.332 0.062 6.34 1.37 12.09
11/9/2020 4:00:00 AM 5.68 42.224 0.062 6.34 1.35 12.11
11/9/2020 4:15:00 AM 5.62 42.116 0.062 6.33 1.38 12.12
11/9/2020 4:30:00 AM 5.57 42.026 0.062 6.34 1.36 12.14
11/9/2020 4:45:00 AM 5.51 41.918 0.062 6.34 1.37 12.17
11/9/2020 5:00:00 AM -100000 -179968 -100000 -100000 -100000 -100000
11/9/2020 5:15:00 AM 5.41 41.738 0.062 6.34 1.37 12.2
11/9/2020 5:30:00 AM 5.35 41.63 0.062 6.33 1.31 12.21
11/9/2020 5:45:00 AM 5.29 41.522 0.062 6.34 1.38 12.25
11/9/2020 6:00:00 AM 5.22 41.396 0.063 6.34 1.34 12.27
11/9/2020 6:15:00 AM 5.2 41.36 0.063 6.34 1.35 12.28
11/9/2020 6:30:00 AM 5.12 41.216 0.063 6.34 1.34 12.32
11/9/2020 6:45:00 AM 5.07 41.126 0.063 6.34 1.36 12.33
11/9/2020 7:00:00 AM 5.03 41.054 0.063 6.34 1.34 12.36
11/9/2020 7:15:00 AM 5 41 0.063 6.34 1.35 12.38
11/9/2020 7:30:00 AM 4.98 40.964 0.063 6.35 1.34 12.4
11/9/2020 7:45:00 AM 4.96 40.928 0.063 6.35 1.33 12.44
11/9/2020 8:00:00 AM 4.94 40.892 0.063 6.36 1.37 12.47
11/9/2020 8:15:00 AM 4.94 40.892 0.063 6.36 1.37 12.49
11/9/2020 8:30:00 AM 4.94 40.892 0.063 6.37 1.35 12.51
11/9/2020 8:45:00 AM 4.93 40.874 0.063 6.37 1.35 12.53
11/9/2020 9:00:00 AM 4.94 40.892 0.063 6.37 1.35 12.55
11/9/2020 9:15:00 AM 4.96 40.928 0.063 6.38 1.36 12.56
11/9/2020 9:30:00 AM 5 41 0.063 6.38 1.33 12.56
11/9/2020 9:45:00 AM 5.06 41.108 0.063 6.38 1.32 12.55
11/9/2020 10:00:00 AM 5.13 41.234 0.062 6.38 1.33 12.55
11/9/2020 10:15:00 AM 5.18 41.324 0.062 6.38 1.42 12.56
11/9/2020 10:30:00 AM 5.24 41.432 0.062 6.39 1.32 12.55
11/9/2020 10:45:00 AM 5.28 41.504 0.062 6.39 1.35 12.52
11/9/2020 11:00:00 AM 5.35 41.63 0.062 6.38 1.82 12.49
11/9/2020 11:15:00 AM 5.4 41.72 0.062 6.39 1.33 12.49
11/9/2020 11:30:00 AM 5.46 41.828 0.062 6.38 2.89 12.43
11/9/2020 11:45:00 AM 5.52 41.936 0.062 6.4 1.38 12.43
11/9/2020 12:00:00 PM 5.62 42.116 0.062 6.39 1.39 12.4
11/9/2020 12:15:00 PM 5.73 42.314 0.061 6.4 1.39 12.38
11/9/2020 12:30:00 PM 5.81 42.458 0.061 6.4 1.34 12.34
11/9/2020 12:45:00 PM 5.94 42.692 0.061 6.4 1.36 12.29
11/9/2020 1:00:00 PM 6.05 42.89 0.061 6.4 1.37 12.26
11/9/2020 1:15:00 PM 6.19 43.142 0.061 6.4 1.34 12.21
11/9/2020 1:30:00 PM 6.32 43.376 0.061 6.4 1.39 12.17
11/9/2020 1:45:00 PM 6.43 43.574 0.061 6.41 1.37 12.12
11/9/2020 2:00:00 PM 6.55 43.79 0.06 6.41 1.38 12.08
11/9/2020 2:15:00 PM 6.68 44.024 0.06 6.41 1.36 12.02
11/9/2020 2:30:00 PM 6.84 44.312 0.06 6.4 1.34 11.97
11/9/2020 2:45:00 PM 6.94 44.492 0.06 6.41 1.34 11.92
11/9/2020 3:00:00 PM 7.04 44.672 0.06 6.41 1.35 11.89
11/9/2020 3:15:00 PM 7.17 44.906 0.06 6.4 1.43 11.82
11/9/2020 3:30:00 PM 7.27 45.086 0.06 6.4 1.35 11.78
11/9/2020 3:45:00 PM 7.34 45.212 0.06 6.4 1.34 11.75
11/9/2020 4:00:00 PM 7.42 45.356 0.059 6.41 1.35 11.73
11/9/2020 4:15:00 PM 7.47 45.446 0.059 6.4 1.38 11.7
11/9/2020 4:30:00 PM 7.5 45.5 0.059 6.4 1.38 11.66
11/9/2020 4:45:00 PM 7.52 45.536 0.059 6.4 1.39 11.67
11/9/2020 5:00:00 PM 7.51 45.518 0.059 6.39 1.38 11.63
11/9/2020 5:15:00 PM 7.49 45.482 0.059 6.39 1.47 11.63
11/9/2020 5:30:00 PM 7.45 45.41 0.06 6.38 1.36 11.64
11/9/2020 5:45:00 PM 7.42 45.356 0.06 6.38 1.41 11.63
11/9/2020 6:00:00 PM 7.38 45.284 0.06 6.38 1.47 11.63
11/9/2020 6:15:00 PM 7.36 45.248 0.06 6.38 1.35 11.62
11/9/2020 6:30:00 PM 7.33 45.194 0.06 6.37 1.4 11.62
11/9/2020 6:45:00 PM 7.31 45.158 0.06 6.37 1.36 11.61
11/9/2020 7:00:00 PM 7.3 45.14 0.06 6.37 1.36 11.6
11/9/2020 7:15:00 PM 7.28 45.104 0.06 6.37 1.38 11.59
11/9/2020 7:30:00 PM 7.28 45.104 0.06 6.37 1.38 11.6
11/9/2020 7:45:00 PM 7.28 45.104 0.06 6.36 1.34 11.58
11/9/2020 8:00:00 PM 7.28 45.104 0.06 6.37 1.37 11.57
11/9/2020 8:15:00 PM 7.28 45.104 0.06 6.36 1.37 11.57
11/9/2020 8:30:00 PM 7.29 45.122 0.061 6.36 1.34 11.56
11/9/2020 8:45:00 PM 7.29 45.122 0.061 6.36 1.36 11.56
11/9/2020 9:00:00 PM 7.29 45.122 0.061 6.36 1.39 11.58
11/9/2020 9:15:00 PM 7.29 45.122 0.061 6.36 1.38 11.57
11/9/2020 9:30:00 PM 7.29 45.122 0.061 6.36 1.36 11.57
11/9/2020 9:45:00 PM 7.28 45.104 0.061 6.36 1.37 11.58
11/9/2020 10:00:00 PM 7.26 45.068 0.061 6.36 1.36 11.58
11/9/2020 10:15:00 PM 7.25 45.05 0.061 6.36 1.38 11.57
11/9/2020 10:30:00 PM -100000 -179968 -100000 -100000 -100000 -100000
11/9/2020 10:45:00 PM 7.2 44.96 0.061 6.36 1.38 11.59
11/9/2020 11:00:00 PM 7.18 44.924 0.061 6.36 1.37 11.59
11/9/2020 11:15:00 PM 7.14 44.852 0.061 6.35 1.35 11.61
11/9/2020 11:30:00 PM 7.11 44.798 0.061 6.36 1.36 11.61
11/9/2020 11:45:00 PM 7.08 44.744 0.061 6.35 1.43 11.62
11/10/2020 12:00:00 AM 7.04 44.672 0.061 6.36 1.35 11.64
11/10/2020 12:15:00 AM 7 44.6 0.061 6.36 1.35 11.66
11/10/2020 12:30:00 AM 6.96 44.528 0.061 6.35 1.38 11.66
11/10/2020 12:45:00 AM 6.92 44.456 0.061 6.35 1.38 11.67
11/10/2020 1:00:00 AM 6.88 44.384 0.061 6.35 1.37 11.68
11/10/2020 1:15:00 AM 6.84 44.312 0.061 6.35 1.39 11.69
11/10/2020 1:30:00 AM 6.8 44.24 0.061 6.35 1.4 11.7
11/10/2020 1:45:00 AM 6.76 44.168 0.061 6.35 1.35 11.71
11/10/2020 2:00:00 AM 6.73 44.114 0.062 6.35 1.36 11.72
11/10/2020 2:15:00 AM 6.68 44.024 0.062 6.35 1.38 11.74
11/10/2020 2:30:00 AM 6.64 43.952 0.062 6.35 1.4 11.75
11/10/2020 2:45:00 AM 6.6 43.88 0.062 6.35 1.34 11.76
11/10/2020 3:00:00 AM 6.56 43.808 0.062 6.35 1.4 11.77
11/10/2020 3:15:00 AM 6.52 43.736 0.062 6.35 1.36 11.78
11/10/2020 3:30:00 AM 6.47 43.646 0.062 6.34 1.37 11.81
11/10/2020 3:45:00 AM 6.44 43.592 0.062 6.35 1.34 11.81
11/10/2020 4:00:00 AM 6.39 43.502 0.062 6.34 1.39 11.83
11/10/2020 4:15:00 AM 6.35 43.43 0.062 6.35 1.36 11.85
11/10/2020 4:30:00 AM 6.31 43.358 0.063 6.34 1.41 11.85
11/10/2020 4:45:00 AM 6.26 43.268 0.063 6.35 1.43 11.87
11/10/2020 5:00:00 AM 6.22 43.196 0.063 6.34 1.35 11.89
11/10/2020 5:15:00 AM 6.18 43.124 0.063 6.35 1.37 11.91
11/10/2020 5:30:00 AM 6.14 43.052 0.063 6.34 1.37 11.9
11/10/2020 5:45:00 AM 6.1 42.98 0.063 6.34 1.37 11.92
11/10/2020 6:00:00 AM 6.06 42.908 0.063 6.35 1.43 11.95
11/10/2020 6:15:00 AM 6.04 42.872 0.063 6.34 1.5 11.94
11/10/2020 6:30:00 AM 5.99 42.782 0.063 6.34 1.68 11.96
11/10/2020 6:45:00 AM 5.97 42.746 0.063 6.35 1.43 11.98
11/10/2020 7:00:00 AM 5.94 42.692 0.063 6.35 1.35 11.98
11/10/2020 7:15:00 AM 5.93 42.674 0.063 6.34 1.38 12.01
11/10/2020 7:30:00 AM 5.92 42.656 0.063 6.35 1.38 12.03
11/10/2020 7:45:00 AM 5.92 42.656 0.063 6.35 1.37 12.04
11/10/2020 8:00:00 AM 5.93 42.674 0.063 6.37 1.39 12.07
11/10/2020 8:15:00 AM 5.95 42.71 0.063 6.37 1.36 12.1
11/10/2020 8:30:00 AM 5.99 42.782 0.063 6.38 1.36 12.12
11/10/2020 8:45:00 AM -100000 -179968 -100000 -100000 -100000 -100000
11/10/2020 9:00:00 AM 6.08 42.944 0.063 6.39 1.36 12.17
11/10/2020 9:15:00 AM 6.15 43.07 0.063 6.39 1.39 12.17
11/10/2020 9:30:00 AM 6.22 43.196 0.063 6.39 1.35 12.17
11/10/2020 9:45:00 AM 6.31 43.358 0.063 6.41 1.41 12.18
11/10/2020 10:00:00 AM 6.39 43.502 0.062 6.4 1.38 12.16
11/10/2020 10:15:00 AM 6.43 43.574 0.062 6.41 1.38 12.14
11/10/2020 10:30:00 AM 6.46 43.628 0.062 6.4 1.34 12.13
11/10/2020 10:45:00 AM -100000 -179968 -100000 -100000 -100000 -100000
11/10/2020 11:00:00 AM 6.53 43.754 0.062 6.4 1.35 12.09
11/10/2020 11:15:00 AM 6.57 43.826 0.062 6.4 1.39 12.06
11/10/2020 11:30:00 AM 6.62 43.916 0.062 6.4 1.37 12.03
11/10/2020 11:45:00 AM 6.67 44.006 0.062 6.39 1.48 11.96
11/10/2020 12:00:00 PM 6.78 44.204 0.062 6.4 1.35 11.96
11/10/2020 12:15:00 PM 6.9 44.42 0.062 6.41 1.35 11.94
11/10/2020 12:30:00 PM 7 44.6 0.062 6.41 1.38 11.89
11/10/2020 12:45:00 PM 7.16 44.888 0.062 6.41 1.39 11.86
11/10/2020 1:00:00 PM 7.26 45.068 0.061 6.41 1.39 11.8
11/10/2020 1:15:00 PM 7.37 45.266 0.061 6.41 1.37 11.76
11/10/2020 1:30:00 PM 7.49 45.482 0.061 6.4 1.6 11.7
11/10/2020 1:45:00 PM 7.62 45.716 0.061 6.41 1.43 11.68
11/10/2020 2:00:00 PM 7.76 45.968 0.061 6.42 1.35 11.63
11/10/2020 2:15:00 PM 7.89 46.202 0.061 6.41 1.46 11.58
11/10/2020 2:30:00 PM 8 46.4 0.06 6.42 1.4 11.54
11/10/2020 2:45:00 PM 8.09 46.562 0.06 6.42 1.34 11.51
11/10/2020 3:00:00 PM 8.2 46.76 0.06 6.42 1.37 11.47
11/10/2020 3:15:00 PM 8.3 46.94 0.06 6.42 1.44 11.44
11/10/2020 3:30:00 PM 8.41 47.138 0.06 6.43 1.4 11.4
11/10/2020 3:45:00 PM 8.49 47.282 0.06 6.42 1.39 11.35
11/10/2020 4:00:00 PM 8.59 47.462 0.06 6.43 1.36 11.31
11/10/2020 4:15:00 PM 8.65 47.57 0.06 6.42 1.54 11.28
11/10/2020 4:30:00 PM 8.72 47.696 0.059 6.42 1.38 11.25
11/10/2020 4:45:00 PM 8.77 47.786 0.059 6.42 1.37 11.21
11/10/2020 5:00:00 PM 8.79 47.822 0.059 6.41 1.47 11.19
11/10/2020 5:15:00 PM 8.8 47.84 0.059 6.41 1.4 11.18
11/10/2020 5:30:00 PM 8.79 47.822 0.059 6.4 1.34 11.16
11/10/2020 5:45:00 PM 8.77 47.786 0.059 6.4 1.39 11.15
11/10/2020 6:00:00 PM -100000 -179968 -100000 -100000 -100000 -100000
11/10/2020 6:15:00 PM 8.73 47.714 0.06 6.39 1.42 11.13
11/10/2020 6:30:00 PM 8.72 47.696 0.06 6.39 1.39 11.12
11/10/2020 6:45:00 PM 8.7 47.66 0.06 6.38 1.38 11.13
11/10/2020 7:00:00 PM 8.68 47.624 0.06 6.38 1.37 11.12
11/10/2020 7:15:00 PM 8.67 47.606 0.06 6.38 1.38 11.12
11/10/2020 7:30:00 PM 8.65 47.57 0.06 6.38 1.36 11.12
11/10/2020 7:45:00 PM 8.65 47.57 0.06 6.38 1.39 11.11
11/10/2020 8:00:00 PM 8.65 47.57 0.06 6.38 1.41 11.12
11/10/2020 8:15:00 PM 8.65 47.57 0.06 6.37 1.37 11.1
11/10/2020 8:30:00 PM 8.65 47.57 0.06 6.37 1.37 11.09
11/10/2020 8:45:00 PM 8.66 47.588 0.06 6.37 1.34 11.09
11/10/2020 9:00:00 PM 8.67 47.606 0.06 6.37 1.33 11.08
11/10/2020 9:15:00 PM 8.67 47.606 0.06 6.37 1.37 11.06
11/10/2020 9:30:00 PM 8.68 47.624 0.06 6.36 1.39 11.07
11/10/2020 9:45:00 PM 8.68 47.624 0.06 6.37 1.38 11.08
11/10/2020 10:00:00 PM 8.68 47.624 0.06 6.37 1.39 11.07
11/10/2020 10:15:00 PM 8.67 47.606 0.06 6.37 1.37 11.07
11/10/2020 10:30:00 PM -100000 -179968 -100000 -100000 -100000 -100000
11/10/2020 10:45:00 PM 8.65 47.57 0.06 6.37 1.38 11.08
11/10/2020 11:00:00 PM 8.63 47.534 0.06 6.36 1.33 11.08
11/10/2020 11:15:00 PM 8.61 47.498 0.06 6.36 1.37 11.08
11/10/2020 11:30:00 PM 8.59 47.462 0.06 6.36 1.45 11.07
11/10/2020 11:45:00 PM 8.55 47.39 0.06 6.36 1.36 11.12
11/11/2020 12:00:00 AM 8.53 47.354 0.061 6.36 1.34 11.1
11/11/2020 12:15:00 AM 8.5 47.3 0.06 6.36 1.34 11.11
11/11/2020 12:30:00 AM 8.48 47.264 0.06 6.36 1.35 11.1
11/11/2020 12:45:00 AM 8.44 47.192 0.06 6.36 1.37 11.12
11/11/2020 1:00:00 AM 8.41 47.138 0.06 6.36 1.37 11.14
11/11/2020 1:15:00 AM 8.38 47.084 0.06 6.36 1.39 11.14
11/11/2020 1:30:00 AM 8.35 47.03 0.06 6.36 1.38 11.15
11/11/2020 1:45:00 AM 8.31 46.958 0.06 6.36 1.36 11.16
11/11/2020 2:00:00 AM 8.28 46.904 0.06 6.36 1.39 11.18
11/11/2020 2:15:00 AM 8.26 46.868 0.06 6.36 1.38 11.17
11/11/2020 2:30:00 AM 8.22 46.796 0.06 6.36 1.38 11.19
11/11/2020 2:45:00 AM 8.19 46.742 0.06 6.35 1.41 11.19
11/11/2020 3:00:00 AM 8.17 46.706 0.061 6.36 1.42 11.19
11/11/2020 3:15:00 AM 8.15 46.67 0.061 6.35 1.35 11.2
11/11/2020 3:30:00 AM 8.14 46.652 0.061 6.35 1.38 11.21
11/11/2020 3:45:00 AM 8.13 46.634 0.061 6.36 1.38 11.22
11/11/2020 4:00:00 AM 8.13 46.634 0.061 6.36 1.37 11.23
11/11/2020 4:15:00 AM 8.13 46.634 0.061 6.35 1.36 11.22
11/11/2020 4:30:00 AM 8.13 46.634 0.061 6.36 1.37 11.23
11/11/2020 4:45:00 AM 8.13 46.634 0.061 6.35 1.47 11.22
11/11/2020 5:00:00 AM 8.13 46.634 0.061 6.35 1.49 11.22
11/11/2020 5:15:00 AM 8.14 46.652 0.061 6.35 1.37 11.21
11/11/2020 5:30:00 AM 8.14 46.652 0.061 6.35 1.39 11.22
11/11/2020 5:45:00 AM 8.15 46.67 0.061 6.36 1.5 11.24
11/11/2020 6:00:00 AM 8.16 46.688 0.06 6.35 1.43 11.21
11/11/2020 6:15:00 AM 8.17 46.706 0.06 6.35 1.41 11.21
11/11/2020 6:30:00 AM -100000 -179968 -100000 -100000 -100000 -100000
11/11/2020 6:45:00 AM 8.19 46.742 0.06 6.34 1.38 11.21
11/11/2020 7:00:00 AM 8.2 46.76 0.06 6.35 1.57 11.2
11/11/2020 7:15:00 AM 8.22 46.796 0.06 6.38 1.64 11.18
11/11/2020 7:30:00 AM 8.24 46.832 0.059 6.38 1.6 11.15
11/11/2020 7:45:00 AM -100000 -179968 -100000 -100000 -100000 -100000
11/11/2020 8:00:00 AM 8.34 47.012 0.057 6.44 2.08 11.12
11/11/2020 8:15:00 AM 8.35 47.03 0.057 6.4 1.74 11.06
11/11/2020 8:30:00 AM 8.37 47.066 0.058 6.38 1.73 11.11
11/11/2020 8:45:00 AM 8.4 47.12 0.058 6.36 1.86 11.1
11/11/2020 9:00:00 AM 8.44 47.192 0.057 6.41 1.66 11.11
11/11/2020 9:15:00 AM 8.48 47.264 0.057 6.41 1.77 11.12
11/11/2020 9:30:00 AM 8.56 47.408 0.056 6.52 2.18 11.08
11/11/2020 9:45:00 AM 8.63 47.534 0.055 6.51 2.3 11.09
11/11/2020 10:00:00 AM 8.68 47.624 0.055 6.5 2.49 11.08
11/11/2020 10:15:00 AM 8.75 47.75 0.055 6.5 2.99 11.04
11/11/2020 10:30:00 AM 8.85 47.93 0.054 6.54 3.21 11
11/11/2020 10:45:00 AM 8.88 47.984 0.054 6.55 2.86 10.99
11/11/2020 11:00:00 AM 8.94 48.092 0.055 6.58 3.87 10.88
11/11/2020 11:15:00 AM 8.98 48.164 0.056 6.58 2.97 10.81
11/11/2020 11:30:00 AM 9 48.2 0.06 6.52 3.72 10.77
11/11/2020 11:45:00 AM 9.02 48.236 0.064 6.44 3.34 10.93
11/11/2020 12:00:00 PM 9.08 48.344 0.07 6.45 4.09 10.98
11/11/2020 12:15:00 PM 9.14 48.452 0.076 6.48 6.55 10.97
11/11/2020 12:30:00 PM 9.22 48.596 0.078 6.5 7.96 10.94
11/11/2020 12:45:00 PM 9.33 48.794 0.08 6.5 11.12 10.93
11/11/2020 1:00:00 PM 9.4 48.92 0.079 6.5 12.65 10.91
11/11/2020 1:15:00 PM 9.48 49.064 0.077 6.48 12.24 10.91
11/11/2020 1:30:00 PM 9.54 49.172 0.075 6.45 12.72 10.91
11/11/2020 1:45:00 PM 9.55 49.19 0.075 6.4 11 10.91
11/11/2020 2:00:00 PM 9.56 49.208 0.076 6.34 10.4 10.91
11/11/2020 2:15:00 PM 9.58 49.244 0.076 6.29 10.62 10.91
11/11/2020 2:30:00 PM 9.61 49.298 0.074 6.27 7.93 10.9
11/11/2020 2:45:00 PM 9.64 49.352 0.072 6.25 8.22 10.9
11/11/2020 3:00:00 PM 9.66 49.388 0.07 6.24 9.32 10.9
11/11/2020 3:15:00 PM 9.69 49.442 0.07 6.22 9.56 10.89
11/11/2020 3:30:00 PM -100000 -179968 -100000 -100000 -100000 -100000
11/11/2020 3:45:00 PM 9.77 49.586 0.065 6.16 20.58 10.87
11/11/2020 4:00:00 PM 9.82 49.676 0.061 6.14 26.52 10.87
11/11/2020 4:15:00 PM 9.84 49.712 0.056 6.12 27.44 10.85
11/11/2020 4:30:00 PM 9.87 49.766 0.051 6.13 23.62 10.84
11/11/2020 4:45:00 PM 9.89 49.802 0.047 6.14 17.73 10.83
11/11/2020 5:00:00 PM 9.9 49.82 0.045 6.15 15.55 10.83
11/11/2020 5:15:00 PM 9.9 49.82 0.043 6.15 13.34 10.84
11/11/2020 5:30:00 PM 9.91 49.838 0.042 6.15 15.15 10.84
11/11/2020 5:45:00 PM 9.91 49.838 0.042 6.15 13.8 10.83
11/11/2020 6:00:00 PM -100000 -179968 -100000 -100000 -100000 -100000
11/11/2020 6:15:00 PM 9.92 49.856 0.041 6.15 13.93 10.84
11/11/2020 6:30:00 PM 9.92 49.856 0.041 6.15 12.66 10.83
11/11/2020 6:45:00 PM 9.93 49.874 0.041 6.14 8.83 10.83
11/11/2020 7:00:00 PM 9.95 49.91 0.04 6.14 11.37 10.83
11/11/2020 7:15:00 PM -100000 -179968 -100000 -100000 -100000 -100000
11/11/2020 7:30:00 PM 9.99 49.982 0.04 6.13 10.15 10.82
11/11/2020 7:45:00 PM 10.01 50.018 0.04 6.13 9.55 10.81
11/11/2020 8:00:00 PM 10.03 50.054 0.04 6.12 9.18 10.79
11/11/2020 8:15:00 PM 10.05 50.09 0.04 6.12 9.42 10.79
11/11/2020 8:30:00 PM 10.08 50.144 0.039 6.11 8.74 10.77
11/11/2020 8:45:00 PM 10.1 50.18 0.039 6.12 7.91 10.77
11/11/2020 9:00:00 PM -100000 -179968 -100000 -100000 -100000 -100000
11/11/2020 9:15:00 PM 10.14 50.252 0.039 6.11 8.4 10.74
11/11/2020 9:30:00 PM 10.17 50.306 0.039 6.11 7.44 10.76
11/11/2020 9:45:00 PM 10.19 50.342 0.038 6.1 6.74 10.76
11/11/2020 10:00:00 PM 10.21 50.378 0.038 6.11 6.87 10.76
11/11/2020 10:15:00 PM 10.23 50.414 0.038 6.13 7.79 10.75
11/11/2020 10:30:00 PM 10.25 50.45 0.038 6.13 6.64 10.74
11/11/2020 10:45:00 PM 10.26 50.468 0.038 6.15 6.54 10.73
11/11/2020 11:00:00 PM 10.28 50.504 0.038 6.15 6.6 10.71
11/11/2020 11:15:00 PM 10.29 50.522 0.038 6.16 5.98 10.72
11/11/2020 11:30:00 PM 10.3 50.54 0.038 6.15 6.22 10.73
11/11/2020 11:45:00 PM 10.31 50.558 0.038 6.16 6.22 10.71
11/12/2020 12:00:00 AM 10.31 50.558 0.038 6.15 5.46 10.72
11/12/2020 12:15:00 AM 10.31 50.558 0.039 6.16 5.58 10.7
11/12/2020 12:30:00 AM 10.31 50.558 0.039 6.15 5.62 10.69
11/12/2020 12:45:00 AM 10.31 50.558 0.039 6.14 5.82 10.72
11/12/2020 1:00:00 AM 10.31 50.558 0.039 6.14 5.17 10.69
11/12/2020 1:15:00 AM 10.3 50.54 0.039 6.14 5.51 10.7
11/12/2020 1:30:00 AM 10.28 50.504 0.039 6.13 5.15 10.7
11/12/2020 1:45:00 AM 10.27 50.486 0.04 6.14 5.13 10.71
11/12/2020 2:00:00 AM 10.25 50.45 0.04 6.13 4.51 10.69
11/12/2020 2:15:00 AM 10.22 50.396 0.04 6.13 4.57 10.67
11/12/2020 2:30:00 AM 10.19 50.342 0.04 6.13 4.61 10.72
11/12/2020 2:45:00 AM 10.16 50.288 0.04 6.13 4.92 10.63
11/12/2020 3:00:00 AM 10.14 50.252 0.04 6.12 4.85 10.66
11/12/2020 3:15:00 AM 10.1 50.18 0.04 6.11 4.9 10.56
11/12/2020 3:30:00 AM 10.07 50.126 0.041 6.12 4.71 10.73
11/12/2020 3:45:00 AM 10.04 50.072 0.041 6.11 4.57 10.73
11/12/2020 4:00:00 AM 9.99 49.982 0.041 6.11 4.27 10.71
11/12/2020 4:15:00 AM 9.96 49.928 0.041 6.11 4.36 10.67
11/12/2020 4:30:00 AM 9.92 49.856 0.041 6.11 4.19 10.76
11/12/2020 4:45:00 AM 9.88 49.784 0.041 6.11 4 10.78
11/12/2020 5:00:00 AM 9.85 49.73 0.041 6.11 3.95 10.78
11/12/2020 5:15:00 AM 9.81 49.658 0.041 6.1 4.02 10.78
11/12/2020 5:30:00 AM 9.77 49.586 0.041 6.1 4.02 10.82
11/12/2020 5:45:00 AM 9.74 49.532 0.041 6.11 4.33 10.81
11/12/2020 6:00:00 AM 9.71 49.478 0.041 6.11 3.98 10.84
11/12/2020 6:15:00 AM 9.68 49.424 0.041 6.11 3.97 10.82
11/12/2020 6:30:00 AM 9.64 49.352 0.041 6.1 4.12 10.87
11/12/2020 6:45:00 AM 9.59 49.262 0.042 6.11 4.05 10.89
11/12/2020 7:00:00 AM 9.55 49.19 0.042 6.11 4.06 10.79
11/12/2020 7:15:00 AM 9.51 49.118 0.042 6.11 4 10.92
11/12/2020 7:30:00 AM 9.48 49.064 0.042 6.11 3.76 10.91
11/12/2020 7:45:00 AM 9.46 49.028 0.042 6.11 3.6 10.93
11/12/2020 8:00:00 AM 9.43 48.974 0.042 6.1 3.64 10.9
11/12/2020 8:15:00 AM 9.4 48.92 0.042 6.12 3.61 10.95
11/12/2020 8:30:00 AM -100000 -179968 -100000 -100000 -100000 -100000
11/12/2020 8:45:00 AM 9.35 48.83 0.042 6.12 3.9 10.99
11/12/2020 9:00:00 AM 9.33 48.794 0.042 6.12 3.61 10.97
11/12/2020 9:15:00 AM 9.31 48.758 0.042 6.13 3.78 11.02
11/12/2020 9:30:00 AM 9.3 48.74 0.042 6.13 3.76 11.03
11/12/2020 9:45:00 AM -100000 -179968 -100000 -100000 -100000 -100000
11/12/2020 10:00:00 AM 9.28 48.704 0.042 6.13 3.5 11.07
11/12/2020 10:15:00 AM 9.28 48.704 0.042 6.13 3.38 11.07
11/12/2020 10:30:00 AM 9.29 48.722 0.042 6.14 3.35 11.07
11/12/2020 10:45:00 AM 9.28 48.704 0.042 6.14 3.56 11.07
11/12/2020 11:00:00 AM 9.3 48.74 0.043 6.13 3.81 11.04
11/12/2020 11:15:00 AM 9.3 48.74 0.043 6.15 3.42 11.08
11/12/2020 11:30:00 AM 9.32 48.776 0.043 6.14 3.2 11.05
11/12/2020 11:45:00 AM 9.35 48.83 0.043 6.14 3.46 11
11/12/2020 12:00:00 PM 9.36 48.848 0.043 6.14 3.71 11.01
11/12/2020 12:15:00 PM 9.38 48.884 0.043 6.13 3.19 11.02
11/12/2020 12:30:00 PM 9.4 48.92 0.043 6.14 3.24 11.01
11/12/2020 12:45:00 PM 9.45 49.01 0.043 6.14 3.46 10.99
11/12/2020 1:00:00 PM 9.51 49.118 0.043 6.15 3.39 10.99
11/12/2020 1:15:00 PM 9.54 49.172 0.043 6.15 3.21 10.89
11/12/2020 1:30:00 PM 9.58 49.244 0.043 6.15 3.08 11
11/12/2020 1:45:00 PM 9.61 49.298 0.043 6.15 3.16 10.98
11/12/2020 2:00:00 PM 9.64 49.352 0.043 6.15 3.08 10.98
11/12/2020 2:15:00 PM 9.64 49.352 0.043 6.16 3.13 10.97
11/12/2020 2:30:00 PM 9.63 49.334 0.043 6.16 3.36 10.98
11/12/2020 2:45:00 PM 9.62 49.316 0.043 6.15 3.06 10.95
11/12/2020 3:00:00 PM 9.59 49.262 0.043 6.16 3 10.96
11/12/2020 3:15:00 PM 9.57 49.226 0.043 6.15 4.42 10.95
11/12/2020 3:30:00 PM 9.56 49.208 0.043 6.16 3.24 10.94
11/12/2020 3:45:00 PM 9.54 49.172 0.043 6.16 3.15 10.96
11/12/2020 4:00:00 PM 9.53 49.154 0.043 6.16 3.08 10.97
11/12/2020 4:15:00 PM 9.52 49.136 0.043 6.16 3.1 10.95
11/12/2020 4:30:00 PM 9.49 49.082 0.043 6.16 3.54 10.94
11/12/2020 4:45:00 PM 9.47 49.046 0.043 6.15 3 10.95
11/12/2020 5:00:00 PM 9.41 48.938 0.043 6.16 3.01 10.97
11/12/2020 5:15:00 PM 9.36 48.848 0.043 6.15 6.11 10.93
11/12/2020 5:30:00 PM 9.31 48.758 0.044 6.16 4.11 10.95
11/12/2020 5:45:00 PM 9.24 48.632 0.044 6.16 2.84 11
11/12/2020 6:00:00 PM 9.18 48.524 0.044 6.16 2.81 11.01
11/12/2020 6:15:00 PM 9.11 48.398 0.044 6.16 2.7 11.02
11/12/2020 6:30:00 PM 9.03 48.254 0.044 6.16 2.86 11.03
11/12/2020 6:45:00 PM 8.95 48.11 0.044 6.16 2.92 11.05
11/12/2020 7:00:00 PM 8.84 47.912 0.044 6.16 2.76 11.11
11/12/2020 7:15:00 PM 8.75 47.75 0.044 6.15 2.69 11.13
11/12/2020 7:30:00 PM 8.67 47.606 0.044 6.16 2.82 11.14
11/12/2020 7:45:00 PM 8.56 47.408 0.044 6.16 2.77 11.19
11/12/2020 8:00:00 PM 8.48 47.264 0.044 6.16 2.64 11.17
11/12/2020 8:15:00 PM 8.36 47.048 0.045 6.16 2.64 11.24
11/12/2020 8:30:00 PM 8.27 46.886 0.045 6.16 2.63 11.25
11/12/2020 8:45:00 PM 8.17 46.706 0.045 6.17 3 11.29
11/12/2020 9:00:00 PM 8.06 46.508 0.045 6.16 2.89 11.31
11/12/2020 9:15:00 PM 8 46.4 0.045 6.17 2.63 11.32
11/12/2020 9:30:00 PM 7.86 46.148 0.045 6.16 2.59 11.36
11/12/2020 9:45:00 PM 7.77 45.986 0.045 6.17 2.63 11.39
11/12/2020 10:00:00 PM -100000 -179968 -100000 -100000 -100000 -100000
11/12/2020 10:15:00 PM 7.6 45.68 0.045 6.17 3.62 11.43
11/12/2020 10:30:00 PM 7.48 45.464 0.045 6.16 2.73 11.48
11/12/2020 10:45:00 PM 7.41 45.338 0.046 6.18 2.71 11.48
11/12/2020 11:00:00 PM 7.31 45.158 0.046 6.16 2.52 11.52
11/12/2020 11:15:00 PM 7.21 44.978 0.046 6.17 2.52 11.55
11/12/2020 11:30:00 PM 7.13 44.834 0.046 6.18 2.76 11.57
11/12/2020 11:45:00 PM 7.06 44.708 0.046 6.17 2.58 11.57
11/13/2020 12:00:00 AM 6.97 44.546 0.046 6.18 2.55 11.59
11/13/2020 12:15:00 AM 6.89 44.402 0.046 6.18 2.54 11.64
11/13/2020 12:30:00 AM 6.8 44.24 0.047 6.17 2.54 11.68
11/13/2020 12:45:00 AM 6.73 44.114 0.047 6.18 2.6 11.71
11/13/2020 1:00:00 AM 6.66 43.988 0.047 6.17 2.43 11.71
11/13/2020 1:15:00 AM 6.57 43.826 0.047 6.18 2.52 11.75
11/13/2020 1:30:00 AM 6.52 43.736 0.047 6.18 3.11 11.75
11/13/2020 1:45:00 AM 6.47 43.646 0.047 6.18 2.4 11.77
11/13/2020 2:00:00 AM 6.38 43.484 0.047 6.18 2.47 11.82
11/13/2020 2:15:00 AM 6.34 43.412 0.047 6.18 2.47 11.8
11/13/2020 2:30:00 AM 6.27 43.286 0.047 6.18 2.45 11.84
11/13/2020 2:45:00 AM 6.2 43.16 0.047 6.19 2.56 11.88
11/13/2020 3:00:00 AM 6.13 43.034 0.047 6.18 2.47 11.91
11/13/2020 3:15:00 AM 6.07 42.926 0.047 6.18 2.4 11.94
11/13/2020 3:30:00 AM 6.01 42.818 0.047 6.18 2.44 11.95
11/13/2020 3:45:00 AM 5.94 42.692 0.047 6.18 2.44 11.98
11/13/2020 4:00:00 AM 5.92 42.656 0.047 6.19 2.39 11.98
11/13/2020 4:15:00 AM 5.88 42.584 0.047 6.18 2.47 11.97
11/13/2020 4:30:00 AM -100000 -179968 -100000 -100000 -100000 -100000
11/13/2020 4:45:00 AM 5.77 42.386 0.048 6.18 2.35 12.03
11/13/2020 5:00:00 AM -100000 -179968 -100000 -100000 -100000 -100000
11/13/2020 5:15:00 AM 5.7 42.26 0.048 6.18 2.33 12.01
11/13/2020 5:30:00 AM 5.64 42.152 0.048 6.19 2.37 12.04
11/13/2020 5:45:00 AM 5.59 42.062 0.048 6.2 2.36 12.07
11/13/2020 6:00:00 AM 5.53 41.954 0.048 6.19 2.3 12.1
11/13/2020 6:15:00 AM 5.51 41.918 0.048 6.2 2.37 12.1
11/13/2020 6:30:00 AM 5.43 41.774 0.048 6.2 2.32 12.14
11/13/2020 6:45:00 AM 5.38 41.684 0.048 6.2 2.37 12.12
11/13/2020 7:00:00 AM 5.33 41.594 0.048 6.18 2.41 12.17
11/13/2020 7:15:00 AM 5.28 41.504 0.048 6.19 2.35 12.16
11/13/2020 7:30:00 AM 5.21 41.378 0.048 6.19 2.33 12.18
11/13/2020 7:45:00 AM 5.16 41.288 0.049 6.2 2.4 12.23
11/13/2020 8:00:00 AM 5.12 41.216 0.048 6.19 2.37 12.25
11/13/2020 8:15:00 AM 5.1 41.18 0.048 6.19 2.39 12.2
11/13/2020 8:30:00 AM 5.06 41.108 0.049 6.2 2.28 12.29
11/13/2020 8:45:00 AM 5.06 41.108 0.049 6.21 2.36 12.28
11/13/2020 9:00:00 AM